<?xml version="1.0" encoding="UTF-8" standalone="no" ?>
<gpx xmlns="http://www.topografix.com/GPX/1/1" xmlns:xsi="http://www.w3.org/2001/XMLSchema-instance" xsi:schemaLocation="http://www.topografix.com/GPX/1/1 http://www.topografix.com/GPX/1/1/gpx.xsd" version="1.1" creator="VisuGPX - https://www.visugpx.com">
  <metadata>
    <name>2021-06-03 14:22</name>
  </metadata>
  <trk>
    <name><![CDATA[2021-06-03 18:31:51]]></name>
    <trkseg>
      <trkpt lat="45.66211" lon="4.45734">
        <ele>724.97</ele>
        <time>2021-06-03T07:42:07Z</time>
      </trkpt>
      <trkpt lat="45.66211" lon="4.45734">
        <ele>724.97</ele>
        <time>2021-06-03T07:42:08Z</time>
      </trkpt>
      <trkpt lat="45.6621" lon="4.45732">
        <ele>728.34</ele>
        <time>2021-06-03T07:42:12Z</time>
      </trkpt>
      <trkpt lat="45.66211" lon="4.45732">
        <ele>728.34</ele>
        <time>2021-06-03T07:42:13Z</time>
      </trkpt>
      <trkpt lat="45.66212" lon="4.45731">
        <ele>728.34</ele>
        <time>2021-06-03T07:42:26Z</time>
      </trkpt>
      <trkpt lat="45.66213" lon="4.45731">
        <ele>728.34</ele>
        <time>2021-06-03T07:42:33Z</time>
      </trkpt>
      <trkpt lat="45.66215" lon="4.45727">
        <ele>728.34</ele>
        <time>2021-06-03T07:42:37Z</time>
      </trkpt>
      <trkpt lat="45.6622" lon="4.45724">
        <ele>727.86</ele>
        <time>2021-06-03T07:42:45Z</time>
      </trkpt>
      <trkpt lat="45.66223" lon="4.45715">
        <ele>727.37</ele>
        <time>2021-06-03T07:42:52Z</time>
      </trkpt>
      <trkpt lat="45.66223" lon="4.45704">
        <ele>726.89</ele>
        <time>2021-06-03T07:43:01Z</time>
      </trkpt>
      <trkpt lat="45.66217" lon="4.45695">
        <ele>726.89</ele>
        <time>2021-06-03T07:43:10Z</time>
      </trkpt>
      <trkpt lat="45.66213" lon="4.45691">
        <ele>726.41</ele>
        <time>2021-06-03T07:43:16Z</time>
      </trkpt>
      <trkpt lat="45.66203" lon="4.45685">
        <ele>726.41</ele>
        <time>2021-06-03T07:43:26Z</time>
      </trkpt>
      <trkpt lat="45.66197" lon="4.45683">
        <ele>726.41</ele>
        <time>2021-06-03T07:43:32Z</time>
      </trkpt>
      <trkpt lat="45.6619" lon="4.45679">
        <ele>725.93</ele>
        <time>2021-06-03T07:43:40Z</time>
      </trkpt>
      <trkpt lat="45.66183" lon="4.45677">
        <ele>725.45</ele>
        <time>2021-06-03T07:43:48Z</time>
      </trkpt>
      <trkpt lat="45.6618" lon="4.45676">
        <ele>725.45</ele>
        <time>2021-06-03T07:43:51Z</time>
      </trkpt>
      <trkpt lat="45.6617" lon="4.45677">
        <ele>725.45</ele>
        <time>2021-06-03T07:44:00Z</time>
      </trkpt>
      <trkpt lat="45.66162" lon="4.4568">
        <ele>724.49</ele>
        <time>2021-06-03T07:44:09Z</time>
      </trkpt>
      <trkpt lat="45.66156" lon="4.45685">
        <ele>724.01</ele>
        <time>2021-06-03T07:44:18Z</time>
      </trkpt>
      <trkpt lat="45.66155" lon="4.45689">
        <ele>723.05</ele>
        <time>2021-06-03T07:44:23Z</time>
      </trkpt>
      <trkpt lat="45.66153" lon="4.45688">
        <ele>723.05</ele>
        <time>2021-06-03T07:44:28Z</time>
      </trkpt>
      <trkpt lat="45.66152" lon="4.45688">
        <ele>723.05</ele>
        <time>2021-06-03T07:44:30Z</time>
      </trkpt>
      <trkpt lat="45.66148" lon="4.4569">
        <ele>723.05</ele>
        <time>2021-06-03T07:44:34Z</time>
      </trkpt>
      <trkpt lat="45.66146" lon="4.45691">
        <ele>723.05</ele>
        <time>2021-06-03T07:44:36Z</time>
      </trkpt>
      <trkpt lat="45.66141" lon="4.45692">
        <ele>722.09</ele>
        <time>2021-06-03T07:44:43Z</time>
      </trkpt>
      <trkpt lat="45.66138" lon="4.45694">
        <ele>722.09</ele>
        <time>2021-06-03T07:44:49Z</time>
      </trkpt>
      <trkpt lat="45.66133" lon="4.45694">
        <ele>721.61</ele>
        <time>2021-06-03T07:44:57Z</time>
      </trkpt>
      <trkpt lat="45.66131" lon="4.45696">
        <ele>721.61</ele>
        <time>2021-06-03T07:45:02Z</time>
      </trkpt>
      <trkpt lat="45.66124" lon="4.457">
        <ele>721.13</ele>
        <time>2021-06-03T07:45:10Z</time>
      </trkpt>
      <trkpt lat="45.66119" lon="4.457">
        <ele>720.65</ele>
        <time>2021-06-03T07:45:14Z</time>
      </trkpt>
      <trkpt lat="45.66109" lon="4.45702">
        <ele>719.68</ele>
        <time>2021-06-03T07:45:24Z</time>
      </trkpt>
      <trkpt lat="45.661" lon="4.45704">
        <ele>718.72</ele>
        <time>2021-06-03T07:45:32Z</time>
      </trkpt>
      <trkpt lat="45.66096" lon="4.45704">
        <ele>718.24</ele>
        <time>2021-06-03T07:45:37Z</time>
      </trkpt>
      <trkpt lat="45.66086" lon="4.45707">
        <ele>717.28</ele>
        <time>2021-06-03T07:45:46Z</time>
      </trkpt>
      <trkpt lat="45.66083" lon="4.45707">
        <ele>716.8</ele>
        <time>2021-06-03T07:45:48Z</time>
      </trkpt>
      <trkpt lat="45.6608" lon="4.45709">
        <ele>716.32</ele>
        <time>2021-06-03T07:45:51Z</time>
      </trkpt>
      <trkpt lat="45.66073" lon="4.45709">
        <ele>715.36</ele>
        <time>2021-06-03T07:45:58Z</time>
      </trkpt>
      <trkpt lat="45.66065" lon="4.45713">
        <ele>714.4</ele>
        <time>2021-06-03T07:46:06Z</time>
      </trkpt>
      <trkpt lat="45.66054" lon="4.45719">
        <ele>712.95</ele>
        <time>2021-06-03T07:46:16Z</time>
      </trkpt>
      <trkpt lat="45.66053" lon="4.45719">
        <ele>711.99</ele>
        <time>2021-06-03T07:46:17Z</time>
      </trkpt>
      <trkpt lat="45.66049" lon="4.45721">
        <ele>711.99</ele>
        <time>2021-06-03T07:46:21Z</time>
      </trkpt>
      <trkpt lat="45.66044" lon="4.45723">
        <ele>711.03</ele>
        <time>2021-06-03T07:46:25Z</time>
      </trkpt>
      <trkpt lat="45.66038" lon="4.45726">
        <ele>711.03</ele>
        <time>2021-06-03T07:46:31Z</time>
      </trkpt>
      <trkpt lat="45.66035" lon="4.45727">
        <ele>710.55</ele>
        <time>2021-06-03T07:46:34Z</time>
      </trkpt>
      <trkpt lat="45.66026" lon="4.45726">
        <ele>710.07</ele>
        <time>2021-06-03T07:46:42Z</time>
      </trkpt>
      <trkpt lat="45.66018" lon="4.45725">
        <ele>708.63</ele>
        <time>2021-06-03T07:46:49Z</time>
      </trkpt>
      <trkpt lat="45.66009" lon="4.45721">
        <ele>708.15</ele>
        <time>2021-06-03T07:46:57Z</time>
      </trkpt>
      <trkpt lat="45.66005" lon="4.45719">
        <ele>707.67</ele>
        <time>2021-06-03T07:47:00Z</time>
      </trkpt>
      <trkpt lat="45.66001" lon="4.45719">
        <ele>707.19</ele>
        <time>2021-06-03T07:47:04Z</time>
      </trkpt>
      <trkpt lat="45.65993" lon="4.45716">
        <ele>706.71</ele>
        <time>2021-06-03T07:47:11Z</time>
      </trkpt>
      <trkpt lat="45.6599" lon="4.45714">
        <ele>705.75</ele>
        <time>2021-06-03T07:47:14Z</time>
      </trkpt>
      <trkpt lat="45.65987" lon="4.45714">
        <ele>705.75</ele>
        <time>2021-06-03T07:47:17Z</time>
      </trkpt>
      <trkpt lat="45.65975" lon="4.4571">
        <ele>705.26</ele>
        <time>2021-06-03T07:47:27Z</time>
      </trkpt>
      <trkpt lat="45.65972" lon="4.4571">
        <ele>705.26</ele>
        <time>2021-06-03T07:47:30Z</time>
      </trkpt>
      <trkpt lat="45.65965" lon="4.45709">
        <ele>704.78</ele>
        <time>2021-06-03T07:47:36Z</time>
      </trkpt>
      <trkpt lat="45.65956" lon="4.45708">
        <ele>703.82</ele>
        <time>2021-06-03T07:47:44Z</time>
      </trkpt>
      <trkpt lat="45.65946" lon="4.45707">
        <ele>703.34</ele>
        <time>2021-06-03T07:47:52Z</time>
      </trkpt>
      <trkpt lat="45.65939" lon="4.45708">
        <ele>703.34</ele>
        <time>2021-06-03T07:47:58Z</time>
      </trkpt>
      <trkpt lat="45.65933" lon="4.45706">
        <ele>702.38</ele>
        <time>2021-06-03T07:48:03Z</time>
      </trkpt>
      <trkpt lat="45.65923" lon="4.45707">
        <ele>701.9</ele>
        <time>2021-06-03T07:48:11Z</time>
      </trkpt>
      <trkpt lat="45.65914" lon="4.45708">
        <ele>701.42</ele>
        <time>2021-06-03T07:48:19Z</time>
      </trkpt>
      <trkpt lat="45.65904" lon="4.4571">
        <ele>700.94</ele>
        <time>2021-06-03T07:48:27Z</time>
      </trkpt>
      <trkpt lat="45.65896" lon="4.45712">
        <ele>700.46</ele>
        <time>2021-06-03T07:48:33Z</time>
      </trkpt>
      <trkpt lat="45.65887" lon="4.45717">
        <ele>699.5</ele>
        <time>2021-06-03T07:48:41Z</time>
      </trkpt>
      <trkpt lat="45.6588" lon="4.45721">
        <ele>698.53</ele>
        <time>2021-06-03T07:48:49Z</time>
      </trkpt>
      <trkpt lat="45.65875" lon="4.45725">
        <ele>697.57</ele>
        <time>2021-06-03T07:48:56Z</time>
      </trkpt>
      <trkpt lat="45.65866" lon="4.45729">
        <ele>696.61</ele>
        <time>2021-06-03T07:49:04Z</time>
      </trkpt>
      <trkpt lat="45.6586" lon="4.45731">
        <ele>695.65</ele>
        <time>2021-06-03T07:49:10Z</time>
      </trkpt>
      <trkpt lat="45.65855" lon="4.45736">
        <ele>694.21</ele>
        <time>2021-06-03T07:49:17Z</time>
      </trkpt>
      <trkpt lat="45.65849" lon="4.45742">
        <ele>692.77</ele>
        <time>2021-06-03T07:49:25Z</time>
      </trkpt>
      <trkpt lat="45.65845" lon="4.45752">
        <ele>691.33</ele>
        <time>2021-06-03T07:49:34Z</time>
      </trkpt>
      <trkpt lat="45.6584" lon="4.45761">
        <ele>690.84</ele>
        <time>2021-06-03T07:49:42Z</time>
      </trkpt>
      <trkpt lat="45.65836" lon="4.45768">
        <ele>689.88</ele>
        <time>2021-06-03T07:49:48Z</time>
      </trkpt>
      <trkpt lat="45.65832" lon="4.45777">
        <ele>688.44</ele>
        <time>2021-06-03T07:49:55Z</time>
      </trkpt>
      <trkpt lat="45.65828" lon="4.45786">
        <ele>687</ele>
        <time>2021-06-03T07:50:03Z</time>
      </trkpt>
      <trkpt lat="45.65827" lon="4.45787">
        <ele>687</ele>
        <time>2021-06-03T07:50:05Z</time>
      </trkpt>
      <trkpt lat="45.65825" lon="4.45792">
        <ele>687</ele>
        <time>2021-06-03T07:50:10Z</time>
      </trkpt>
      <trkpt lat="45.6582" lon="4.45798">
        <ele>686.04</ele>
        <time>2021-06-03T07:50:17Z</time>
      </trkpt>
      <trkpt lat="45.65817" lon="4.45805">
        <ele>685.56</ele>
        <time>2021-06-03T07:50:23Z</time>
      </trkpt>
      <trkpt lat="45.65813" lon="4.45809">
        <ele>684.6</ele>
        <time>2021-06-03T07:50:29Z</time>
      </trkpt>
      <trkpt lat="45.65812" lon="4.45811">
        <ele>684.6</ele>
        <time>2021-06-03T07:50:31Z</time>
      </trkpt>
      <trkpt lat="45.65808" lon="4.45815">
        <ele>683.63</ele>
        <time>2021-06-03T07:50:37Z</time>
      </trkpt>
      <trkpt lat="45.65803" lon="4.4582">
        <ele>683.15</ele>
        <time>2021-06-03T07:50:44Z</time>
      </trkpt>
      <trkpt lat="45.65799" lon="4.45824">
        <ele>682.67</ele>
        <time>2021-06-03T07:50:50Z</time>
      </trkpt>
      <trkpt lat="45.65796" lon="4.45827">
        <ele>682.19</ele>
        <time>2021-06-03T07:51:00Z</time>
      </trkpt>
      <trkpt lat="45.65793" lon="4.45832">
        <ele>681.71</ele>
        <time>2021-06-03T07:51:08Z</time>
      </trkpt>
      <trkpt lat="45.65789" lon="4.45835">
        <ele>681.71</ele>
        <time>2021-06-03T07:51:13Z</time>
      </trkpt>
      <trkpt lat="45.65785" lon="4.45841">
        <ele>681.23</ele>
        <time>2021-06-03T07:51:20Z</time>
      </trkpt>
      <trkpt lat="45.65784" lon="4.45844">
        <ele>680.75</ele>
        <time>2021-06-03T07:51:27Z</time>
      </trkpt>
      <trkpt lat="45.65782" lon="4.45844">
        <ele>680.75</ele>
        <time>2021-06-03T07:51:38Z</time>
      </trkpt>
      <trkpt lat="45.65779" lon="4.45846">
        <ele>680.75</ele>
        <time>2021-06-03T07:51:48Z</time>
      </trkpt>
      <trkpt lat="45.65776" lon="4.45847">
        <ele>680.75</ele>
        <time>2021-06-03T07:51:56Z</time>
      </trkpt>
      <trkpt lat="45.65776" lon="4.45848">
        <ele>680.75</ele>
        <time>2021-06-03T07:52:08Z</time>
      </trkpt>
      <trkpt lat="45.65776" lon="4.45847">
        <ele>680.75</ele>
        <time>2021-06-03T07:52:18Z</time>
      </trkpt>
      <trkpt lat="45.65776" lon="4.45843">
        <ele>680.75</ele>
        <time>2021-06-03T07:52:28Z</time>
      </trkpt>
      <trkpt lat="45.65776" lon="4.45842">
        <ele>678.35</ele>
        <time>2021-06-03T07:52:29Z</time>
      </trkpt>
      <trkpt lat="45.65775" lon="4.45839">
        <ele>681.23</ele>
        <time>2021-06-03T07:52:30Z</time>
      </trkpt>
      <trkpt lat="45.65774" lon="4.45831">
        <ele>681.71</ele>
        <time>2021-06-03T07:52:35Z</time>
      </trkpt>
      <trkpt lat="45.65774" lon="4.45837">
        <ele>681.71</ele>
        <time>2021-06-03T07:52:47Z</time>
      </trkpt>
      <trkpt lat="45.65772" lon="4.45847">
        <ele>680.27</ele>
        <time>2021-06-03T07:52:55Z</time>
      </trkpt>
      <trkpt lat="45.65768" lon="4.45859">
        <ele>680.27</ele>
        <time>2021-06-03T07:53:02Z</time>
      </trkpt>
      <trkpt lat="45.65764" lon="4.45866">
        <ele>680.27</ele>
        <time>2021-06-03T07:53:07Z</time>
      </trkpt>
      <trkpt lat="45.65761" lon="4.4587">
        <ele>680.27</ele>
        <time>2021-06-03T07:53:10Z</time>
      </trkpt>
      <trkpt lat="45.65758" lon="4.45874">
        <ele>679.79</ele>
        <time>2021-06-03T07:53:13Z</time>
      </trkpt>
      <trkpt lat="45.65754" lon="4.45883">
        <ele>678.83</ele>
        <time>2021-06-03T07:53:20Z</time>
      </trkpt>
      <trkpt lat="45.65749" lon="4.45891">
        <ele>678.83</ele>
        <time>2021-06-03T07:53:27Z</time>
      </trkpt>
      <trkpt lat="45.65743" lon="4.45902">
        <ele>677.87</ele>
        <time>2021-06-03T07:53:35Z</time>
      </trkpt>
      <trkpt lat="45.65738" lon="4.45909">
        <ele>677.39</ele>
        <time>2021-06-03T07:53:41Z</time>
      </trkpt>
      <trkpt lat="45.65733" lon="4.45916">
        <ele>676.91</ele>
        <time>2021-06-03T07:53:47Z</time>
      </trkpt>
      <trkpt lat="45.65726" lon="4.45924">
        <ele>676.42</ele>
        <time>2021-06-03T07:53:54Z</time>
      </trkpt>
      <trkpt lat="45.65725" lon="4.45927">
        <ele>675.94</ele>
        <time>2021-06-03T07:53:57Z</time>
      </trkpt>
      <trkpt lat="45.65721" lon="4.45932">
        <ele>676.42</ele>
        <time>2021-06-03T07:54:02Z</time>
      </trkpt>
      <trkpt lat="45.65719" lon="4.45937">
        <ele>675.94</ele>
        <time>2021-06-03T07:54:06Z</time>
      </trkpt>
      <trkpt lat="45.65711" lon="4.45949">
        <ele>674.98</ele>
        <time>2021-06-03T07:54:16Z</time>
      </trkpt>
      <trkpt lat="45.65707" lon="4.45958">
        <ele>674.98</ele>
        <time>2021-06-03T07:54:23Z</time>
      </trkpt>
      <trkpt lat="45.65702" lon="4.45965">
        <ele>674.5</ele>
        <time>2021-06-03T07:54:29Z</time>
      </trkpt>
      <trkpt lat="45.657" lon="4.4597">
        <ele>674.02</ele>
        <time>2021-06-03T07:54:33Z</time>
      </trkpt>
      <trkpt lat="45.65694" lon="4.4598">
        <ele>673.06</ele>
        <time>2021-06-03T07:54:41Z</time>
      </trkpt>
      <trkpt lat="45.6569" lon="4.45988">
        <ele>672.58</ele>
        <time>2021-06-03T07:54:47Z</time>
      </trkpt>
      <trkpt lat="45.65689" lon="4.45989">
        <ele>672.58</ele>
        <time>2021-06-03T07:54:48Z</time>
      </trkpt>
      <trkpt lat="45.65682" lon="4.46001">
        <ele>671.62</ele>
        <time>2021-06-03T07:54:58Z</time>
      </trkpt>
      <trkpt lat="45.6568" lon="4.46005">
        <ele>670.66</ele>
        <time>2021-06-03T07:55:02Z</time>
      </trkpt>
      <trkpt lat="45.65674" lon="4.46015">
        <ele>669.7</ele>
        <time>2021-06-03T07:55:10Z</time>
      </trkpt>
      <trkpt lat="45.65673" lon="4.46019">
        <ele>669.22</ele>
        <time>2021-06-03T07:55:13Z</time>
      </trkpt>
      <trkpt lat="45.65672" lon="4.46024">
        <ele>668.73</ele>
        <time>2021-06-03T07:55:16Z</time>
      </trkpt>
      <trkpt lat="45.65667" lon="4.46036">
        <ele>668.25</ele>
        <time>2021-06-03T07:55:25Z</time>
      </trkpt>
      <trkpt lat="45.65666" lon="4.4604">
        <ele>667.77</ele>
        <time>2021-06-03T07:55:28Z</time>
      </trkpt>
      <trkpt lat="45.65663" lon="4.46051">
        <ele>667.29</ele>
        <time>2021-06-03T07:55:36Z</time>
      </trkpt>
      <trkpt lat="45.65659" lon="4.4606">
        <ele>666.81</ele>
        <time>2021-06-03T07:55:43Z</time>
      </trkpt>
      <trkpt lat="45.65656" lon="4.46068">
        <ele>665.85</ele>
        <time>2021-06-03T07:55:49Z</time>
      </trkpt>
      <trkpt lat="45.65655" lon="4.46075">
        <ele>665.85</ele>
        <time>2021-06-03T07:55:56Z</time>
      </trkpt>
      <trkpt lat="45.65654" lon="4.46078">
        <ele>665.37</ele>
        <time>2021-06-03T07:56:05Z</time>
      </trkpt>
      <trkpt lat="45.65653" lon="4.46082">
        <ele>665.37</ele>
        <time>2021-06-03T07:56:08Z</time>
      </trkpt>
      <trkpt lat="45.65652" lon="4.46094">
        <ele>664.89</ele>
        <time>2021-06-03T07:56:15Z</time>
      </trkpt>
      <trkpt lat="45.65649" lon="4.46105">
        <ele>664.89</ele>
        <time>2021-06-03T07:56:22Z</time>
      </trkpt>
      <trkpt lat="45.65649" lon="4.46108">
        <ele>664.89</ele>
        <time>2021-06-03T07:56:24Z</time>
      </trkpt>
      <trkpt lat="45.65646" lon="4.46119">
        <ele>664.41</ele>
        <time>2021-06-03T07:56:31Z</time>
      </trkpt>
      <trkpt lat="45.65644" lon="4.46127">
        <ele>664.41</ele>
        <time>2021-06-03T07:56:36Z</time>
      </trkpt>
      <trkpt lat="45.65641" lon="4.46138">
        <ele>663.93</ele>
        <time>2021-06-03T07:56:44Z</time>
      </trkpt>
      <trkpt lat="45.6564" lon="4.46146">
        <ele>663.93</ele>
        <time>2021-06-03T07:56:49Z</time>
      </trkpt>
      <trkpt lat="45.65637" lon="4.46156">
        <ele>663.45</ele>
        <time>2021-06-03T07:56:56Z</time>
      </trkpt>
      <trkpt lat="45.65635" lon="4.46166">
        <ele>662.97</ele>
        <time>2021-06-03T07:57:03Z</time>
      </trkpt>
      <trkpt lat="45.65635" lon="4.46169">
        <ele>662.97</ele>
        <time>2021-06-03T07:57:05Z</time>
      </trkpt>
      <trkpt lat="45.65633" lon="4.46175">
        <ele>662.97</ele>
        <time>2021-06-03T07:57:09Z</time>
      </trkpt>
      <trkpt lat="45.65632" lon="4.4619">
        <ele>662.49</ele>
        <time>2021-06-03T07:57:18Z</time>
      </trkpt>
      <trkpt lat="45.6563" lon="4.46202">
        <ele>662.49</ele>
        <time>2021-06-03T07:57:25Z</time>
      </trkpt>
      <trkpt lat="45.65627" lon="4.46212">
        <ele>662.49</ele>
        <time>2021-06-03T07:57:32Z</time>
      </trkpt>
      <trkpt lat="45.65624" lon="4.46225">
        <ele>662.01</ele>
        <time>2021-06-03T07:57:41Z</time>
      </trkpt>
      <trkpt lat="45.65623" lon="4.46236">
        <ele>662.01</ele>
        <time>2021-06-03T07:57:48Z</time>
      </trkpt>
      <trkpt lat="45.65621" lon="4.46244">
        <ele>662.01</ele>
        <time>2021-06-03T07:57:54Z</time>
      </trkpt>
      <trkpt lat="45.65619" lon="4.46255">
        <ele>662.01</ele>
        <time>2021-06-03T07:58:01Z</time>
      </trkpt>
      <trkpt lat="45.65617" lon="4.46267">
        <ele>661.52</ele>
        <time>2021-06-03T07:58:08Z</time>
      </trkpt>
      <trkpt lat="45.65615" lon="4.46274">
        <ele>661.52</ele>
        <time>2021-06-03T07:58:13Z</time>
      </trkpt>
      <trkpt lat="45.65612" lon="4.46287">
        <ele>661.52</ele>
        <time>2021-06-03T07:58:22Z</time>
      </trkpt>
      <trkpt lat="45.65612" lon="4.46289">
        <ele>661.52</ele>
        <time>2021-06-03T07:58:24Z</time>
      </trkpt>
      <trkpt lat="45.65609" lon="4.46302">
        <ele>661.52</ele>
        <time>2021-06-03T07:58:32Z</time>
      </trkpt>
      <trkpt lat="45.65607" lon="4.46313">
        <ele>661.52</ele>
        <time>2021-06-03T07:58:39Z</time>
      </trkpt>
      <trkpt lat="45.65604" lon="4.46322">
        <ele>661.52</ele>
        <time>2021-06-03T07:58:46Z</time>
      </trkpt>
      <trkpt lat="45.656" lon="4.46334">
        <ele>661.52</ele>
        <time>2021-06-03T07:58:54Z</time>
      </trkpt>
      <trkpt lat="45.65596" lon="4.46347">
        <ele>661.52</ele>
        <time>2021-06-03T07:59:02Z</time>
      </trkpt>
      <trkpt lat="45.65593" lon="4.46351">
        <ele>661.52</ele>
        <time>2021-06-03T07:59:06Z</time>
      </trkpt>
      <trkpt lat="45.65585" lon="4.46357">
        <ele>661.04</ele>
        <time>2021-06-03T07:59:15Z</time>
      </trkpt>
      <trkpt lat="45.6558" lon="4.46363">
        <ele>660.08</ele>
        <time>2021-06-03T07:59:22Z</time>
      </trkpt>
      <trkpt lat="45.65577" lon="4.46365">
        <ele>660.08</ele>
        <time>2021-06-03T07:59:25Z</time>
      </trkpt>
      <trkpt lat="45.65571" lon="4.4637">
        <ele>660.08</ele>
        <time>2021-06-03T07:59:31Z</time>
      </trkpt>
      <trkpt lat="45.65565" lon="4.46375">
        <ele>659.6</ele>
        <time>2021-06-03T07:59:37Z</time>
      </trkpt>
      <trkpt lat="45.65558" lon="4.46383">
        <ele>659.12</ele>
        <time>2021-06-03T07:59:45Z</time>
      </trkpt>
      <trkpt lat="45.65551" lon="4.46389">
        <ele>659.12</ele>
        <time>2021-06-03T07:59:53Z</time>
      </trkpt>
      <trkpt lat="45.65544" lon="4.46395">
        <ele>658.16</ele>
        <time>2021-06-03T08:00:02Z</time>
      </trkpt>
      <trkpt lat="45.65537" lon="4.46401">
        <ele>657.2</ele>
        <time>2021-06-03T08:00:09Z</time>
      </trkpt>
      <trkpt lat="45.65533" lon="4.46404">
        <ele>657.2</ele>
        <time>2021-06-03T08:00:14Z</time>
      </trkpt>
      <trkpt lat="45.65527" lon="4.46409">
        <ele>656.72</ele>
        <time>2021-06-03T08:00:20Z</time>
      </trkpt>
      <trkpt lat="45.6552" lon="4.46415">
        <ele>656.24</ele>
        <time>2021-06-03T08:00:28Z</time>
      </trkpt>
      <trkpt lat="45.65514" lon="4.46421">
        <ele>655.76</ele>
        <time>2021-06-03T08:00:35Z</time>
      </trkpt>
      <trkpt lat="45.65507" lon="4.46426">
        <ele>655.28</ele>
        <time>2021-06-03T08:00:42Z</time>
      </trkpt>
      <trkpt lat="45.65502" lon="4.46431">
        <ele>654.8</ele>
        <time>2021-06-03T08:00:48Z</time>
      </trkpt>
      <trkpt lat="45.655" lon="4.46434">
        <ele>654.8</ele>
        <time>2021-06-03T08:00:51Z</time>
      </trkpt>
      <trkpt lat="45.65492" lon="4.4644">
        <ele>653.83</ele>
        <time>2021-06-03T08:00:59Z</time>
      </trkpt>
      <trkpt lat="45.65486" lon="4.46445">
        <ele>653.35</ele>
        <time>2021-06-03T08:01:06Z</time>
      </trkpt>
      <trkpt lat="45.65482" lon="4.46449">
        <ele>653.35</ele>
        <time>2021-06-03T08:01:10Z</time>
      </trkpt>
      <trkpt lat="45.65474" lon="4.46455">
        <ele>652.87</ele>
        <time>2021-06-03T08:01:18Z</time>
      </trkpt>
      <trkpt lat="45.65468" lon="4.4646">
        <ele>652.87</ele>
        <time>2021-06-03T08:01:24Z</time>
      </trkpt>
      <trkpt lat="45.65462" lon="4.46465">
        <ele>652.39</ele>
        <time>2021-06-03T08:01:32Z</time>
      </trkpt>
      <trkpt lat="45.65456" lon="4.46468">
        <ele>651.91</ele>
        <time>2021-06-03T08:01:38Z</time>
      </trkpt>
      <trkpt lat="45.65456" lon="4.46469">
        <ele>651.91</ele>
        <time>2021-06-03T08:01:46Z</time>
      </trkpt>
      <trkpt lat="45.65455" lon="4.46469">
        <ele>651.91</ele>
        <time>2021-06-03T08:01:56Z</time>
      </trkpt>
      <trkpt lat="45.65445" lon="4.46473">
        <ele>651.43</ele>
        <time>2021-06-03T08:02:05Z</time>
      </trkpt>
      <trkpt lat="45.65445" lon="4.46473">
        <ele>651.43</ele>
        <time>2021-06-03T08:02:06Z</time>
      </trkpt>
      <trkpt lat="45.6544" lon="4.46477">
        <ele>650.47</ele>
        <time>2021-06-03T08:02:11Z</time>
      </trkpt>
      <trkpt lat="45.65433" lon="4.46479">
        <ele>650.47</ele>
        <time>2021-06-03T08:02:17Z</time>
      </trkpt>
      <trkpt lat="45.65422" lon="4.46482">
        <ele>648.55</ele>
        <time>2021-06-03T08:02:27Z</time>
      </trkpt>
      <trkpt lat="45.65421" lon="4.46481">
        <ele>648.55</ele>
        <time>2021-06-03T08:02:28Z</time>
      </trkpt>
      <trkpt lat="45.65416" lon="4.4648">
        <ele>648.55</ele>
        <time>2021-06-03T08:02:35Z</time>
      </trkpt>
      <trkpt lat="45.65415" lon="4.4648">
        <ele>648.55</ele>
        <time>2021-06-03T08:02:36Z</time>
      </trkpt>
      <trkpt lat="45.6541" lon="4.46485">
        <ele>648.07</ele>
        <time>2021-06-03T08:02:41Z</time>
      </trkpt>
      <trkpt lat="45.65403" lon="4.46489">
        <ele>648.07</ele>
        <time>2021-06-03T08:02:47Z</time>
      </trkpt>
      <trkpt lat="45.65392" lon="4.46494">
        <ele>647.1</ele>
        <time>2021-06-03T08:02:56Z</time>
      </trkpt>
      <trkpt lat="45.65385" lon="4.46495">
        <ele>646.62</ele>
        <time>2021-06-03T08:03:03Z</time>
      </trkpt>
      <trkpt lat="45.65379" lon="4.46497">
        <ele>645.18</ele>
        <time>2021-06-03T08:03:09Z</time>
      </trkpt>
      <trkpt lat="45.65369" lon="4.46498">
        <ele>645.18</ele>
        <time>2021-06-03T08:03:17Z</time>
      </trkpt>
      <trkpt lat="45.6536" lon="4.46501">
        <ele>644.7</ele>
        <time>2021-06-03T08:03:26Z</time>
      </trkpt>
      <trkpt lat="45.65353" lon="4.46505">
        <ele>643.74</ele>
        <time>2021-06-03T08:03:33Z</time>
      </trkpt>
      <trkpt lat="45.65343" lon="4.46508">
        <ele>642.3</ele>
        <time>2021-06-03T08:03:42Z</time>
      </trkpt>
      <trkpt lat="45.65335" lon="4.46512">
        <ele>641.34</ele>
        <time>2021-06-03T08:03:50Z</time>
      </trkpt>
      <trkpt lat="45.65326" lon="4.46513">
        <ele>639.89</ele>
        <time>2021-06-03T08:03:58Z</time>
      </trkpt>
      <trkpt lat="45.65315" lon="4.46515">
        <ele>639.41</ele>
        <time>2021-06-03T08:04:08Z</time>
      </trkpt>
      <trkpt lat="45.6531" lon="4.46515">
        <ele>638.45</ele>
        <time>2021-06-03T08:04:14Z</time>
      </trkpt>
      <trkpt lat="45.65299" lon="4.46516">
        <ele>637.49</ele>
        <time>2021-06-03T08:04:24Z</time>
      </trkpt>
      <trkpt lat="45.65289" lon="4.46517">
        <ele>636.53</ele>
        <time>2021-06-03T08:04:33Z</time>
      </trkpt>
      <trkpt lat="45.65279" lon="4.46519">
        <ele>636.05</ele>
        <time>2021-06-03T08:04:42Z</time>
      </trkpt>
      <trkpt lat="45.65268" lon="4.46521">
        <ele>635.09</ele>
        <time>2021-06-03T08:04:51Z</time>
      </trkpt>
      <trkpt lat="45.6526" lon="4.46522">
        <ele>634.61</ele>
        <time>2021-06-03T08:04:58Z</time>
      </trkpt>
      <trkpt lat="45.6525" lon="4.46523">
        <ele>633.65</ele>
        <time>2021-06-03T08:05:07Z</time>
      </trkpt>
      <trkpt lat="45.65241" lon="4.46524">
        <ele>632.68</ele>
        <time>2021-06-03T08:05:15Z</time>
      </trkpt>
      <trkpt lat="45.65231" lon="4.46525">
        <ele>631.72</ele>
        <time>2021-06-03T08:05:24Z</time>
      </trkpt>
      <trkpt lat="45.65225" lon="4.46526">
        <ele>631.72</ele>
        <time>2021-06-03T08:05:29Z</time>
      </trkpt>
      <trkpt lat="45.65214" lon="4.46527">
        <ele>630.76</ele>
        <time>2021-06-03T08:05:39Z</time>
      </trkpt>
      <trkpt lat="45.65205" lon="4.46527">
        <ele>630.28</ele>
        <time>2021-06-03T08:05:47Z</time>
      </trkpt>
      <trkpt lat="45.65194" lon="4.46528">
        <ele>628.84</ele>
        <time>2021-06-03T08:05:56Z</time>
      </trkpt>
      <trkpt lat="45.65186" lon="4.46529">
        <ele>627.88</ele>
        <time>2021-06-03T08:06:04Z</time>
      </trkpt>
      <trkpt lat="45.65177" lon="4.46529">
        <ele>627.4</ele>
        <time>2021-06-03T08:06:12Z</time>
      </trkpt>
      <trkpt lat="45.65169" lon="4.4653">
        <ele>626.44</ele>
        <time>2021-06-03T08:06:19Z</time>
      </trkpt>
      <trkpt lat="45.65158" lon="4.4653">
        <ele>625.47</ele>
        <time>2021-06-03T08:06:29Z</time>
      </trkpt>
      <trkpt lat="45.65148" lon="4.46531">
        <ele>624.51</ele>
        <time>2021-06-03T08:06:37Z</time>
      </trkpt>
      <trkpt lat="45.65143" lon="4.46531">
        <ele>624.03</ele>
        <time>2021-06-03T08:06:42Z</time>
      </trkpt>
      <trkpt lat="45.65136" lon="4.46533">
        <ele>623.55</ele>
        <time>2021-06-03T08:06:49Z</time>
      </trkpt>
      <trkpt lat="45.65131" lon="4.46535">
        <ele>623.07</ele>
        <time>2021-06-03T08:06:53Z</time>
      </trkpt>
      <trkpt lat="45.65125" lon="4.4654">
        <ele>622.59</ele>
        <time>2021-06-03T08:07:01Z</time>
      </trkpt>
      <trkpt lat="45.6512" lon="4.46545">
        <ele>621.63</ele>
        <time>2021-06-03T08:07:08Z</time>
      </trkpt>
      <trkpt lat="45.65111" lon="4.46552">
        <ele>621.63</ele>
        <time>2021-06-03T08:07:16Z</time>
      </trkpt>
      <trkpt lat="45.65109" lon="4.46554">
        <ele>621.63</ele>
        <time>2021-06-03T08:07:18Z</time>
      </trkpt>
      <trkpt lat="45.65101" lon="4.46559">
        <ele>620.19</ele>
        <time>2021-06-03T08:07:27Z</time>
      </trkpt>
      <trkpt lat="45.65092" lon="4.46562">
        <ele>619.71</ele>
        <time>2021-06-03T08:07:35Z</time>
      </trkpt>
      <trkpt lat="45.65089" lon="4.46563">
        <ele>619.71</ele>
        <time>2021-06-03T08:07:37Z</time>
      </trkpt>
      <trkpt lat="45.65086" lon="4.46563">
        <ele>619.71</ele>
        <time>2021-06-03T08:07:39Z</time>
      </trkpt>
      <trkpt lat="45.6508" lon="4.46561">
        <ele>619.71</ele>
        <time>2021-06-03T08:07:45Z</time>
      </trkpt>
      <trkpt lat="45.65073" lon="4.46555">
        <ele>619.71</ele>
        <time>2021-06-03T08:07:52Z</time>
      </trkpt>
      <trkpt lat="45.65065" lon="4.46549">
        <ele>619.71</ele>
        <time>2021-06-03T08:08:00Z</time>
      </trkpt>
      <trkpt lat="45.65059" lon="4.46546">
        <ele>619.71</ele>
        <time>2021-06-03T08:08:06Z</time>
      </trkpt>
      <trkpt lat="45.65052" lon="4.4654">
        <ele>619.71</ele>
        <time>2021-06-03T08:08:14Z</time>
      </trkpt>
      <trkpt lat="45.6505" lon="4.46537">
        <ele>619.71</ele>
        <time>2021-06-03T08:08:18Z</time>
      </trkpt>
      <trkpt lat="45.65048" lon="4.46534">
        <ele>619.71</ele>
        <time>2021-06-03T08:08:20Z</time>
      </trkpt>
      <trkpt lat="45.65043" lon="4.46529">
        <ele>619.71</ele>
        <time>2021-06-03T08:08:26Z</time>
      </trkpt>
      <trkpt lat="45.65036" lon="4.46525">
        <ele>619.71</ele>
        <time>2021-06-03T08:08:32Z</time>
      </trkpt>
      <trkpt lat="45.65032" lon="4.46523">
        <ele>620.67</ele>
        <time>2021-06-03T08:08:36Z</time>
      </trkpt>
      <trkpt lat="45.65026" lon="4.46522">
        <ele>620.67</ele>
        <time>2021-06-03T08:08:43Z</time>
      </trkpt>
      <trkpt lat="45.65016" lon="4.46521">
        <ele>621.15</ele>
        <time>2021-06-03T08:08:52Z</time>
      </trkpt>
      <trkpt lat="45.65009" lon="4.46516">
        <ele>622.11</ele>
        <time>2021-06-03T08:09:00Z</time>
      </trkpt>
      <trkpt lat="45.65005" lon="4.46509">
        <ele>623.07</ele>
        <time>2021-06-03T08:09:08Z</time>
      </trkpt>
      <trkpt lat="45.65003" lon="4.46506">
        <ele>624.03</ele>
        <time>2021-06-03T08:09:11Z</time>
      </trkpt>
      <trkpt lat="45.64997" lon="4.46497">
        <ele>624.03</ele>
        <time>2021-06-03T08:09:21Z</time>
      </trkpt>
      <trkpt lat="45.6499" lon="4.4649">
        <ele>624.51</ele>
        <time>2021-06-03T08:09:29Z</time>
      </trkpt>
      <trkpt lat="45.64982" lon="4.46482">
        <ele>625.47</ele>
        <time>2021-06-03T08:09:39Z</time>
      </trkpt>
      <trkpt lat="45.64971" lon="4.46472">
        <ele>626.92</ele>
        <time>2021-06-03T08:09:52Z</time>
      </trkpt>
      <trkpt lat="45.64965" lon="4.46462">
        <ele>627.88</ele>
        <time>2021-06-03T08:10:03Z</time>
      </trkpt>
      <trkpt lat="45.64957" lon="4.46451">
        <ele>629.32</ele>
        <time>2021-06-03T08:10:17Z</time>
      </trkpt>
      <trkpt lat="45.64948" lon="4.46443">
        <ele>629.8</ele>
        <time>2021-06-03T08:10:27Z</time>
      </trkpt>
      <trkpt lat="45.64938" lon="4.46441">
        <ele>630.76</ele>
        <time>2021-06-03T08:10:38Z</time>
      </trkpt>
      <trkpt lat="45.64937" lon="4.46439">
        <ele>630.28</ele>
        <time>2021-06-03T08:10:46Z</time>
      </trkpt>
      <trkpt lat="45.64933" lon="4.46438">
        <ele>631.72</ele>
        <time>2021-06-03T08:10:50Z</time>
      </trkpt>
      <trkpt lat="45.64928" lon="4.46436">
        <ele>631.72</ele>
        <time>2021-06-03T08:10:58Z</time>
      </trkpt>
      <trkpt lat="45.64919" lon="4.46442">
        <ele>632.68</ele>
        <time>2021-06-03T08:11:08Z</time>
      </trkpt>
      <trkpt lat="45.64908" lon="4.46444">
        <ele>632.68</ele>
        <time>2021-06-03T08:11:19Z</time>
      </trkpt>
      <trkpt lat="45.64894" lon="4.46445">
        <ele>632.68</ele>
        <time>2021-06-03T08:11:30Z</time>
      </trkpt>
      <trkpt lat="45.64885" lon="4.46443">
        <ele>632.68</ele>
        <time>2021-06-03T08:11:40Z</time>
      </trkpt>
      <trkpt lat="45.64882" lon="4.46436">
        <ele>634.13</ele>
        <time>2021-06-03T08:11:48Z</time>
      </trkpt>
      <trkpt lat="45.64871" lon="4.46422">
        <ele>634.13</ele>
        <time>2021-06-03T08:12:00Z</time>
      </trkpt>
      <trkpt lat="45.64868" lon="4.46419">
        <ele>635.57</ele>
        <time>2021-06-03T08:12:06Z</time>
      </trkpt>
      <trkpt lat="45.64868" lon="4.46409">
        <ele>637.01</ele>
        <time>2021-06-03T08:12:15Z</time>
      </trkpt>
      <trkpt lat="45.64863" lon="4.46397">
        <ele>638.45</ele>
        <time>2021-06-03T08:12:27Z</time>
      </trkpt>
      <trkpt lat="45.64856" lon="4.46385">
        <ele>637.97</ele>
        <time>2021-06-03T08:12:38Z</time>
      </trkpt>
      <trkpt lat="45.64854" lon="4.46383">
        <ele>639.41</ele>
        <time>2021-06-03T08:12:40Z</time>
      </trkpt>
      <trkpt lat="45.64847" lon="4.46372">
        <ele>640.38</ele>
        <time>2021-06-03T08:12:51Z</time>
      </trkpt>
      <trkpt lat="45.64841" lon="4.46363">
        <ele>640.38</ele>
        <time>2021-06-03T08:13:02Z</time>
      </trkpt>
      <trkpt lat="45.64838" lon="4.4636">
        <ele>640.38</ele>
        <time>2021-06-03T08:13:16Z</time>
      </trkpt>
      <trkpt lat="45.64833" lon="4.46363">
        <ele>640.38</ele>
        <time>2021-06-03T08:13:28Z</time>
      </trkpt>
      <trkpt lat="45.6483" lon="4.46362">
        <ele>640.38</ele>
        <time>2021-06-03T08:13:40Z</time>
      </trkpt>
      <trkpt lat="45.64833" lon="4.46359">
        <ele>640.38</ele>
        <time>2021-06-03T08:13:56Z</time>
      </trkpt>
      <trkpt lat="45.64831" lon="4.4636">
        <ele>640.38</ele>
        <time>2021-06-03T08:14:11Z</time>
      </trkpt>
      <trkpt lat="45.64827" lon="4.46355">
        <ele>640.86</ele>
        <time>2021-06-03T08:14:22Z</time>
      </trkpt>
      <trkpt lat="45.64816" lon="4.46348">
        <ele>641.34</ele>
        <time>2021-06-03T08:14:35Z</time>
      </trkpt>
      <trkpt lat="45.64802" lon="4.46337">
        <ele>641.34</ele>
        <time>2021-06-03T08:14:47Z</time>
      </trkpt>
      <trkpt lat="45.64796" lon="4.4632">
        <ele>641.34</ele>
        <time>2021-06-03T08:15:01Z</time>
      </trkpt>
      <trkpt lat="45.64793" lon="4.46315">
        <ele>641.34</ele>
        <time>2021-06-03T08:15:09Z</time>
      </trkpt>
      <trkpt lat="45.64789" lon="4.4631">
        <ele>641.34</ele>
        <time>2021-06-03T08:15:14Z</time>
      </trkpt>
      <trkpt lat="45.64779" lon="4.46301">
        <ele>641.82</ele>
        <time>2021-06-03T08:15:25Z</time>
      </trkpt>
      <trkpt lat="45.64773" lon="4.46289">
        <ele>641.82</ele>
        <time>2021-06-03T08:15:36Z</time>
      </trkpt>
      <trkpt lat="45.64761" lon="4.46279">
        <ele>642.78</ele>
        <time>2021-06-03T08:15:49Z</time>
      </trkpt>
      <trkpt lat="45.64753" lon="4.46268">
        <ele>642.78</ele>
        <time>2021-06-03T08:16:00Z</time>
      </trkpt>
      <trkpt lat="45.64745" lon="4.46259">
        <ele>642.78</ele>
        <time>2021-06-03T08:16:10Z</time>
      </trkpt>
      <trkpt lat="45.64735" lon="4.46248">
        <ele>642.78</ele>
        <time>2021-06-03T08:16:24Z</time>
      </trkpt>
      <trkpt lat="45.64723" lon="4.46238">
        <ele>642.78</ele>
        <time>2021-06-03T08:16:36Z</time>
      </trkpt>
      <trkpt lat="45.6471" lon="4.46229">
        <ele>642.78</ele>
        <time>2021-06-03T08:16:49Z</time>
      </trkpt>
      <trkpt lat="45.64701" lon="4.4622">
        <ele>643.26</ele>
        <time>2021-06-03T08:17:00Z</time>
      </trkpt>
      <trkpt lat="45.64689" lon="4.46213">
        <ele>643.26</ele>
        <time>2021-06-03T08:17:11Z</time>
      </trkpt>
      <trkpt lat="45.64679" lon="4.46207">
        <ele>643.74</ele>
        <time>2021-06-03T08:17:21Z</time>
      </trkpt>
      <trkpt lat="45.64666" lon="4.46198">
        <ele>644.22</ele>
        <time>2021-06-03T08:17:36Z</time>
      </trkpt>
      <trkpt lat="45.64656" lon="4.46188">
        <ele>644.22</ele>
        <time>2021-06-03T08:17:47Z</time>
      </trkpt>
      <trkpt lat="45.64646" lon="4.46182">
        <ele>643.74</ele>
        <time>2021-06-03T08:17:59Z</time>
      </trkpt>
      <trkpt lat="45.64637" lon="4.46177">
        <ele>644.22</ele>
        <time>2021-06-03T08:18:09Z</time>
      </trkpt>
      <trkpt lat="45.64626" lon="4.46169">
        <ele>644.7</ele>
        <time>2021-06-03T08:18:22Z</time>
      </trkpt>
      <trkpt lat="45.64612" lon="4.46166">
        <ele>645.18</ele>
        <time>2021-06-03T08:18:33Z</time>
      </trkpt>
      <trkpt lat="45.64596" lon="4.46163">
        <ele>645.66</ele>
        <time>2021-06-03T08:18:46Z</time>
      </trkpt>
      <trkpt lat="45.64584" lon="4.46158">
        <ele>646.14</ele>
        <time>2021-06-03T08:18:57Z</time>
      </trkpt>
      <trkpt lat="45.64573" lon="4.46145">
        <ele>646.14</ele>
        <time>2021-06-03T08:19:12Z</time>
      </trkpt>
      <trkpt lat="45.64562" lon="4.46143">
        <ele>646.14</ele>
        <time>2021-06-03T08:19:23Z</time>
      </trkpt>
      <trkpt lat="45.6455" lon="4.46142">
        <ele>645.66</ele>
        <time>2021-06-03T08:19:34Z</time>
      </trkpt>
      <trkpt lat="45.64537" lon="4.46145">
        <ele>645.66</ele>
        <time>2021-06-03T08:19:47Z</time>
      </trkpt>
      <trkpt lat="45.64527" lon="4.46144">
        <ele>644.7</ele>
        <time>2021-06-03T08:19:58Z</time>
      </trkpt>
      <trkpt lat="45.64513" lon="4.46145">
        <ele>644.7</ele>
        <time>2021-06-03T08:20:11Z</time>
      </trkpt>
      <trkpt lat="45.64505" lon="4.46142">
        <ele>644.7</ele>
        <time>2021-06-03T08:20:23Z</time>
      </trkpt>
      <trkpt lat="45.64499" lon="4.46141">
        <ele>646.14</ele>
        <time>2021-06-03T08:20:28Z</time>
      </trkpt>
      <trkpt lat="45.64485" lon="4.4614">
        <ele>646.62</ele>
        <time>2021-06-03T08:20:43Z</time>
      </trkpt>
      <trkpt lat="45.64472" lon="4.46137">
        <ele>647.1</ele>
        <time>2021-06-03T08:20:54Z</time>
      </trkpt>
      <trkpt lat="45.64461" lon="4.46134">
        <ele>647.59</ele>
        <time>2021-06-03T08:21:05Z</time>
      </trkpt>
      <trkpt lat="45.64452" lon="4.46132">
        <ele>647.59</ele>
        <time>2021-06-03T08:21:14Z</time>
      </trkpt>
      <trkpt lat="45.64437" lon="4.4613">
        <ele>647.59</ele>
        <time>2021-06-03T08:21:28Z</time>
      </trkpt>
      <trkpt lat="45.6443" lon="4.46128">
        <ele>646.14</ele>
        <time>2021-06-03T08:21:36Z</time>
      </trkpt>
      <trkpt lat="45.64419" lon="4.4613">
        <ele>645.18</ele>
        <time>2021-06-03T08:21:47Z</time>
      </trkpt>
      <trkpt lat="45.64412" lon="4.4613">
        <ele>644.22</ele>
        <time>2021-06-03T08:21:56Z</time>
      </trkpt>
      <trkpt lat="45.64403" lon="4.46132">
        <ele>643.74</ele>
        <time>2021-06-03T08:22:07Z</time>
      </trkpt>
      <trkpt lat="45.64392" lon="4.46134">
        <ele>642.78</ele>
        <time>2021-06-03T08:22:19Z</time>
      </trkpt>
      <trkpt lat="45.6438" lon="4.46138">
        <ele>642.3</ele>
        <time>2021-06-03T08:22:29Z</time>
      </trkpt>
      <trkpt lat="45.64371" lon="4.4614">
        <ele>642.3</ele>
        <time>2021-06-03T08:22:37Z</time>
      </trkpt>
      <trkpt lat="45.64361" lon="4.46143">
        <ele>642.3</ele>
        <time>2021-06-03T08:22:49Z</time>
      </trkpt>
      <trkpt lat="45.6435" lon="4.46146">
        <ele>641.82</ele>
        <time>2021-06-03T08:23:00Z</time>
      </trkpt>
      <trkpt lat="45.64335" lon="4.46147">
        <ele>640.38</ele>
        <time>2021-06-03T08:23:12Z</time>
      </trkpt>
      <trkpt lat="45.64322" lon="4.46144">
        <ele>639.89</ele>
        <time>2021-06-03T08:23:24Z</time>
      </trkpt>
      <trkpt lat="45.64319" lon="4.46136">
        <ele>638.93</ele>
        <time>2021-06-03T08:23:33Z</time>
      </trkpt>
      <trkpt lat="45.64322" lon="4.46121">
        <ele>638.45</ele>
        <time>2021-06-03T08:23:43Z</time>
      </trkpt>
      <trkpt lat="45.64325" lon="4.46108">
        <ele>638.45</ele>
        <time>2021-06-03T08:23:55Z</time>
      </trkpt>
      <trkpt lat="45.64329" lon="4.46089">
        <ele>638.45</ele>
        <time>2021-06-03T08:24:09Z</time>
      </trkpt>
      <trkpt lat="45.64332" lon="4.46077">
        <ele>638.45</ele>
        <time>2021-06-03T08:24:19Z</time>
      </trkpt>
      <trkpt lat="45.64332" lon="4.46061">
        <ele>638.45</ele>
        <time>2021-06-03T08:24:31Z</time>
      </trkpt>
      <trkpt lat="45.64335" lon="4.46045">
        <ele>638.45</ele>
        <time>2021-06-03T08:24:40Z</time>
      </trkpt>
      <trkpt lat="45.64341" lon="4.46028">
        <ele>637.97</ele>
        <time>2021-06-03T08:24:51Z</time>
      </trkpt>
      <trkpt lat="45.64344" lon="4.46013">
        <ele>637.97</ele>
        <time>2021-06-03T08:25:01Z</time>
      </trkpt>
      <trkpt lat="45.64348" lon="4.45999">
        <ele>637.97</ele>
        <time>2021-06-03T08:25:14Z</time>
      </trkpt>
      <trkpt lat="45.64352" lon="4.45992">
        <ele>637.97</ele>
        <time>2021-06-03T08:25:23Z</time>
      </trkpt>
      <trkpt lat="45.64356" lon="4.45976">
        <ele>637.49</ele>
        <time>2021-06-03T08:25:32Z</time>
      </trkpt>
      <trkpt lat="45.64359" lon="4.45958">
        <ele>636.53</ele>
        <time>2021-06-03T08:25:42Z</time>
      </trkpt>
      <trkpt lat="45.64359" lon="4.45937">
        <ele>636.05</ele>
        <time>2021-06-03T08:25:54Z</time>
      </trkpt>
      <trkpt lat="45.64361" lon="4.45921">
        <ele>635.09</ele>
        <time>2021-06-03T08:26:05Z</time>
      </trkpt>
      <trkpt lat="45.64363" lon="4.45916">
        <ele>634.61</ele>
        <time>2021-06-03T08:26:14Z</time>
      </trkpt>
      <trkpt lat="45.64371" lon="4.45912">
        <ele>634.13</ele>
        <time>2021-06-03T08:26:24Z</time>
      </trkpt>
      <trkpt lat="45.64378" lon="4.45915">
        <ele>633.17</ele>
        <time>2021-06-03T08:26:35Z</time>
      </trkpt>
      <trkpt lat="45.64377" lon="4.45918">
        <ele>632.68</ele>
        <time>2021-06-03T08:26:45Z</time>
      </trkpt>
      <trkpt lat="45.64378" lon="4.4592">
        <ele>632.68</ele>
        <time>2021-06-03T08:27:00Z</time>
      </trkpt>
      <trkpt lat="45.64381" lon="4.45925">
        <ele>632.2</ele>
        <time>2021-06-03T08:27:15Z</time>
      </trkpt>
      <trkpt lat="45.64387" lon="4.45928">
        <ele>632.2</ele>
        <time>2021-06-03T08:27:24Z</time>
      </trkpt>
      <trkpt lat="45.64393" lon="4.45911">
        <ele>631.72</ele>
        <time>2021-06-03T08:27:34Z</time>
      </trkpt>
      <trkpt lat="45.64402" lon="4.45901">
        <ele>630.28</ele>
        <time>2021-06-03T08:27:46Z</time>
      </trkpt>
      <trkpt lat="45.64414" lon="4.45905">
        <ele>629.8</ele>
        <time>2021-06-03T08:27:55Z</time>
      </trkpt>
      <trkpt lat="45.6442" lon="4.45906">
        <ele>629.8</ele>
        <time>2021-06-03T08:28:00Z</time>
      </trkpt>
      <trkpt lat="45.64432" lon="4.45907">
        <ele>628.36</ele>
        <time>2021-06-03T08:28:11Z</time>
      </trkpt>
      <trkpt lat="45.64444" lon="4.45908">
        <ele>626.44</ele>
        <time>2021-06-03T08:28:23Z</time>
      </trkpt>
      <trkpt lat="45.64456" lon="4.45909">
        <ele>624.51</ele>
        <time>2021-06-03T08:28:35Z</time>
      </trkpt>
      <trkpt lat="45.64468" lon="4.45907">
        <ele>622.59</ele>
        <time>2021-06-03T08:28:47Z</time>
      </trkpt>
      <trkpt lat="45.64471" lon="4.45897">
        <ele>620.19</ele>
        <time>2021-06-03T08:28:58Z</time>
      </trkpt>
      <trkpt lat="45.64472" lon="4.45881">
        <ele>618.75</ele>
        <time>2021-06-03T08:29:08Z</time>
      </trkpt>
      <trkpt lat="45.64472" lon="4.45867">
        <ele>617.3</ele>
        <time>2021-06-03T08:29:17Z</time>
      </trkpt>
      <trkpt lat="45.6447" lon="4.45852">
        <ele>616.82</ele>
        <time>2021-06-03T08:29:28Z</time>
      </trkpt>
      <trkpt lat="45.64471" lon="4.45838">
        <ele>615.86</ele>
        <time>2021-06-03T08:29:39Z</time>
      </trkpt>
      <trkpt lat="45.64474" lon="4.45823">
        <ele>613.46</ele>
        <time>2021-06-03T08:29:49Z</time>
      </trkpt>
      <trkpt lat="45.64475" lon="4.45811">
        <ele>612.5</ele>
        <time>2021-06-03T08:30:00Z</time>
      </trkpt>
      <trkpt lat="45.6448" lon="4.45798">
        <ele>611.54</ele>
        <time>2021-06-03T08:30:08Z</time>
      </trkpt>
      <trkpt lat="45.64485" lon="4.45779">
        <ele>611.06</ele>
        <time>2021-06-03T08:30:19Z</time>
      </trkpt>
      <trkpt lat="45.64488" lon="4.45769">
        <ele>609.61</ele>
        <time>2021-06-03T08:30:29Z</time>
      </trkpt>
      <trkpt lat="45.64489" lon="4.45766">
        <ele>611.06</ele>
        <time>2021-06-03T08:30:31Z</time>
      </trkpt>
      <trkpt lat="45.6449" lon="4.45752">
        <ele>609.61</ele>
        <time>2021-06-03T08:30:39Z</time>
      </trkpt>
      <trkpt lat="45.64495" lon="4.45735">
        <ele>609.13</ele>
        <time>2021-06-03T08:30:49Z</time>
      </trkpt>
      <trkpt lat="45.64494" lon="4.45724">
        <ele>607.21</ele>
        <time>2021-06-03T08:31:00Z</time>
      </trkpt>
      <trkpt lat="45.64499" lon="4.45718">
        <ele>606.73</ele>
        <time>2021-06-03T08:31:10Z</time>
      </trkpt>
      <trkpt lat="45.64501" lon="4.45716">
        <ele>606.25</ele>
        <time>2021-06-03T08:31:21Z</time>
      </trkpt>
      <trkpt lat="45.64503" lon="4.45714">
        <ele>606.25</ele>
        <time>2021-06-03T08:31:32Z</time>
      </trkpt>
      <trkpt lat="45.64505" lon="4.45714">
        <ele>605.77</ele>
        <time>2021-06-03T08:31:47Z</time>
      </trkpt>
      <trkpt lat="45.64506" lon="4.45709">
        <ele>605.29</ele>
        <time>2021-06-03T08:31:59Z</time>
      </trkpt>
      <trkpt lat="45.64502" lon="4.45716">
        <ele>605.29</ele>
        <time>2021-06-03T08:32:16Z</time>
      </trkpt>
      <trkpt lat="45.64504" lon="4.45711">
        <ele>605.29</ele>
        <time>2021-06-03T08:32:33Z</time>
      </trkpt>
      <trkpt lat="45.64512" lon="4.45713">
        <ele>605.29</ele>
        <time>2021-06-03T08:32:45Z</time>
      </trkpt>
      <trkpt lat="45.64522" lon="4.45716">
        <ele>604.33</ele>
        <time>2021-06-03T08:32:57Z</time>
      </trkpt>
      <trkpt lat="45.64541" lon="4.45721">
        <ele>604.33</ele>
        <time>2021-06-03T08:33:10Z</time>
      </trkpt>
      <trkpt lat="45.64557" lon="4.45724">
        <ele>604.33</ele>
        <time>2021-06-03T08:33:21Z</time>
      </trkpt>
      <trkpt lat="45.64562" lon="4.45724">
        <ele>604.33</ele>
        <time>2021-06-03T08:33:31Z</time>
      </trkpt>
      <trkpt lat="45.64569" lon="4.45727">
        <ele>605.77</ele>
        <time>2021-06-03T08:33:42Z</time>
      </trkpt>
      <trkpt lat="45.64577" lon="4.45727">
        <ele>606.25</ele>
        <time>2021-06-03T08:33:51Z</time>
      </trkpt>
      <trkpt lat="45.64592" lon="4.45725">
        <ele>606.73</ele>
        <time>2021-06-03T08:34:04Z</time>
      </trkpt>
      <trkpt lat="45.64603" lon="4.45718">
        <ele>608.17</ele>
        <time>2021-06-03T08:34:17Z</time>
      </trkpt>
      <trkpt lat="45.64611" lon="4.45701">
        <ele>610.09</ele>
        <time>2021-06-03T08:34:31Z</time>
      </trkpt>
      <trkpt lat="45.64623" lon="4.45686">
        <ele>611.54</ele>
        <time>2021-06-03T08:34:46Z</time>
      </trkpt>
      <trkpt lat="45.64626" lon="4.45683">
        <ele>612.98</ele>
        <time>2021-06-03T08:34:49Z</time>
      </trkpt>
      <trkpt lat="45.64631" lon="4.45677">
        <ele>614.42</ele>
        <time>2021-06-03T08:34:53Z</time>
      </trkpt>
      <trkpt lat="45.64646" lon="4.45662">
        <ele>615.38</ele>
        <time>2021-06-03T08:35:05Z</time>
      </trkpt>
      <trkpt lat="45.6465" lon="4.45661">
        <ele>615.38</ele>
        <time>2021-06-03T08:35:07Z</time>
      </trkpt>
      <trkpt lat="45.64652" lon="4.45659">
        <ele>615.38</ele>
        <time>2021-06-03T08:35:09Z</time>
      </trkpt>
      <trkpt lat="45.64665" lon="4.45646">
        <ele>616.82</ele>
        <time>2021-06-03T08:35:22Z</time>
      </trkpt>
      <trkpt lat="45.64663" lon="4.45637">
        <ele>617.78</ele>
        <time>2021-06-03T08:35:29Z</time>
      </trkpt>
      <trkpt lat="45.64661" lon="4.45632">
        <ele>617.78</ele>
        <time>2021-06-03T08:35:32Z</time>
      </trkpt>
      <trkpt lat="45.64653" lon="4.45613">
        <ele>617.78</ele>
        <time>2021-06-03T08:35:44Z</time>
      </trkpt>
      <trkpt lat="45.6465" lon="4.45598">
        <ele>617.78</ele>
        <time>2021-06-03T08:35:55Z</time>
      </trkpt>
      <trkpt lat="45.64644" lon="4.45585">
        <ele>618.26</ele>
        <time>2021-06-03T08:36:05Z</time>
      </trkpt>
      <trkpt lat="45.64636" lon="4.45571">
        <ele>618.26</ele>
        <time>2021-06-03T08:36:16Z</time>
      </trkpt>
      <trkpt lat="45.64635" lon="4.45567">
        <ele>618.26</ele>
        <time>2021-06-03T08:36:19Z</time>
      </trkpt>
      <trkpt lat="45.64629" lon="4.45557">
        <ele>618.26</ele>
        <time>2021-06-03T08:36:28Z</time>
      </trkpt>
      <trkpt lat="45.64629" lon="4.45557">
        <ele>618.75</ele>
        <time>2021-06-03T08:36:36Z</time>
      </trkpt>
      <trkpt lat="45.64631" lon="4.45555">
        <ele>618.75</ele>
        <time>2021-06-03T08:36:55Z</time>
      </trkpt>
      <trkpt lat="45.64634" lon="4.45553">
        <ele>617.3</ele>
        <time>2021-06-03T08:37:06Z</time>
      </trkpt>
      <trkpt lat="45.64637" lon="4.45552">
        <ele>617.3</ele>
        <time>2021-06-03T08:37:18Z</time>
      </trkpt>
      <trkpt lat="45.64632" lon="4.45547">
        <ele>617.3</ele>
        <time>2021-06-03T08:37:32Z</time>
      </trkpt>
      <trkpt lat="45.64628" lon="4.45539">
        <ele>618.26</ele>
        <time>2021-06-03T08:37:39Z</time>
      </trkpt>
      <trkpt lat="45.64625" lon="4.45536">
        <ele>618.26</ele>
        <time>2021-06-03T08:37:49Z</time>
      </trkpt>
      <trkpt lat="45.64619" lon="4.45526">
        <ele>618.26</ele>
        <time>2021-06-03T08:37:58Z</time>
      </trkpt>
      <trkpt lat="45.64614" lon="4.45515">
        <ele>618.26</ele>
        <time>2021-06-03T08:38:06Z</time>
      </trkpt>
      <trkpt lat="45.64607" lon="4.45503">
        <ele>618.26</ele>
        <time>2021-06-03T08:38:15Z</time>
      </trkpt>
      <trkpt lat="45.64606" lon="4.45488">
        <ele>619.23</ele>
        <time>2021-06-03T08:38:25Z</time>
      </trkpt>
      <trkpt lat="45.64609" lon="4.45474">
        <ele>619.71</ele>
        <time>2021-06-03T08:38:36Z</time>
      </trkpt>
      <trkpt lat="45.64612" lon="4.45462">
        <ele>621.15</ele>
        <time>2021-06-03T08:38:48Z</time>
      </trkpt>
      <trkpt lat="45.64613" lon="4.45456">
        <ele>622.11</ele>
        <time>2021-06-03T08:38:53Z</time>
      </trkpt>
      <trkpt lat="45.64615" lon="4.45444">
        <ele>622.11</ele>
        <time>2021-06-03T08:39:01Z</time>
      </trkpt>
      <trkpt lat="45.64617" lon="4.45433">
        <ele>622.11</ele>
        <time>2021-06-03T08:39:10Z</time>
      </trkpt>
      <trkpt lat="45.64618" lon="4.45425">
        <ele>623.07</ele>
        <time>2021-06-03T08:39:15Z</time>
      </trkpt>
      <trkpt lat="45.6462" lon="4.45411">
        <ele>624.51</ele>
        <time>2021-06-03T08:39:25Z</time>
      </trkpt>
      <trkpt lat="45.64622" lon="4.45399">
        <ele>624.51</ele>
        <time>2021-06-03T08:39:34Z</time>
      </trkpt>
      <trkpt lat="45.64624" lon="4.45384">
        <ele>624.99</ele>
        <time>2021-06-03T08:39:45Z</time>
      </trkpt>
      <trkpt lat="45.64626" lon="4.4537">
        <ele>626.44</ele>
        <time>2021-06-03T08:39:55Z</time>
      </trkpt>
      <trkpt lat="45.64629" lon="4.45357">
        <ele>627.4</ele>
        <time>2021-06-03T08:40:06Z</time>
      </trkpt>
      <trkpt lat="45.64631" lon="4.45346">
        <ele>627.88</ele>
        <time>2021-06-03T08:40:15Z</time>
      </trkpt>
      <trkpt lat="45.64632" lon="4.45336">
        <ele>628.36</ele>
        <time>2021-06-03T08:40:24Z</time>
      </trkpt>
      <trkpt lat="45.64634" lon="4.4532">
        <ele>628.84</ele>
        <time>2021-06-03T08:40:33Z</time>
      </trkpt>
      <trkpt lat="45.64636" lon="4.45305">
        <ele>629.32</ele>
        <time>2021-06-03T08:40:43Z</time>
      </trkpt>
      <trkpt lat="45.64639" lon="4.4529">
        <ele>630.28</ele>
        <time>2021-06-03T08:40:54Z</time>
      </trkpt>
      <trkpt lat="45.64642" lon="4.45275">
        <ele>630.76</ele>
        <time>2021-06-03T08:41:04Z</time>
      </trkpt>
      <trkpt lat="45.64645" lon="4.45262">
        <ele>630.76</ele>
        <time>2021-06-03T08:41:13Z</time>
      </trkpt>
      <trkpt lat="45.6465" lon="4.45249">
        <ele>631.24</ele>
        <time>2021-06-03T08:41:23Z</time>
      </trkpt>
      <trkpt lat="45.64656" lon="4.45232">
        <ele>631.72</ele>
        <time>2021-06-03T08:41:37Z</time>
      </trkpt>
      <trkpt lat="45.64662" lon="4.4522">
        <ele>632.68</ele>
        <time>2021-06-03T08:41:48Z</time>
      </trkpt>
      <trkpt lat="45.64665" lon="4.45206">
        <ele>632.68</ele>
        <time>2021-06-03T08:41:57Z</time>
      </trkpt>
      <trkpt lat="45.6467" lon="4.45196">
        <ele>634.61</ele>
        <time>2021-06-03T08:42:07Z</time>
      </trkpt>
      <trkpt lat="45.64675" lon="4.45184">
        <ele>635.09</ele>
        <time>2021-06-03T08:42:17Z</time>
      </trkpt>
      <trkpt lat="45.64677" lon="4.45178">
        <ele>635.09</ele>
        <time>2021-06-03T08:42:22Z</time>
      </trkpt>
      <trkpt lat="45.64682" lon="4.45166">
        <ele>636.53</ele>
        <time>2021-06-03T08:42:33Z</time>
      </trkpt>
      <trkpt lat="45.64683" lon="4.45165">
        <ele>636.53</ele>
        <time>2021-06-03T08:42:34Z</time>
      </trkpt>
      <trkpt lat="45.64687" lon="4.4515">
        <ele>637.01</ele>
        <time>2021-06-03T08:42:46Z</time>
      </trkpt>
      <trkpt lat="45.64689" lon="4.45139">
        <ele>637.49</ele>
        <time>2021-06-03T08:42:54Z</time>
      </trkpt>
      <trkpt lat="45.6469" lon="4.45133">
        <ele>638.93</ele>
        <time>2021-06-03T08:42:59Z</time>
      </trkpt>
      <trkpt lat="45.6469" lon="4.45122">
        <ele>638.93</ele>
        <time>2021-06-03T08:43:07Z</time>
      </trkpt>
      <trkpt lat="45.6469" lon="4.45105">
        <ele>640.38</ele>
        <time>2021-06-03T08:43:19Z</time>
      </trkpt>
      <trkpt lat="45.64691" lon="4.45099">
        <ele>640.38</ele>
        <time>2021-06-03T08:43:30Z</time>
      </trkpt>
      <trkpt lat="45.64692" lon="4.45097">
        <ele>640.86</ele>
        <time>2021-06-03T08:43:32Z</time>
      </trkpt>
      <trkpt lat="45.64692" lon="4.45091">
        <ele>640.86</ele>
        <time>2021-06-03T08:43:36Z</time>
      </trkpt>
      <trkpt lat="45.64694" lon="4.45077">
        <ele>641.34</ele>
        <time>2021-06-03T08:43:45Z</time>
      </trkpt>
      <trkpt lat="45.64696" lon="4.45061">
        <ele>641.82</ele>
        <time>2021-06-03T08:43:55Z</time>
      </trkpt>
      <trkpt lat="45.64697" lon="4.45052">
        <ele>641.82</ele>
        <time>2021-06-03T08:44:04Z</time>
      </trkpt>
      <trkpt lat="45.64698" lon="4.45049">
        <ele>642.78</ele>
        <time>2021-06-03T08:44:13Z</time>
      </trkpt>
      <trkpt lat="45.64701" lon="4.45037">
        <ele>641.82</ele>
        <time>2021-06-03T08:44:22Z</time>
      </trkpt>
      <trkpt lat="45.64701" lon="4.45027">
        <ele>641.82</ele>
        <time>2021-06-03T08:44:29Z</time>
      </trkpt>
      <trkpt lat="45.64703" lon="4.45007">
        <ele>640.38</ele>
        <time>2021-06-03T08:44:42Z</time>
      </trkpt>
      <trkpt lat="45.64704" lon="4.44994">
        <ele>639.89</ele>
        <time>2021-06-03T08:44:50Z</time>
      </trkpt>
      <trkpt lat="45.64708" lon="4.44978">
        <ele>639.89</ele>
        <time>2021-06-03T08:45:00Z</time>
      </trkpt>
      <trkpt lat="45.6471" lon="4.44974">
        <ele>639.41</ele>
        <time>2021-06-03T08:45:03Z</time>
      </trkpt>
      <trkpt lat="45.64714" lon="4.44966">
        <ele>639.41</ele>
        <time>2021-06-03T08:45:13Z</time>
      </trkpt>
      <trkpt lat="45.64715" lon="4.44959">
        <ele>639.41</ele>
        <time>2021-06-03T08:45:20Z</time>
      </trkpt>
      <trkpt lat="45.64718" lon="4.44953">
        <ele>639.41</ele>
        <time>2021-06-03T08:45:28Z</time>
      </trkpt>
      <trkpt lat="45.64721" lon="4.44948">
        <ele>639.41</ele>
        <time>2021-06-03T08:45:40Z</time>
      </trkpt>
      <trkpt lat="45.64725" lon="4.44937">
        <ele>638.93</ele>
        <time>2021-06-03T08:45:51Z</time>
      </trkpt>
      <trkpt lat="45.6473" lon="4.44929">
        <ele>639.41</ele>
        <time>2021-06-03T08:46:00Z</time>
      </trkpt>
      <trkpt lat="45.64733" lon="4.44925">
        <ele>639.89</ele>
        <time>2021-06-03T08:46:08Z</time>
      </trkpt>
      <trkpt lat="45.64733" lon="4.44927">
        <ele>638.45</ele>
        <time>2021-06-03T08:46:22Z</time>
      </trkpt>
      <trkpt lat="45.64735" lon="4.44926">
        <ele>635.09</ele>
        <time>2021-06-03T08:46:36Z</time>
      </trkpt>
      <trkpt lat="45.64735" lon="4.44927">
        <ele>638.45</ele>
        <time>2021-06-03T08:46:37Z</time>
      </trkpt>
      <trkpt lat="45.64736" lon="4.44925">
        <ele>637.49</ele>
        <time>2021-06-03T08:46:44Z</time>
      </trkpt>
      <trkpt lat="45.64736" lon="4.44927">
        <ele>639.41</ele>
        <time>2021-06-03T08:46:57Z</time>
      </trkpt>
      <trkpt lat="45.64735" lon="4.44927">
        <ele>639.41</ele>
        <time>2021-06-03T08:47:10Z</time>
      </trkpt>
      <trkpt lat="45.64736" lon="4.44926">
        <ele>639.41</ele>
        <time>2021-06-03T08:47:22Z</time>
      </trkpt>
      <trkpt lat="45.64736" lon="4.44927">
        <ele>639.41</ele>
        <time>2021-06-03T08:47:35Z</time>
      </trkpt>
      <trkpt lat="45.64736" lon="4.44927">
        <ele>639.89</ele>
        <time>2021-06-03T08:47:49Z</time>
      </trkpt>
      <trkpt lat="45.64736" lon="4.44927">
        <ele>639.89</ele>
        <time>2021-06-03T08:47:55Z</time>
      </trkpt>
      <trkpt lat="45.64737" lon="4.44928">
        <ele>639.89</ele>
        <time>2021-06-03T08:48:07Z</time>
      </trkpt>
      <trkpt lat="45.64737" lon="4.44928">
        <ele>640.38</ele>
        <time>2021-06-03T08:48:17Z</time>
      </trkpt>
      <trkpt lat="45.64737" lon="4.44927">
        <ele>640.38</ele>
        <time>2021-06-03T08:48:27Z</time>
      </trkpt>
      <trkpt lat="45.64736" lon="4.44928">
        <ele>640.38</ele>
        <time>2021-06-03T08:48:41Z</time>
      </trkpt>
      <trkpt lat="45.64737" lon="4.44928">
        <ele>640.38</ele>
        <time>2021-06-03T08:48:51Z</time>
      </trkpt>
      <trkpt lat="45.64737" lon="4.44927">
        <ele>640.38</ele>
        <time>2021-06-03T08:48:58Z</time>
      </trkpt>
      <trkpt lat="45.64737" lon="4.44928">
        <ele>640.38</ele>
        <time>2021-06-03T08:49:07Z</time>
      </trkpt>
      <trkpt lat="45.64735" lon="4.44925">
        <ele>638.93</ele>
        <time>2021-06-03T08:49:24Z</time>
      </trkpt>
      <trkpt lat="45.64733" lon="4.44928">
        <ele>638.93</ele>
        <time>2021-06-03T08:49:33Z</time>
      </trkpt>
      <trkpt lat="45.64734" lon="4.44929">
        <ele>638.93</ele>
        <time>2021-06-03T08:49:46Z</time>
      </trkpt>
      <trkpt lat="45.64732" lon="4.44929">
        <ele>638.93</ele>
        <time>2021-06-03T08:50:03Z</time>
      </trkpt>
      <trkpt lat="45.64731" lon="4.44933">
        <ele>638.93</ele>
        <time>2021-06-03T08:50:20Z</time>
      </trkpt>
      <trkpt lat="45.64732" lon="4.44928">
        <ele>638.93</ele>
        <time>2021-06-03T08:50:42Z</time>
      </trkpt>
      <trkpt lat="45.64732" lon="4.4493">
        <ele>638.93</ele>
        <time>2021-06-03T08:50:56Z</time>
      </trkpt>
      <trkpt lat="45.64736" lon="4.4493">
        <ele>638.93</ele>
        <time>2021-06-03T08:51:19Z</time>
      </trkpt>
      <trkpt lat="45.64733" lon="4.44929">
        <ele>638.93</ele>
        <time>2021-06-03T08:51:33Z</time>
      </trkpt>
      <trkpt lat="45.64731" lon="4.4493">
        <ele>639.41</ele>
        <time>2021-06-03T08:51:53Z</time>
      </trkpt>
      <trkpt lat="45.64731" lon="4.44928">
        <ele>639.41</ele>
        <time>2021-06-03T08:52:09Z</time>
      </trkpt>
      <trkpt lat="45.64732" lon="4.4493">
        <ele>639.41</ele>
        <time>2021-06-03T08:52:27Z</time>
      </trkpt>
      <trkpt lat="45.64731" lon="4.44927">
        <ele>639.41</ele>
        <time>2021-06-03T08:52:47Z</time>
      </trkpt>
      <trkpt lat="45.64733" lon="4.44927">
        <ele>639.41</ele>
        <time>2021-06-03T08:53:00Z</time>
      </trkpt>
      <trkpt lat="45.64737" lon="4.44927">
        <ele>639.41</ele>
        <time>2021-06-03T08:53:16Z</time>
      </trkpt>
      <trkpt lat="45.64734" lon="4.44929">
        <ele>639.41</ele>
        <time>2021-06-03T08:53:31Z</time>
      </trkpt>
      <trkpt lat="45.64732" lon="4.4493">
        <ele>639.41</ele>
        <time>2021-06-03T08:53:51Z</time>
      </trkpt>
      <trkpt lat="45.6473" lon="4.44931">
        <ele>639.41</ele>
        <time>2021-06-03T08:54:09Z</time>
      </trkpt>
      <trkpt lat="45.64734" lon="4.44927">
        <ele>638.93</ele>
        <time>2021-06-03T08:54:26Z</time>
      </trkpt>
      <trkpt lat="45.64734" lon="4.44926">
        <ele>640.86</ele>
        <time>2021-06-03T08:54:28Z</time>
      </trkpt>
      <trkpt lat="45.64736" lon="4.44926">
        <ele>639.89</ele>
        <time>2021-06-03T08:54:40Z</time>
      </trkpt>
      <trkpt lat="45.64735" lon="4.44928">
        <ele>639.89</ele>
        <time>2021-06-03T08:54:50Z</time>
      </trkpt>
      <trkpt lat="45.64734" lon="4.44929">
        <ele>639.89</ele>
        <time>2021-06-03T08:55:00Z</time>
      </trkpt>
      <trkpt lat="45.64732" lon="4.44926">
        <ele>639.89</ele>
        <time>2021-06-03T08:55:12Z</time>
      </trkpt>
      <trkpt lat="45.64735" lon="4.44929">
        <ele>643.26</ele>
        <time>2021-06-03T08:55:24Z</time>
      </trkpt>
      <trkpt lat="45.64737" lon="4.44927">
        <ele>640.38</ele>
        <time>2021-06-03T08:55:33Z</time>
      </trkpt>
      <trkpt lat="45.64734" lon="4.44924">
        <ele>640.38</ele>
        <time>2021-06-03T08:55:43Z</time>
      </trkpt>
      <trkpt lat="45.64731" lon="4.44924">
        <ele>640.86</ele>
        <time>2021-06-03T08:55:57Z</time>
      </trkpt>
      <trkpt lat="45.64724" lon="4.44921">
        <ele>639.89</ele>
        <time>2021-06-03T08:56:06Z</time>
      </trkpt>
      <trkpt lat="45.64714" lon="4.44917">
        <ele>638.93</ele>
        <time>2021-06-03T08:56:16Z</time>
      </trkpt>
      <trkpt lat="45.64706" lon="4.44914">
        <ele>638.93</ele>
        <time>2021-06-03T08:56:25Z</time>
      </trkpt>
      <trkpt lat="45.64701" lon="4.44912">
        <ele>638.45</ele>
        <time>2021-06-03T08:56:33Z</time>
      </trkpt>
      <trkpt lat="45.64694" lon="4.4491">
        <ele>638.45</ele>
        <time>2021-06-03T08:56:42Z</time>
      </trkpt>
      <trkpt lat="45.64689" lon="4.44906">
        <ele>638.45</ele>
        <time>2021-06-03T08:56:50Z</time>
      </trkpt>
      <trkpt lat="45.64682" lon="4.44907">
        <ele>638.45</ele>
        <time>2021-06-03T08:56:59Z</time>
      </trkpt>
      <trkpt lat="45.64675" lon="4.44906">
        <ele>637.97</ele>
        <time>2021-06-03T08:57:09Z</time>
      </trkpt>
      <trkpt lat="45.64664" lon="4.44908">
        <ele>637.49</ele>
        <time>2021-06-03T08:57:21Z</time>
      </trkpt>
      <trkpt lat="45.64653" lon="4.44907">
        <ele>637.49</ele>
        <time>2021-06-03T08:57:33Z</time>
      </trkpt>
      <trkpt lat="45.64643" lon="4.449">
        <ele>636.05</ele>
        <time>2021-06-03T08:57:43Z</time>
      </trkpt>
      <trkpt lat="45.64645" lon="4.44884">
        <ele>635.57</ele>
        <time>2021-06-03T08:57:53Z</time>
      </trkpt>
      <trkpt lat="45.64645" lon="4.44874">
        <ele>634.61</ele>
        <time>2021-06-03T08:58:02Z</time>
      </trkpt>
      <trkpt lat="45.64641" lon="4.44862">
        <ele>634.13</ele>
        <time>2021-06-03T08:58:11Z</time>
      </trkpt>
      <trkpt lat="45.64635" lon="4.44858">
        <ele>635.09</ele>
        <time>2021-06-03T08:58:20Z</time>
      </trkpt>
      <trkpt lat="45.64627" lon="4.44855">
        <ele>634.13</ele>
        <time>2021-06-03T08:58:28Z</time>
      </trkpt>
      <trkpt lat="45.64623" lon="4.44852">
        <ele>634.13</ele>
        <time>2021-06-03T08:58:32Z</time>
      </trkpt>
      <trkpt lat="45.64609" lon="4.44847">
        <ele>634.13</ele>
        <time>2021-06-03T08:58:44Z</time>
      </trkpt>
      <trkpt lat="45.64601" lon="4.44843">
        <ele>634.13</ele>
        <time>2021-06-03T08:58:52Z</time>
      </trkpt>
      <trkpt lat="45.6459" lon="4.44836">
        <ele>634.13</ele>
        <time>2021-06-03T08:59:02Z</time>
      </trkpt>
      <trkpt lat="45.64579" lon="4.44829">
        <ele>634.13</ele>
        <time>2021-06-03T08:59:13Z</time>
      </trkpt>
      <trkpt lat="45.64571" lon="4.44824">
        <ele>633.65</ele>
        <time>2021-06-03T08:59:23Z</time>
      </trkpt>
      <trkpt lat="45.6457" lon="4.44825">
        <ele>633.65</ele>
        <time>2021-06-03T08:59:33Z</time>
      </trkpt>
      <trkpt lat="45.64567" lon="4.44817">
        <ele>633.65</ele>
        <time>2021-06-03T08:59:42Z</time>
      </trkpt>
      <trkpt lat="45.64556" lon="4.44805">
        <ele>633.65</ele>
        <time>2021-06-03T08:59:54Z</time>
      </trkpt>
      <trkpt lat="45.64545" lon="4.44796">
        <ele>632.2</ele>
        <time>2021-06-03T09:00:06Z</time>
      </trkpt>
      <trkpt lat="45.64537" lon="4.44788">
        <ele>631.24</ele>
        <time>2021-06-03T09:00:19Z</time>
      </trkpt>
      <trkpt lat="45.64525" lon="4.44768">
        <ele>630.76</ele>
        <time>2021-06-03T09:00:32Z</time>
      </trkpt>
      <trkpt lat="45.64529" lon="4.44766">
        <ele>630.28</ele>
        <time>2021-06-03T09:00:44Z</time>
      </trkpt>
      <trkpt lat="45.64535" lon="4.4477">
        <ele>629.8</ele>
        <time>2021-06-03T09:00:57Z</time>
      </trkpt>
      <trkpt lat="45.64545" lon="4.44762">
        <ele>629.8</ele>
        <time>2021-06-03T09:01:09Z</time>
      </trkpt>
      <trkpt lat="45.64546" lon="4.4476">
        <ele>629.32</ele>
        <time>2021-06-03T09:01:12Z</time>
      </trkpt>
      <trkpt lat="45.64547" lon="4.44745">
        <ele>628.36</ele>
        <time>2021-06-03T09:01:23Z</time>
      </trkpt>
      <trkpt lat="45.64547" lon="4.4473">
        <ele>627.88</ele>
        <time>2021-06-03T09:01:35Z</time>
      </trkpt>
      <trkpt lat="45.64542" lon="4.44717">
        <ele>627.4</ele>
        <time>2021-06-03T09:01:46Z</time>
      </trkpt>
      <trkpt lat="45.64533" lon="4.44701">
        <ele>627.4</ele>
        <time>2021-06-03T09:01:57Z</time>
      </trkpt>
      <trkpt lat="45.64524" lon="4.44683">
        <ele>626.92</ele>
        <time>2021-06-03T09:02:11Z</time>
      </trkpt>
      <trkpt lat="45.64516" lon="4.44667">
        <ele>626.92</ele>
        <time>2021-06-03T09:02:23Z</time>
      </trkpt>
      <trkpt lat="45.64507" lon="4.4465">
        <ele>626.92</ele>
        <time>2021-06-03T09:02:36Z</time>
      </trkpt>
      <trkpt lat="45.64499" lon="4.44644">
        <ele>626.92</ele>
        <time>2021-06-03T09:02:49Z</time>
      </trkpt>
      <trkpt lat="45.64491" lon="4.44652">
        <ele>626.92</ele>
        <time>2021-06-03T09:02:59Z</time>
      </trkpt>
      <trkpt lat="45.6449" lon="4.44653">
        <ele>626.92</ele>
        <time>2021-06-03T09:03:00Z</time>
      </trkpt>
      <trkpt lat="45.64474" lon="4.44665">
        <ele>626.44</ele>
        <time>2021-06-03T09:03:13Z</time>
      </trkpt>
      <trkpt lat="45.64469" lon="4.44667">
        <ele>627.4</ele>
        <time>2021-06-03T09:03:18Z</time>
      </trkpt>
      <trkpt lat="45.64459" lon="4.44675">
        <ele>627.4</ele>
        <time>2021-06-03T09:03:26Z</time>
      </trkpt>
      <trkpt lat="45.64446" lon="4.44679">
        <ele>627.4</ele>
        <time>2021-06-03T09:03:36Z</time>
      </trkpt>
      <trkpt lat="45.64438" lon="4.44681">
        <ele>628.36</ele>
        <time>2021-06-03T09:03:46Z</time>
      </trkpt>
      <trkpt lat="45.64426" lon="4.44681">
        <ele>628.84</ele>
        <time>2021-06-03T09:03:56Z</time>
      </trkpt>
      <trkpt lat="45.64413" lon="4.44683">
        <ele>629.8</ele>
        <time>2021-06-03T09:04:07Z</time>
      </trkpt>
      <trkpt lat="45.64402" lon="4.44685">
        <ele>630.28</ele>
        <time>2021-06-03T09:04:18Z</time>
      </trkpt>
      <trkpt lat="45.64391" lon="4.44688">
        <ele>631.24</ele>
        <time>2021-06-03T09:04:28Z</time>
      </trkpt>
      <trkpt lat="45.64381" lon="4.44698">
        <ele>631.24</ele>
        <time>2021-06-03T09:04:38Z</time>
      </trkpt>
      <trkpt lat="45.6438" lon="4.44699">
        <ele>631.24</ele>
        <time>2021-06-03T09:04:39Z</time>
      </trkpt>
      <trkpt lat="45.64369" lon="4.44709">
        <ele>631.72</ele>
        <time>2021-06-03T09:04:50Z</time>
      </trkpt>
      <trkpt lat="45.64361" lon="4.4472">
        <ele>631.72</ele>
        <time>2021-06-03T09:04:59Z</time>
      </trkpt>
      <trkpt lat="45.64351" lon="4.44733">
        <ele>631.72</ele>
        <time>2021-06-03T09:05:11Z</time>
      </trkpt>
      <trkpt lat="45.64341" lon="4.44745">
        <ele>630.76</ele>
        <time>2021-06-03T09:05:22Z</time>
      </trkpt>
      <trkpt lat="45.64334" lon="4.44754">
        <ele>632.2</ele>
        <time>2021-06-03T09:05:32Z</time>
      </trkpt>
      <trkpt lat="45.64331" lon="4.44758">
        <ele>630.76</ele>
        <time>2021-06-03T09:05:36Z</time>
      </trkpt>
      <trkpt lat="45.64321" lon="4.44767">
        <ele>630.76</ele>
        <time>2021-06-03T09:05:47Z</time>
      </trkpt>
      <trkpt lat="45.64319" lon="4.44767">
        <ele>630.76</ele>
        <time>2021-06-03T09:05:49Z</time>
      </trkpt>
      <trkpt lat="45.64317" lon="4.44768">
        <ele>630.76</ele>
        <time>2021-06-03T09:05:51Z</time>
      </trkpt>
      <trkpt lat="45.64313" lon="4.4477">
        <ele>632.2</ele>
        <time>2021-06-03T09:05:54Z</time>
      </trkpt>
      <trkpt lat="45.64305" lon="4.44775">
        <ele>632.2</ele>
        <time>2021-06-03T09:06:03Z</time>
      </trkpt>
      <trkpt lat="45.64306" lon="4.44776">
        <ele>631.24</ele>
        <time>2021-06-03T09:06:15Z</time>
      </trkpt>
      <trkpt lat="45.64307" lon="4.44775">
        <ele>631.24</ele>
        <time>2021-06-03T09:06:29Z</time>
      </trkpt>
      <trkpt lat="45.64309" lon="4.44776">
        <ele>631.72</ele>
        <time>2021-06-03T09:06:44Z</time>
      </trkpt>
      <trkpt lat="45.64308" lon="4.44776">
        <ele>631.72</ele>
        <time>2021-06-03T09:06:55Z</time>
      </trkpt>
      <trkpt lat="45.64307" lon="4.44776">
        <ele>631.72</ele>
        <time>2021-06-03T09:07:09Z</time>
      </trkpt>
      <trkpt lat="45.64307" lon="4.44775">
        <ele>631.72</ele>
        <time>2021-06-03T09:07:24Z</time>
      </trkpt>
      <trkpt lat="45.64308" lon="4.44776">
        <ele>631.72</ele>
        <time>2021-06-03T09:07:38Z</time>
      </trkpt>
      <trkpt lat="45.64306" lon="4.44777">
        <ele>631.72</ele>
        <time>2021-06-03T09:07:57Z</time>
      </trkpt>
      <trkpt lat="45.64306" lon="4.44777">
        <ele>632.68</ele>
        <time>2021-06-03T09:08:14Z</time>
      </trkpt>
      <trkpt lat="45.64309" lon="4.44778">
        <ele>631.24</ele>
        <time>2021-06-03T09:08:31Z</time>
      </trkpt>
      <trkpt lat="45.64309" lon="4.44777">
        <ele>631.24</ele>
        <time>2021-06-03T09:09:00Z</time>
      </trkpt>
      <trkpt lat="45.64308" lon="4.44778">
        <ele>631.24</ele>
        <time>2021-06-03T09:09:20Z</time>
      </trkpt>
      <trkpt lat="45.64309" lon="4.44777">
        <ele>631.24</ele>
        <time>2021-06-03T09:09:41Z</time>
      </trkpt>
      <trkpt lat="45.64309" lon="4.44778">
        <ele>631.24</ele>
        <time>2021-06-03T09:10:08Z</time>
      </trkpt>
      <trkpt lat="45.64312" lon="4.44778">
        <ele>632.2</ele>
        <time>2021-06-03T09:10:31Z</time>
      </trkpt>
      <trkpt lat="45.64313" lon="4.44779">
        <ele>632.2</ele>
        <time>2021-06-03T09:10:53Z</time>
      </trkpt>
      <trkpt lat="45.64309" lon="4.44777">
        <ele>632.2</ele>
        <time>2021-06-03T09:11:12Z</time>
      </trkpt>
      <trkpt lat="45.64308" lon="4.44777">
        <ele>632.2</ele>
        <time>2021-06-03T09:11:26Z</time>
      </trkpt>
      <trkpt lat="45.64307" lon="4.44777">
        <ele>632.2</ele>
        <time>2021-06-03T09:11:40Z</time>
      </trkpt>
      <trkpt lat="45.64307" lon="4.44776">
        <ele>632.2</ele>
        <time>2021-06-03T09:12:02Z</time>
      </trkpt>
      <trkpt lat="45.64308" lon="4.44776">
        <ele>632.2</ele>
        <time>2021-06-03T09:12:19Z</time>
      </trkpt>
      <trkpt lat="45.64306" lon="4.44775">
        <ele>625.96</ele>
        <time>2021-06-03T09:12:25Z</time>
      </trkpt>
      <trkpt lat="45.64306" lon="4.44776">
        <ele>637.97</ele>
        <time>2021-06-03T09:12:26Z</time>
      </trkpt>
      <trkpt lat="45.64306" lon="4.44776">
        <ele>633.17</ele>
        <time>2021-06-03T09:12:27Z</time>
      </trkpt>
      <trkpt lat="45.64306" lon="4.44775">
        <ele>632.2</ele>
        <time>2021-06-03T09:12:29Z</time>
      </trkpt>
      <trkpt lat="45.64303" lon="4.44771">
        <ele>631.72</ele>
        <time>2021-06-03T09:12:37Z</time>
      </trkpt>
      <trkpt lat="45.6429" lon="4.44772">
        <ele>631.24</ele>
        <time>2021-06-03T09:12:49Z</time>
      </trkpt>
      <trkpt lat="45.64276" lon="4.44776">
        <ele>631.24</ele>
        <time>2021-06-03T09:13:02Z</time>
      </trkpt>
      <trkpt lat="45.64266" lon="4.44778">
        <ele>632.2</ele>
        <time>2021-06-03T09:13:13Z</time>
      </trkpt>
      <trkpt lat="45.64257" lon="4.44783">
        <ele>632.2</ele>
        <time>2021-06-03T09:13:22Z</time>
      </trkpt>
      <trkpt lat="45.64247" lon="4.44789">
        <ele>632.2</ele>
        <time>2021-06-03T09:13:31Z</time>
      </trkpt>
      <trkpt lat="45.64237" lon="4.44796">
        <ele>632.2</ele>
        <time>2021-06-03T09:13:40Z</time>
      </trkpt>
      <trkpt lat="45.64225" lon="4.44801">
        <ele>630.76</ele>
        <time>2021-06-03T09:13:51Z</time>
      </trkpt>
      <trkpt lat="45.64224" lon="4.44801">
        <ele>630.76</ele>
        <time>2021-06-03T09:13:52Z</time>
      </trkpt>
      <trkpt lat="45.64215" lon="4.44805">
        <ele>630.76</ele>
        <time>2021-06-03T09:14:01Z</time>
      </trkpt>
      <trkpt lat="45.64203" lon="4.44809">
        <ele>630.28</ele>
        <time>2021-06-03T09:14:12Z</time>
      </trkpt>
      <trkpt lat="45.64192" lon="4.44813">
        <ele>630.28</ele>
        <time>2021-06-03T09:14:21Z</time>
      </trkpt>
      <trkpt lat="45.64183" lon="4.44816">
        <ele>630.28</ele>
        <time>2021-06-03T09:14:30Z</time>
      </trkpt>
      <trkpt lat="45.64171" lon="4.44819">
        <ele>630.28</ele>
        <time>2021-06-03T09:14:40Z</time>
      </trkpt>
      <trkpt lat="45.64166" lon="4.44821">
        <ele>630.28</ele>
        <time>2021-06-03T09:14:49Z</time>
      </trkpt>
      <trkpt lat="45.64164" lon="4.44821">
        <ele>630.28</ele>
        <time>2021-06-03T09:14:57Z</time>
      </trkpt>
      <trkpt lat="45.64165" lon="4.4482">
        <ele>631.72</ele>
        <time>2021-06-03T09:15:08Z</time>
      </trkpt>
      <trkpt lat="45.64157" lon="4.44817">
        <ele>631.72</ele>
        <time>2021-06-03T09:15:16Z</time>
      </trkpt>
      <trkpt lat="45.64146" lon="4.44815">
        <ele>632.2</ele>
        <time>2021-06-03T09:15:27Z</time>
      </trkpt>
      <trkpt lat="45.64137" lon="4.44813">
        <ele>632.2</ele>
        <time>2021-06-03T09:15:36Z</time>
      </trkpt>
      <trkpt lat="45.64127" lon="4.44811">
        <ele>632.68</ele>
        <time>2021-06-03T09:15:45Z</time>
      </trkpt>
      <trkpt lat="45.64116" lon="4.44805">
        <ele>632.68</ele>
        <time>2021-06-03T09:15:56Z</time>
      </trkpt>
      <trkpt lat="45.64101" lon="4.44803">
        <ele>633.17</ele>
        <time>2021-06-03T09:16:08Z</time>
      </trkpt>
      <trkpt lat="45.64089" lon="4.44801">
        <ele>633.17</ele>
        <time>2021-06-03T09:16:20Z</time>
      </trkpt>
      <trkpt lat="45.64076" lon="4.44796">
        <ele>632.68</ele>
        <time>2021-06-03T09:16:31Z</time>
      </trkpt>
      <trkpt lat="45.64064" lon="4.44793">
        <ele>633.65</ele>
        <time>2021-06-03T09:16:42Z</time>
      </trkpt>
      <trkpt lat="45.64051" lon="4.44791">
        <ele>633.65</ele>
        <time>2021-06-03T09:16:52Z</time>
      </trkpt>
      <trkpt lat="45.64037" lon="4.44785">
        <ele>633.65</ele>
        <time>2021-06-03T09:17:02Z</time>
      </trkpt>
      <trkpt lat="45.64021" lon="4.44781">
        <ele>633.65</ele>
        <time>2021-06-03T09:17:15Z</time>
      </trkpt>
      <trkpt lat="45.64005" lon="4.44777">
        <ele>634.13</ele>
        <time>2021-06-03T09:17:27Z</time>
      </trkpt>
      <trkpt lat="45.6399" lon="4.44774">
        <ele>634.13</ele>
        <time>2021-06-03T09:17:39Z</time>
      </trkpt>
      <trkpt lat="45.63972" lon="4.44766">
        <ele>634.13</ele>
        <time>2021-06-03T09:17:52Z</time>
      </trkpt>
      <trkpt lat="45.63955" lon="4.44763">
        <ele>634.13</ele>
        <time>2021-06-03T09:18:04Z</time>
      </trkpt>
      <trkpt lat="45.63947" lon="4.44762">
        <ele>634.61</ele>
        <time>2021-06-03T09:18:11Z</time>
      </trkpt>
      <trkpt lat="45.63933" lon="4.44759">
        <ele>633.17</ele>
        <time>2021-06-03T09:18:20Z</time>
      </trkpt>
      <trkpt lat="45.63914" lon="4.4476">
        <ele>633.17</ele>
        <time>2021-06-03T09:18:34Z</time>
      </trkpt>
      <trkpt lat="45.63899" lon="4.44761">
        <ele>632.68</ele>
        <time>2021-06-03T09:18:45Z</time>
      </trkpt>
      <trkpt lat="45.63888" lon="4.44763">
        <ele>632.68</ele>
        <time>2021-06-03T09:18:55Z</time>
      </trkpt>
      <trkpt lat="45.63884" lon="4.44758">
        <ele>632.68</ele>
        <time>2021-06-03T09:19:03Z</time>
      </trkpt>
      <trkpt lat="45.63885" lon="4.44759">
        <ele>632.68</ele>
        <time>2021-06-03T09:19:13Z</time>
      </trkpt>
      <trkpt lat="45.63886" lon="4.4476">
        <ele>632.68</ele>
        <time>2021-06-03T09:19:29Z</time>
      </trkpt>
      <trkpt lat="45.63886" lon="4.4476">
        <ele>632.68</ele>
        <time>2021-06-03T09:19:43Z</time>
      </trkpt>
      <trkpt lat="45.63887" lon="4.4476">
        <ele>632.68</ele>
        <time>2021-06-03T09:19:57Z</time>
      </trkpt>
      <trkpt lat="45.63889" lon="4.44759">
        <ele>632.68</ele>
        <time>2021-06-03T09:20:16Z</time>
      </trkpt>
      <trkpt lat="45.63888" lon="4.4476">
        <ele>633.17</ele>
        <time>2021-06-03T09:20:36Z</time>
      </trkpt>
      <trkpt lat="45.63889" lon="4.44753">
        <ele>633.17</ele>
        <time>2021-06-03T09:20:45Z</time>
      </trkpt>
      <trkpt lat="45.6389" lon="4.44756">
        <ele>633.17</ele>
        <time>2021-06-03T09:20:51Z</time>
      </trkpt>
      <trkpt lat="45.63891" lon="4.44756">
        <ele>630.28</ele>
        <time>2021-06-03T09:20:57Z</time>
      </trkpt>
      <trkpt lat="45.63891" lon="4.44755">
        <ele>634.61</ele>
        <time>2021-06-03T09:20:58Z</time>
      </trkpt>
      <trkpt lat="45.63892" lon="4.44755">
        <ele>633.17</ele>
        <time>2021-06-03T09:21:02Z</time>
      </trkpt>
      <trkpt lat="45.63892" lon="4.44751">
        <ele>633.17</ele>
        <time>2021-06-03T09:21:05Z</time>
      </trkpt>
      <trkpt lat="45.63899" lon="4.44738">
        <ele>632.68</ele>
        <time>2021-06-03T09:21:16Z</time>
      </trkpt>
      <trkpt lat="45.63902" lon="4.44733">
        <ele>633.17</ele>
        <time>2021-06-03T09:21:21Z</time>
      </trkpt>
      <trkpt lat="45.6391" lon="4.44723">
        <ele>633.17</ele>
        <time>2021-06-03T09:21:30Z</time>
      </trkpt>
      <trkpt lat="45.63916" lon="4.4471">
        <ele>633.17</ele>
        <time>2021-06-03T09:21:40Z</time>
      </trkpt>
      <trkpt lat="45.63923" lon="4.44695">
        <ele>632.68</ele>
        <time>2021-06-03T09:21:50Z</time>
      </trkpt>
      <trkpt lat="45.63929" lon="4.44675">
        <ele>631.72</ele>
        <time>2021-06-03T09:22:02Z</time>
      </trkpt>
      <trkpt lat="45.63937" lon="4.44653">
        <ele>631.24</ele>
        <time>2021-06-03T09:22:14Z</time>
      </trkpt>
      <trkpt lat="45.63943" lon="4.44636">
        <ele>629.8</ele>
        <time>2021-06-03T09:22:25Z</time>
      </trkpt>
      <trkpt lat="45.63952" lon="4.44624">
        <ele>629.8</ele>
        <time>2021-06-03T09:22:36Z</time>
      </trkpt>
      <trkpt lat="45.63961" lon="4.44612">
        <ele>628.36</ele>
        <time>2021-06-03T09:22:46Z</time>
      </trkpt>
      <trkpt lat="45.63971" lon="4.44599">
        <ele>628.36</ele>
        <time>2021-06-03T09:22:57Z</time>
      </trkpt>
      <trkpt lat="45.63986" lon="4.44585">
        <ele>627.88</ele>
        <time>2021-06-03T09:23:11Z</time>
      </trkpt>
      <trkpt lat="45.63998" lon="4.44579">
        <ele>627.4</ele>
        <time>2021-06-03T09:23:24Z</time>
      </trkpt>
      <trkpt lat="45.64004" lon="4.44573">
        <ele>627.4</ele>
        <time>2021-06-03T09:23:34Z</time>
      </trkpt>
      <trkpt lat="45.64016" lon="4.44564">
        <ele>626.92</ele>
        <time>2021-06-03T09:23:46Z</time>
      </trkpt>
      <trkpt lat="45.64031" lon="4.44553">
        <ele>626.44</ele>
        <time>2021-06-03T09:24:00Z</time>
      </trkpt>
      <trkpt lat="45.64047" lon="4.44539">
        <ele>625.47</ele>
        <time>2021-06-03T09:24:14Z</time>
      </trkpt>
      <trkpt lat="45.64051" lon="4.44537">
        <ele>624.03</ele>
        <time>2021-06-03T09:24:18Z</time>
      </trkpt>
      <trkpt lat="45.64063" lon="4.44534">
        <ele>623.55</ele>
        <time>2021-06-03T09:24:29Z</time>
      </trkpt>
      <trkpt lat="45.64075" lon="4.44527">
        <ele>622.59</ele>
        <time>2021-06-03T09:24:42Z</time>
      </trkpt>
      <trkpt lat="45.64082" lon="4.44517">
        <ele>622.11</ele>
        <time>2021-06-03T09:24:53Z</time>
      </trkpt>
      <trkpt lat="45.64093" lon="4.4451">
        <ele>621.15</ele>
        <time>2021-06-03T09:25:05Z</time>
      </trkpt>
      <trkpt lat="45.64101" lon="4.44503">
        <ele>620.19</ele>
        <time>2021-06-03T09:25:13Z</time>
      </trkpt>
      <trkpt lat="45.64111" lon="4.44495">
        <ele>619.23</ele>
        <time>2021-06-03T09:25:24Z</time>
      </trkpt>
      <trkpt lat="45.64122" lon="4.44486">
        <ele>618.75</ele>
        <time>2021-06-03T09:25:36Z</time>
      </trkpt>
      <trkpt lat="45.64131" lon="4.44478">
        <ele>617.78</ele>
        <time>2021-06-03T09:25:46Z</time>
      </trkpt>
      <trkpt lat="45.64139" lon="4.44469">
        <ele>617.3</ele>
        <time>2021-06-03T09:25:55Z</time>
      </trkpt>
      <trkpt lat="45.64148" lon="4.44463">
        <ele>615.86</ele>
        <time>2021-06-03T09:26:05Z</time>
      </trkpt>
      <trkpt lat="45.64156" lon="4.4446">
        <ele>615.38</ele>
        <time>2021-06-03T09:26:14Z</time>
      </trkpt>
      <trkpt lat="45.64171" lon="4.44457">
        <ele>614.42</ele>
        <time>2021-06-03T09:26:27Z</time>
      </trkpt>
      <trkpt lat="45.64184" lon="4.4445">
        <ele>613.94</ele>
        <time>2021-06-03T09:26:40Z</time>
      </trkpt>
      <trkpt lat="45.64197" lon="4.44442">
        <ele>613.46</ele>
        <time>2021-06-03T09:26:53Z</time>
      </trkpt>
      <trkpt lat="45.64207" lon="4.44437">
        <ele>612.98</ele>
        <time>2021-06-03T09:27:03Z</time>
      </trkpt>
      <trkpt lat="45.64221" lon="4.44433">
        <ele>612.5</ele>
        <time>2021-06-03T09:27:16Z</time>
      </trkpt>
      <trkpt lat="45.64233" lon="4.44426">
        <ele>612.5</ele>
        <time>2021-06-03T09:27:28Z</time>
      </trkpt>
      <trkpt lat="45.64252" lon="4.44418">
        <ele>612.5</ele>
        <time>2021-06-03T09:27:43Z</time>
      </trkpt>
      <trkpt lat="45.64262" lon="4.44409">
        <ele>612.5</ele>
        <time>2021-06-03T09:27:55Z</time>
      </trkpt>
      <trkpt lat="45.64273" lon="4.44402">
        <ele>612.5</ele>
        <time>2021-06-03T09:28:07Z</time>
      </trkpt>
      <trkpt lat="45.64288" lon="4.44391">
        <ele>612.5</ele>
        <time>2021-06-03T09:28:21Z</time>
      </trkpt>
      <trkpt lat="45.64302" lon="4.44379">
        <ele>612.02</ele>
        <time>2021-06-03T09:28:33Z</time>
      </trkpt>
      <trkpt lat="45.64312" lon="4.44364">
        <ele>613.94</ele>
        <time>2021-06-03T09:28:44Z</time>
      </trkpt>
      <trkpt lat="45.64315" lon="4.44349">
        <ele>612.98</ele>
        <time>2021-06-03T09:28:55Z</time>
      </trkpt>
      <trkpt lat="45.64314" lon="4.44344">
        <ele>614.42</ele>
        <time>2021-06-03T09:28:58Z</time>
      </trkpt>
      <trkpt lat="45.64312" lon="4.44327">
        <ele>614.9</ele>
        <time>2021-06-03T09:29:08Z</time>
      </trkpt>
      <trkpt lat="45.64311" lon="4.44308">
        <ele>616.82</ele>
        <time>2021-06-03T09:29:20Z</time>
      </trkpt>
      <trkpt lat="45.64314" lon="4.44292">
        <ele>618.26</ele>
        <time>2021-06-03T09:29:31Z</time>
      </trkpt>
      <trkpt lat="45.64316" lon="4.44291">
        <ele>618.75</ele>
        <time>2021-06-03T09:29:35Z</time>
      </trkpt>
      <trkpt lat="45.64324" lon="4.44272">
        <ele>620.19</ele>
        <time>2021-06-03T09:29:48Z</time>
      </trkpt>
      <trkpt lat="45.64331" lon="4.44268">
        <ele>620.19</ele>
        <time>2021-06-03T09:29:59Z</time>
      </trkpt>
      <trkpt lat="45.64342" lon="4.44272">
        <ele>620.67</ele>
        <time>2021-06-03T09:30:12Z</time>
      </trkpt>
      <trkpt lat="45.64355" lon="4.44267">
        <ele>621.63</ele>
        <time>2021-06-03T09:30:23Z</time>
      </trkpt>
      <trkpt lat="45.6436" lon="4.44259">
        <ele>621.63</ele>
        <time>2021-06-03T09:30:32Z</time>
      </trkpt>
      <trkpt lat="45.64364" lon="4.44249">
        <ele>621.15</ele>
        <time>2021-06-03T09:30:43Z</time>
      </trkpt>
      <trkpt lat="45.64367" lon="4.44242">
        <ele>621.15</ele>
        <time>2021-06-03T09:30:50Z</time>
      </trkpt>
      <trkpt lat="45.64373" lon="4.44228">
        <ele>622.11</ele>
        <time>2021-06-03T09:31:01Z</time>
      </trkpt>
      <trkpt lat="45.64375" lon="4.44218">
        <ele>621.63</ele>
        <time>2021-06-03T09:31:10Z</time>
      </trkpt>
      <trkpt lat="45.64383" lon="4.44199">
        <ele>622.11</ele>
        <time>2021-06-03T09:31:22Z</time>
      </trkpt>
      <trkpt lat="45.64388" lon="4.44186">
        <ele>623.07</ele>
        <time>2021-06-03T09:31:32Z</time>
      </trkpt>
      <trkpt lat="45.64392" lon="4.44174">
        <ele>623.55</ele>
        <time>2021-06-03T09:31:41Z</time>
      </trkpt>
      <trkpt lat="45.64399" lon="4.44151">
        <ele>624.51</ele>
        <time>2021-06-03T09:31:55Z</time>
      </trkpt>
      <trkpt lat="45.64406" lon="4.44135">
        <ele>624.51</ele>
        <time>2021-06-03T09:32:07Z</time>
      </trkpt>
      <trkpt lat="45.64411" lon="4.44124">
        <ele>624.99</ele>
        <time>2021-06-03T09:32:17Z</time>
      </trkpt>
      <trkpt lat="45.64415" lon="4.4411">
        <ele>626.92</ele>
        <time>2021-06-03T09:32:28Z</time>
      </trkpt>
      <trkpt lat="45.64423" lon="4.44097">
        <ele>627.4</ele>
        <time>2021-06-03T09:32:40Z</time>
      </trkpt>
      <trkpt lat="45.64425" lon="4.44092">
        <ele>628.84</ele>
        <time>2021-06-03T09:32:45Z</time>
      </trkpt>
      <trkpt lat="45.64426" lon="4.44089">
        <ele>627.4</ele>
        <time>2021-06-03T09:32:47Z</time>
      </trkpt>
      <trkpt lat="45.64427" lon="4.44086">
        <ele>628.84</ele>
        <time>2021-06-03T09:32:49Z</time>
      </trkpt>
      <trkpt lat="45.64433" lon="4.44072">
        <ele>629.8</ele>
        <time>2021-06-03T09:33:00Z</time>
      </trkpt>
      <trkpt lat="45.64441" lon="4.44061">
        <ele>631.24</ele>
        <time>2021-06-03T09:33:11Z</time>
      </trkpt>
      <trkpt lat="45.64445" lon="4.44048">
        <ele>631.72</ele>
        <time>2021-06-03T09:33:21Z</time>
      </trkpt>
      <trkpt lat="45.64449" lon="4.44037">
        <ele>633.17</ele>
        <time>2021-06-03T09:33:29Z</time>
      </trkpt>
      <trkpt lat="45.6445" lon="4.44034">
        <ele>633.17</ele>
        <time>2021-06-03T09:33:31Z</time>
      </trkpt>
      <trkpt lat="45.64452" lon="4.44015">
        <ele>634.13</ele>
        <time>2021-06-03T09:33:41Z</time>
      </trkpt>
      <trkpt lat="45.64457" lon="4.44003">
        <ele>634.61</ele>
        <time>2021-06-03T09:33:52Z</time>
      </trkpt>
      <trkpt lat="45.64462" lon="4.43989">
        <ele>636.05</ele>
        <time>2021-06-03T09:34:03Z</time>
      </trkpt>
      <trkpt lat="45.64468" lon="4.43981">
        <ele>636.53</ele>
        <time>2021-06-03T09:34:13Z</time>
      </trkpt>
      <trkpt lat="45.64472" lon="4.43974">
        <ele>636.05</ele>
        <time>2021-06-03T09:34:19Z</time>
      </trkpt>
      <trkpt lat="45.64474" lon="4.43973">
        <ele>637.49</ele>
        <time>2021-06-03T09:34:21Z</time>
      </trkpt>
      <trkpt lat="45.64481" lon="4.43961">
        <ele>638.45</ele>
        <time>2021-06-03T09:34:33Z</time>
      </trkpt>
      <trkpt lat="45.6448" lon="4.43955">
        <ele>638.93</ele>
        <time>2021-06-03T09:34:44Z</time>
      </trkpt>
      <trkpt lat="45.64476" lon="4.4395">
        <ele>638.93</ele>
        <time>2021-06-03T09:34:52Z</time>
      </trkpt>
      <trkpt lat="45.64475" lon="4.4395">
        <ele>638.93</ele>
        <time>2021-06-03T09:35:02Z</time>
      </trkpt>
      <trkpt lat="45.64476" lon="4.43949">
        <ele>638.93</ele>
        <time>2021-06-03T09:35:15Z</time>
      </trkpt>
      <trkpt lat="45.64476" lon="4.43949">
        <ele>638.93</ele>
        <time>2021-06-03T09:35:28Z</time>
      </trkpt>
      <trkpt lat="45.64475" lon="4.43949">
        <ele>639.41</ele>
        <time>2021-06-03T09:35:40Z</time>
      </trkpt>
      <trkpt lat="45.64477" lon="4.43947">
        <ele>639.41</ele>
        <time>2021-06-03T09:35:55Z</time>
      </trkpt>
      <trkpt lat="45.64475" lon="4.43946">
        <ele>639.41</ele>
        <time>2021-06-03T09:36:13Z</time>
      </trkpt>
      <trkpt lat="45.64474" lon="4.43946">
        <ele>639.41</ele>
        <time>2021-06-03T09:36:24Z</time>
      </trkpt>
      <trkpt lat="45.64475" lon="4.43946">
        <ele>638.93</ele>
        <time>2021-06-03T09:36:36Z</time>
      </trkpt>
      <trkpt lat="45.64476" lon="4.43943">
        <ele>638.93</ele>
        <time>2021-06-03T09:36:51Z</time>
      </trkpt>
      <trkpt lat="45.64474" lon="4.43944">
        <ele>638.93</ele>
        <time>2021-06-03T09:37:00Z</time>
      </trkpt>
      <trkpt lat="45.64473" lon="4.43945">
        <ele>638.93</ele>
        <time>2021-06-03T09:37:13Z</time>
      </trkpt>
      <trkpt lat="45.64473" lon="4.43945">
        <ele>638.93</ele>
        <time>2021-06-03T09:37:24Z</time>
      </trkpt>
      <trkpt lat="45.64473" lon="4.43942">
        <ele>638.93</ele>
        <time>2021-06-03T09:37:34Z</time>
      </trkpt>
      <trkpt lat="45.64473" lon="4.43943">
        <ele>638.93</ele>
        <time>2021-06-03T09:37:42Z</time>
      </trkpt>
      <trkpt lat="45.64473" lon="4.43943">
        <ele>638.93</ele>
        <time>2021-06-03T09:37:55Z</time>
      </trkpt>
      <trkpt lat="45.64473" lon="4.43943">
        <ele>638.93</ele>
        <time>2021-06-03T09:38:06Z</time>
      </trkpt>
      <trkpt lat="45.64473" lon="4.43942">
        <ele>638.93</ele>
        <time>2021-06-03T09:38:16Z</time>
      </trkpt>
      <trkpt lat="45.64474" lon="4.43941">
        <ele>638.93</ele>
        <time>2021-06-03T09:38:28Z</time>
      </trkpt>
      <trkpt lat="45.64478" lon="4.4394">
        <ele>638.93</ele>
        <time>2021-06-03T09:38:40Z</time>
      </trkpt>
      <trkpt lat="45.64482" lon="4.43943">
        <ele>638.93</ele>
        <time>2021-06-03T09:38:47Z</time>
      </trkpt>
      <trkpt lat="45.6448" lon="4.43942">
        <ele>638.93</ele>
        <time>2021-06-03T09:38:53Z</time>
      </trkpt>
      <trkpt lat="45.6448" lon="4.43943">
        <ele>638.93</ele>
        <time>2021-06-03T09:39:08Z</time>
      </trkpt>
      <trkpt lat="45.64483" lon="4.43938">
        <ele>638.93</ele>
        <time>2021-06-03T09:39:14Z</time>
      </trkpt>
      <trkpt lat="45.64485" lon="4.43934">
        <ele>638.93</ele>
        <time>2021-06-03T09:39:19Z</time>
      </trkpt>
      <trkpt lat="45.64487" lon="4.43929">
        <ele>637.97</ele>
        <time>2021-06-03T09:39:24Z</time>
      </trkpt>
      <trkpt lat="45.64491" lon="4.43923">
        <ele>637.49</ele>
        <time>2021-06-03T09:39:31Z</time>
      </trkpt>
      <trkpt lat="45.64495" lon="4.43917">
        <ele>636.53</ele>
        <time>2021-06-03T09:39:39Z</time>
      </trkpt>
      <trkpt lat="45.64499" lon="4.43912">
        <ele>636.53</ele>
        <time>2021-06-03T09:39:46Z</time>
      </trkpt>
      <trkpt lat="45.64504" lon="4.43907">
        <ele>635.57</ele>
        <time>2021-06-03T09:39:53Z</time>
      </trkpt>
      <trkpt lat="45.64509" lon="4.439">
        <ele>634.61</ele>
        <time>2021-06-03T09:40:01Z</time>
      </trkpt>
      <trkpt lat="45.64514" lon="4.43895">
        <ele>634.13</ele>
        <time>2021-06-03T09:40:08Z</time>
      </trkpt>
      <trkpt lat="45.6452" lon="4.43886">
        <ele>632.68</ele>
        <time>2021-06-03T09:40:15Z</time>
      </trkpt>
      <trkpt lat="45.64523" lon="4.43879">
        <ele>631.72</ele>
        <time>2021-06-03T09:40:22Z</time>
      </trkpt>
      <trkpt lat="45.64527" lon="4.43874">
        <ele>631.72</ele>
        <time>2021-06-03T09:40:29Z</time>
      </trkpt>
      <trkpt lat="45.64531" lon="4.43867">
        <ele>630.76</ele>
        <time>2021-06-03T09:40:35Z</time>
      </trkpt>
      <trkpt lat="45.64534" lon="4.43865">
        <ele>630.28</ele>
        <time>2021-06-03T09:40:37Z</time>
      </trkpt>
      <trkpt lat="45.64536" lon="4.43863">
        <ele>630.28</ele>
        <time>2021-06-03T09:40:40Z</time>
      </trkpt>
      <trkpt lat="45.64539" lon="4.43858">
        <ele>630.28</ele>
        <time>2021-06-03T09:40:43Z</time>
      </trkpt>
      <trkpt lat="45.64544" lon="4.43847">
        <ele>629.32</ele>
        <time>2021-06-03T09:40:51Z</time>
      </trkpt>
      <trkpt lat="45.64544" lon="4.43846">
        <ele>629.32</ele>
        <time>2021-06-03T09:40:52Z</time>
      </trkpt>
      <trkpt lat="45.64548" lon="4.43838">
        <ele>628.36</ele>
        <time>2021-06-03T09:41:01Z</time>
      </trkpt>
      <trkpt lat="45.64548" lon="4.43837">
        <ele>628.36</ele>
        <time>2021-06-03T09:41:02Z</time>
      </trkpt>
      <trkpt lat="45.64552" lon="4.43831">
        <ele>627.88</ele>
        <time>2021-06-03T09:41:09Z</time>
      </trkpt>
      <trkpt lat="45.64555" lon="4.43821">
        <ele>626.92</ele>
        <time>2021-06-03T09:41:17Z</time>
      </trkpt>
      <trkpt lat="45.64558" lon="4.43815">
        <ele>626.44</ele>
        <time>2021-06-03T09:41:22Z</time>
      </trkpt>
      <trkpt lat="45.64563" lon="4.43805">
        <ele>625.96</ele>
        <time>2021-06-03T09:41:30Z</time>
      </trkpt>
      <trkpt lat="45.64564" lon="4.43803">
        <ele>625.96</ele>
        <time>2021-06-03T09:41:32Z</time>
      </trkpt>
      <trkpt lat="45.64569" lon="4.43787">
        <ele>625.47</ele>
        <time>2021-06-03T09:41:42Z</time>
      </trkpt>
      <trkpt lat="45.64571" lon="4.43781">
        <ele>624.99</ele>
        <time>2021-06-03T09:41:46Z</time>
      </trkpt>
      <trkpt lat="45.64575" lon="4.43769">
        <ele>624.99</ele>
        <time>2021-06-03T09:41:54Z</time>
      </trkpt>
      <trkpt lat="45.64578" lon="4.43759">
        <ele>624.99</ele>
        <time>2021-06-03T09:42:01Z</time>
      </trkpt>
      <trkpt lat="45.64583" lon="4.43751">
        <ele>624.99</ele>
        <time>2021-06-03T09:42:08Z</time>
      </trkpt>
      <trkpt lat="45.64587" lon="4.43745">
        <ele>624.99</ele>
        <time>2021-06-03T09:42:14Z</time>
      </trkpt>
      <trkpt lat="45.64588" lon="4.43745">
        <ele>624.51</ele>
        <time>2021-06-03T09:42:15Z</time>
      </trkpt>
      <trkpt lat="45.64594" lon="4.43739">
        <ele>624.51</ele>
        <time>2021-06-03T09:42:23Z</time>
      </trkpt>
      <trkpt lat="45.64598" lon="4.43733">
        <ele>624.51</ele>
        <time>2021-06-03T09:42:29Z</time>
      </trkpt>
      <trkpt lat="45.64603" lon="4.43727">
        <ele>623.55</ele>
        <time>2021-06-03T09:42:37Z</time>
      </trkpt>
      <trkpt lat="45.64605" lon="4.43725">
        <ele>623.55</ele>
        <time>2021-06-03T09:42:39Z</time>
      </trkpt>
      <trkpt lat="45.6461" lon="4.43715">
        <ele>623.55</ele>
        <time>2021-06-03T09:42:47Z</time>
      </trkpt>
      <trkpt lat="45.64616" lon="4.43705">
        <ele>623.07</ele>
        <time>2021-06-03T09:42:55Z</time>
      </trkpt>
      <trkpt lat="45.64621" lon="4.43696">
        <ele>623.07</ele>
        <time>2021-06-03T09:43:02Z</time>
      </trkpt>
      <trkpt lat="45.64624" lon="4.4369">
        <ele>623.55</ele>
        <time>2021-06-03T09:43:08Z</time>
      </trkpt>
      <trkpt lat="45.64627" lon="4.43679">
        <ele>623.07</ele>
        <time>2021-06-03T09:43:16Z</time>
      </trkpt>
      <trkpt lat="45.64627" lon="4.43677">
        <ele>623.07</ele>
        <time>2021-06-03T09:43:17Z</time>
      </trkpt>
      <trkpt lat="45.64628" lon="4.43671">
        <ele>623.07</ele>
        <time>2021-06-03T09:43:21Z</time>
      </trkpt>
      <trkpt lat="45.64628" lon="4.43668">
        <ele>623.07</ele>
        <time>2021-06-03T09:43:23Z</time>
      </trkpt>
      <trkpt lat="45.6463" lon="4.43663">
        <ele>623.07</ele>
        <time>2021-06-03T09:43:32Z</time>
      </trkpt>
      <trkpt lat="45.64631" lon="4.43664">
        <ele>623.07</ele>
        <time>2021-06-03T09:43:43Z</time>
      </trkpt>
      <trkpt lat="45.64629" lon="4.43659">
        <ele>623.07</ele>
        <time>2021-06-03T09:43:53Z</time>
      </trkpt>
      <trkpt lat="45.64627" lon="4.43653">
        <ele>623.07</ele>
        <time>2021-06-03T09:43:59Z</time>
      </trkpt>
      <trkpt lat="45.64624" lon="4.43652">
        <ele>623.07</ele>
        <time>2021-06-03T09:44:06Z</time>
      </trkpt>
      <trkpt lat="45.64624" lon="4.4365">
        <ele>623.07</ele>
        <time>2021-06-03T09:44:23Z</time>
      </trkpt>
      <trkpt lat="45.64622" lon="4.43653">
        <ele>623.07</ele>
        <time>2021-06-03T09:44:44Z</time>
      </trkpt>
      <trkpt lat="45.64622" lon="4.43652">
        <ele>623.07</ele>
        <time>2021-06-03T09:45:02Z</time>
      </trkpt>
      <trkpt lat="45.64623" lon="4.43656">
        <ele>623.07</ele>
        <time>2021-06-03T09:45:14Z</time>
      </trkpt>
      <trkpt lat="45.64625" lon="4.43655">
        <ele>623.07</ele>
        <time>2021-06-03T09:45:20Z</time>
      </trkpt>
      <trkpt lat="45.64627" lon="4.4365">
        <ele>623.07</ele>
        <time>2021-06-03T09:45:27Z</time>
      </trkpt>
      <trkpt lat="45.64627" lon="4.43648">
        <ele>623.55</ele>
        <time>2021-06-03T09:45:29Z</time>
      </trkpt>
      <trkpt lat="45.64627" lon="4.43634">
        <ele>624.99</ele>
        <time>2021-06-03T09:45:37Z</time>
      </trkpt>
      <trkpt lat="45.64629" lon="4.43624">
        <ele>625.47</ele>
        <time>2021-06-03T09:45:43Z</time>
      </trkpt>
      <trkpt lat="45.64631" lon="4.43612">
        <ele>625.47</ele>
        <time>2021-06-03T09:45:50Z</time>
      </trkpt>
      <trkpt lat="45.64634" lon="4.43602">
        <ele>625.96</ele>
        <time>2021-06-03T09:45:57Z</time>
      </trkpt>
      <trkpt lat="45.64637" lon="4.4359">
        <ele>627.4</ele>
        <time>2021-06-03T09:46:05Z</time>
      </trkpt>
      <trkpt lat="45.64639" lon="4.43582">
        <ele>627.88</ele>
        <time>2021-06-03T09:46:11Z</time>
      </trkpt>
      <trkpt lat="45.64641" lon="4.43576">
        <ele>628.84</ele>
        <time>2021-06-03T09:46:17Z</time>
      </trkpt>
      <trkpt lat="45.64644" lon="4.43568">
        <ele>628.84</ele>
        <time>2021-06-03T09:46:23Z</time>
      </trkpt>
      <trkpt lat="45.64646" lon="4.43559">
        <ele>630.76</ele>
        <time>2021-06-03T09:46:30Z</time>
      </trkpt>
      <trkpt lat="45.64647" lon="4.4355">
        <ele>632.2</ele>
        <time>2021-06-03T09:46:37Z</time>
      </trkpt>
      <trkpt lat="45.64647" lon="4.43544">
        <ele>632.68</ele>
        <time>2021-06-03T09:46:41Z</time>
      </trkpt>
      <trkpt lat="45.64646" lon="4.43535">
        <ele>633.65</ele>
        <time>2021-06-03T09:46:48Z</time>
      </trkpt>
      <trkpt lat="45.64646" lon="4.43527">
        <ele>633.65</ele>
        <time>2021-06-03T09:46:55Z</time>
      </trkpt>
      <trkpt lat="45.64647" lon="4.4352">
        <ele>634.61</ele>
        <time>2021-06-03T09:47:01Z</time>
      </trkpt>
      <trkpt lat="45.64648" lon="4.43513">
        <ele>635.09</ele>
        <time>2021-06-03T09:47:06Z</time>
      </trkpt>
      <trkpt lat="45.64651" lon="4.43504">
        <ele>636.05</ele>
        <time>2021-06-03T09:47:14Z</time>
      </trkpt>
      <trkpt lat="45.64653" lon="4.43496">
        <ele>636.53</ele>
        <time>2021-06-03T09:47:22Z</time>
      </trkpt>
      <trkpt lat="45.64657" lon="4.4349">
        <ele>637.01</ele>
        <time>2021-06-03T09:47:29Z</time>
      </trkpt>
      <trkpt lat="45.64659" lon="4.43483">
        <ele>637.49</ele>
        <time>2021-06-03T09:47:36Z</time>
      </trkpt>
      <trkpt lat="45.64662" lon="4.43475">
        <ele>637.49</ele>
        <time>2021-06-03T09:47:43Z</time>
      </trkpt>
      <trkpt lat="45.64663" lon="4.43467">
        <ele>637.97</ele>
        <time>2021-06-03T09:47:50Z</time>
      </trkpt>
      <trkpt lat="45.64665" lon="4.43461">
        <ele>638.93</ele>
        <time>2021-06-03T09:47:57Z</time>
      </trkpt>
      <trkpt lat="45.64665" lon="4.43458">
        <ele>638.93</ele>
        <time>2021-06-03T09:48:03Z</time>
      </trkpt>
      <trkpt lat="45.64668" lon="4.4345">
        <ele>639.41</ele>
        <time>2021-06-03T09:48:10Z</time>
      </trkpt>
      <trkpt lat="45.64671" lon="4.4344">
        <ele>639.41</ele>
        <time>2021-06-03T09:48:18Z</time>
      </trkpt>
      <trkpt lat="45.64673" lon="4.43431">
        <ele>639.89</ele>
        <time>2021-06-03T09:48:26Z</time>
      </trkpt>
      <trkpt lat="45.64676" lon="4.43425">
        <ele>640.38</ele>
        <time>2021-06-03T09:48:32Z</time>
      </trkpt>
      <trkpt lat="45.64679" lon="4.43418">
        <ele>640.86</ele>
        <time>2021-06-03T09:48:40Z</time>
      </trkpt>
      <trkpt lat="45.64683" lon="4.43412">
        <ele>641.82</ele>
        <time>2021-06-03T09:48:48Z</time>
      </trkpt>
      <trkpt lat="45.64686" lon="4.43407">
        <ele>642.3</ele>
        <time>2021-06-03T09:48:56Z</time>
      </trkpt>
      <trkpt lat="45.64688" lon="4.43401">
        <ele>643.74</ele>
        <time>2021-06-03T09:49:03Z</time>
      </trkpt>
      <trkpt lat="45.64692" lon="4.43396">
        <ele>644.7</ele>
        <time>2021-06-03T09:49:11Z</time>
      </trkpt>
      <trkpt lat="45.64697" lon="4.4339">
        <ele>644.7</ele>
        <time>2021-06-03T09:49:19Z</time>
      </trkpt>
      <trkpt lat="45.64702" lon="4.43381">
        <ele>645.18</ele>
        <time>2021-06-03T09:49:27Z</time>
      </trkpt>
      <trkpt lat="45.64706" lon="4.43375">
        <ele>646.14</ele>
        <time>2021-06-03T09:49:35Z</time>
      </trkpt>
      <trkpt lat="45.64709" lon="4.4337">
        <ele>646.62</ele>
        <time>2021-06-03T09:49:43Z</time>
      </trkpt>
      <trkpt lat="45.6471" lon="4.43368">
        <ele>647.1</ele>
        <time>2021-06-03T09:49:45Z</time>
      </trkpt>
      <trkpt lat="45.64712" lon="4.43362">
        <ele>647.1</ele>
        <time>2021-06-03T09:49:51Z</time>
      </trkpt>
      <trkpt lat="45.64713" lon="4.43351">
        <ele>648.07</ele>
        <time>2021-06-03T09:49:59Z</time>
      </trkpt>
      <trkpt lat="45.64716" lon="4.43345">
        <ele>648.55</ele>
        <time>2021-06-03T09:50:05Z</time>
      </trkpt>
      <trkpt lat="45.6472" lon="4.43337">
        <ele>649.03</ele>
        <time>2021-06-03T09:50:14Z</time>
      </trkpt>
      <trkpt lat="45.6472" lon="4.43336">
        <ele>649.03</ele>
        <time>2021-06-03T09:50:15Z</time>
      </trkpt>
      <trkpt lat="45.64722" lon="4.43332">
        <ele>649.03</ele>
        <time>2021-06-03T09:50:19Z</time>
      </trkpt>
      <trkpt lat="45.64726" lon="4.43328">
        <ele>649.51</ele>
        <time>2021-06-03T09:50:25Z</time>
      </trkpt>
      <trkpt lat="45.6473" lon="4.43319">
        <ele>650.47</ele>
        <time>2021-06-03T09:50:33Z</time>
      </trkpt>
      <trkpt lat="45.64734" lon="4.43313">
        <ele>650.47</ele>
        <time>2021-06-03T09:50:40Z</time>
      </trkpt>
      <trkpt lat="45.64736" lon="4.43305">
        <ele>651.43</ele>
        <time>2021-06-03T09:50:47Z</time>
      </trkpt>
      <trkpt lat="45.64738" lon="4.43297">
        <ele>651.91</ele>
        <time>2021-06-03T09:50:53Z</time>
      </trkpt>
      <trkpt lat="45.64738" lon="4.43294">
        <ele>651.91</ele>
        <time>2021-06-03T09:50:55Z</time>
      </trkpt>
      <trkpt lat="45.64741" lon="4.43286">
        <ele>652.87</ele>
        <time>2021-06-03T09:51:02Z</time>
      </trkpt>
      <trkpt lat="45.64743" lon="4.43278">
        <ele>652.87</ele>
        <time>2021-06-03T09:51:09Z</time>
      </trkpt>
      <trkpt lat="45.64745" lon="4.4327">
        <ele>653.35</ele>
        <time>2021-06-03T09:51:16Z</time>
      </trkpt>
      <trkpt lat="45.64745" lon="4.43269">
        <ele>653.35</ele>
        <time>2021-06-03T09:51:17Z</time>
      </trkpt>
      <trkpt lat="45.64747" lon="4.43264">
        <ele>653.35</ele>
        <time>2021-06-03T09:51:21Z</time>
      </trkpt>
      <trkpt lat="45.64749" lon="4.43253">
        <ele>653.35</ele>
        <time>2021-06-03T09:51:29Z</time>
      </trkpt>
      <trkpt lat="45.64752" lon="4.43243">
        <ele>654.31</ele>
        <time>2021-06-03T09:51:38Z</time>
      </trkpt>
      <trkpt lat="45.64755" lon="4.43235">
        <ele>653.83</ele>
        <time>2021-06-03T09:51:45Z</time>
      </trkpt>
      <trkpt lat="45.64757" lon="4.43228">
        <ele>654.8</ele>
        <time>2021-06-03T09:51:52Z</time>
      </trkpt>
      <trkpt lat="45.6476" lon="4.4322">
        <ele>655.28</ele>
        <time>2021-06-03T09:52:00Z</time>
      </trkpt>
      <trkpt lat="45.64762" lon="4.43213">
        <ele>655.76</ele>
        <time>2021-06-03T09:52:06Z</time>
      </trkpt>
      <trkpt lat="45.64765" lon="4.43204">
        <ele>656.24</ele>
        <time>2021-06-03T09:52:14Z</time>
      </trkpt>
      <trkpt lat="45.64769" lon="4.43197">
        <ele>656.72</ele>
        <time>2021-06-03T09:52:22Z</time>
      </trkpt>
      <trkpt lat="45.64771" lon="4.43191">
        <ele>657.68</ele>
        <time>2021-06-03T09:52:29Z</time>
      </trkpt>
      <trkpt lat="45.64773" lon="4.43185">
        <ele>658.64</ele>
        <time>2021-06-03T09:52:36Z</time>
      </trkpt>
      <trkpt lat="45.64773" lon="4.43176">
        <ele>659.6</ele>
        <time>2021-06-03T09:52:44Z</time>
      </trkpt>
      <trkpt lat="45.64773" lon="4.43168">
        <ele>660.56</ele>
        <time>2021-06-03T09:52:51Z</time>
      </trkpt>
      <trkpt lat="45.64775" lon="4.43163">
        <ele>661.04</ele>
        <time>2021-06-03T09:52:58Z</time>
      </trkpt>
      <trkpt lat="45.64775" lon="4.43157">
        <ele>662.49</ele>
        <time>2021-06-03T09:53:05Z</time>
      </trkpt>
      <trkpt lat="45.64777" lon="4.43151">
        <ele>662.97</ele>
        <time>2021-06-03T09:53:12Z</time>
      </trkpt>
      <trkpt lat="45.64777" lon="4.4315">
        <ele>662.97</ele>
        <time>2021-06-03T09:53:13Z</time>
      </trkpt>
      <trkpt lat="45.6478" lon="4.43142">
        <ele>663.93</ele>
        <time>2021-06-03T09:53:21Z</time>
      </trkpt>
      <trkpt lat="45.64782" lon="4.43134">
        <ele>664.89</ele>
        <time>2021-06-03T09:53:27Z</time>
      </trkpt>
      <trkpt lat="45.64782" lon="4.43132">
        <ele>664.89</ele>
        <time>2021-06-03T09:53:29Z</time>
      </trkpt>
      <trkpt lat="45.64785" lon="4.43124">
        <ele>665.85</ele>
        <time>2021-06-03T09:53:36Z</time>
      </trkpt>
      <trkpt lat="45.64788" lon="4.43115">
        <ele>666.33</ele>
        <time>2021-06-03T09:53:44Z</time>
      </trkpt>
      <trkpt lat="45.64789" lon="4.43114">
        <ele>666.81</ele>
        <time>2021-06-03T09:53:56Z</time>
      </trkpt>
      <trkpt lat="45.64787" lon="4.43112">
        <ele>666.81</ele>
        <time>2021-06-03T09:54:06Z</time>
      </trkpt>
      <trkpt lat="45.64785" lon="4.43109">
        <ele>666.81</ele>
        <time>2021-06-03T09:54:21Z</time>
      </trkpt>
      <trkpt lat="45.64786" lon="4.43105">
        <ele>667.29</ele>
        <time>2021-06-03T09:54:30Z</time>
      </trkpt>
      <trkpt lat="45.64789" lon="4.43099">
        <ele>668.25</ele>
        <time>2021-06-03T09:54:37Z</time>
      </trkpt>
      <trkpt lat="45.6479" lon="4.43097">
        <ele>668.73</ele>
        <time>2021-06-03T09:54:41Z</time>
      </trkpt>
      <trkpt lat="45.64793" lon="4.43091">
        <ele>669.22</ele>
        <time>2021-06-03T09:54:48Z</time>
      </trkpt>
      <trkpt lat="45.64796" lon="4.43085">
        <ele>670.18</ele>
        <time>2021-06-03T09:54:55Z</time>
      </trkpt>
      <trkpt lat="45.64799" lon="4.43079">
        <ele>670.66</ele>
        <time>2021-06-03T09:55:03Z</time>
      </trkpt>
      <trkpt lat="45.64802" lon="4.43072">
        <ele>671.62</ele>
        <time>2021-06-03T09:55:10Z</time>
      </trkpt>
      <trkpt lat="45.64802" lon="4.43064">
        <ele>672.58</ele>
        <time>2021-06-03T09:55:18Z</time>
      </trkpt>
      <trkpt lat="45.64803" lon="4.43062">
        <ele>672.58</ele>
        <time>2021-06-03T09:55:20Z</time>
      </trkpt>
      <trkpt lat="45.64804" lon="4.43053">
        <ele>673.54</ele>
        <time>2021-06-03T09:55:28Z</time>
      </trkpt>
      <trkpt lat="45.64805" lon="4.43046">
        <ele>674.5</ele>
        <time>2021-06-03T09:55:35Z</time>
      </trkpt>
      <trkpt lat="45.64807" lon="4.43039">
        <ele>675.46</ele>
        <time>2021-06-03T09:55:42Z</time>
      </trkpt>
      <trkpt lat="45.64808" lon="4.43034">
        <ele>676.91</ele>
        <time>2021-06-03T09:55:48Z</time>
      </trkpt>
      <trkpt lat="45.6481" lon="4.43026">
        <ele>677.39</ele>
        <time>2021-06-03T09:55:56Z</time>
      </trkpt>
      <trkpt lat="45.64813" lon="4.4302">
        <ele>678.83</ele>
        <time>2021-06-03T09:56:02Z</time>
      </trkpt>
      <trkpt lat="45.64816" lon="4.43014">
        <ele>679.31</ele>
        <time>2021-06-03T09:56:09Z</time>
      </trkpt>
      <trkpt lat="45.6482" lon="4.43006">
        <ele>680.27</ele>
        <time>2021-06-03T09:56:17Z</time>
      </trkpt>
      <trkpt lat="45.64824" lon="4.43">
        <ele>680.75</ele>
        <time>2021-06-03T09:56:24Z</time>
      </trkpt>
      <trkpt lat="45.64827" lon="4.42991">
        <ele>681.71</ele>
        <time>2021-06-03T09:56:32Z</time>
      </trkpt>
      <trkpt lat="45.6483" lon="4.42985">
        <ele>682.19</ele>
        <time>2021-06-03T09:56:39Z</time>
      </trkpt>
      <trkpt lat="45.64834" lon="4.4298">
        <ele>683.15</ele>
        <time>2021-06-03T09:56:45Z</time>
      </trkpt>
      <trkpt lat="45.64835" lon="4.42983">
        <ele>683.15</ele>
        <time>2021-06-03T09:56:56Z</time>
      </trkpt>
      <trkpt lat="45.64837" lon="4.42983">
        <ele>683.15</ele>
        <time>2021-06-03T09:57:09Z</time>
      </trkpt>
      <trkpt lat="45.64841" lon="4.42982">
        <ele>683.15</ele>
        <time>2021-06-03T09:57:17Z</time>
      </trkpt>
      <trkpt lat="45.6484" lon="4.42981">
        <ele>683.15</ele>
        <time>2021-06-03T09:57:32Z</time>
      </trkpt>
      <trkpt lat="45.6484" lon="4.4298">
        <ele>683.15</ele>
        <time>2021-06-03T09:57:46Z</time>
      </trkpt>
      <trkpt lat="45.64845" lon="4.4298">
        <ele>683.15</ele>
        <time>2021-06-03T09:57:58Z</time>
      </trkpt>
      <trkpt lat="45.64853" lon="4.42982">
        <ele>683.15</ele>
        <time>2021-06-03T09:58:06Z</time>
      </trkpt>
      <trkpt lat="45.64853" lon="4.42982">
        <ele>683.15</ele>
        <time>2021-06-03T09:58:15Z</time>
      </trkpt>
      <trkpt lat="45.64851" lon="4.42982">
        <ele>683.15</ele>
        <time>2021-06-03T09:58:29Z</time>
      </trkpt>
      <trkpt lat="45.64852" lon="4.42981">
        <ele>683.15</ele>
        <time>2021-06-03T09:58:37Z</time>
      </trkpt>
      <trkpt lat="45.64857" lon="4.4298">
        <ele>683.15</ele>
        <time>2021-06-03T09:58:44Z</time>
      </trkpt>
      <trkpt lat="45.64863" lon="4.42982">
        <ele>683.15</ele>
        <time>2021-06-03T09:58:50Z</time>
      </trkpt>
      <trkpt lat="45.64869" lon="4.42983">
        <ele>683.63</ele>
        <time>2021-06-03T09:58:57Z</time>
      </trkpt>
      <trkpt lat="45.64873" lon="4.42985">
        <ele>684.12</ele>
        <time>2021-06-03T09:59:02Z</time>
      </trkpt>
      <trkpt lat="45.64881" lon="4.42988">
        <ele>684.12</ele>
        <time>2021-06-03T09:59:10Z</time>
      </trkpt>
      <trkpt lat="45.64888" lon="4.42992">
        <ele>684.6</ele>
        <time>2021-06-03T09:59:18Z</time>
      </trkpt>
      <trkpt lat="45.64896" lon="4.42995">
        <ele>685.08</ele>
        <time>2021-06-03T09:59:26Z</time>
      </trkpt>
      <trkpt lat="45.64903" lon="4.42998">
        <ele>686.04</ele>
        <time>2021-06-03T09:59:34Z</time>
      </trkpt>
      <trkpt lat="45.64913" lon="4.43003">
        <ele>686.52</ele>
        <time>2021-06-03T09:59:43Z</time>
      </trkpt>
      <trkpt lat="45.64921" lon="4.43008">
        <ele>686.52</ele>
        <time>2021-06-03T09:59:52Z</time>
      </trkpt>
      <trkpt lat="45.64923" lon="4.4301">
        <ele>686.52</ele>
        <time>2021-06-03T10:00:00Z</time>
      </trkpt>
      <trkpt lat="45.64923" lon="4.4301">
        <ele>686.52</ele>
        <time>2021-06-03T10:00:13Z</time>
      </trkpt>
      <trkpt lat="45.64923" lon="4.43011">
        <ele>686.52</ele>
        <time>2021-06-03T10:00:22Z</time>
      </trkpt>
      <trkpt lat="45.64924" lon="4.4301">
        <ele>686.52</ele>
        <time>2021-06-03T10:00:37Z</time>
      </trkpt>
      <trkpt lat="45.64929" lon="4.43013">
        <ele>686.52</ele>
        <time>2021-06-03T10:00:44Z</time>
      </trkpt>
      <trkpt lat="45.64937" lon="4.43018">
        <ele>686.52</ele>
        <time>2021-06-03T10:00:52Z</time>
      </trkpt>
      <trkpt lat="45.64946" lon="4.43024">
        <ele>686.52</ele>
        <time>2021-06-03T10:01:00Z</time>
      </trkpt>
      <trkpt lat="45.64948" lon="4.43025">
        <ele>686.52</ele>
        <time>2021-06-03T10:01:03Z</time>
      </trkpt>
      <trkpt lat="45.64954" lon="4.43028">
        <ele>686.52</ele>
        <time>2021-06-03T10:01:10Z</time>
      </trkpt>
      <trkpt lat="45.64959" lon="4.43032">
        <ele>686.52</ele>
        <time>2021-06-03T10:01:17Z</time>
      </trkpt>
      <trkpt lat="45.64961" lon="4.43033">
        <ele>686.52</ele>
        <time>2021-06-03T10:01:20Z</time>
      </trkpt>
      <trkpt lat="45.64971" lon="4.43038">
        <ele>686.52</ele>
        <time>2021-06-03T10:01:29Z</time>
      </trkpt>
      <trkpt lat="45.64978" lon="4.43042">
        <ele>686.52</ele>
        <time>2021-06-03T10:01:36Z</time>
      </trkpt>
      <trkpt lat="45.64986" lon="4.43047">
        <ele>686.52</ele>
        <time>2021-06-03T10:01:43Z</time>
      </trkpt>
      <trkpt lat="45.64991" lon="4.4305">
        <ele>685.56</ele>
        <time>2021-06-03T10:01:49Z</time>
      </trkpt>
      <trkpt lat="45.64999" lon="4.43055">
        <ele>685.08</ele>
        <time>2021-06-03T10:01:57Z</time>
      </trkpt>
      <trkpt lat="45.65" lon="4.43055">
        <ele>685.08</ele>
        <time>2021-06-03T10:01:58Z</time>
      </trkpt>
      <trkpt lat="45.65002" lon="4.43056">
        <ele>685.08</ele>
        <time>2021-06-03T10:02:00Z</time>
      </trkpt>
      <trkpt lat="45.65009" lon="4.43061">
        <ele>684.6</ele>
        <time>2021-06-03T10:02:08Z</time>
      </trkpt>
      <trkpt lat="45.65018" lon="4.43067">
        <ele>684.6</ele>
        <time>2021-06-03T10:02:16Z</time>
      </trkpt>
      <trkpt lat="45.65026" lon="4.43072">
        <ele>684.6</ele>
        <time>2021-06-03T10:02:24Z</time>
      </trkpt>
      <trkpt lat="45.65033" lon="4.43079">
        <ele>684.6</ele>
        <time>2021-06-03T10:02:31Z</time>
      </trkpt>
      <trkpt lat="45.65038" lon="4.43086">
        <ele>684.6</ele>
        <time>2021-06-03T10:02:37Z</time>
      </trkpt>
      <trkpt lat="45.65041" lon="4.4309">
        <ele>684.6</ele>
        <time>2021-06-03T10:02:41Z</time>
      </trkpt>
      <trkpt lat="45.65049" lon="4.43098">
        <ele>684.6</ele>
        <time>2021-06-03T10:02:49Z</time>
      </trkpt>
      <trkpt lat="45.65055" lon="4.43106">
        <ele>684.6</ele>
        <time>2021-06-03T10:02:57Z</time>
      </trkpt>
      <trkpt lat="45.65062" lon="4.43113">
        <ele>684.6</ele>
        <time>2021-06-03T10:03:04Z</time>
      </trkpt>
      <trkpt lat="45.65069" lon="4.4312">
        <ele>684.12</ele>
        <time>2021-06-03T10:03:12Z</time>
      </trkpt>
      <trkpt lat="45.65076" lon="4.43127">
        <ele>684.12</ele>
        <time>2021-06-03T10:03:20Z</time>
      </trkpt>
      <trkpt lat="45.6508" lon="4.43134">
        <ele>684.12</ele>
        <time>2021-06-03T10:03:26Z</time>
      </trkpt>
      <trkpt lat="45.65086" lon="4.43146">
        <ele>684.12</ele>
        <time>2021-06-03T10:03:35Z</time>
      </trkpt>
      <trkpt lat="45.65088" lon="4.43153">
        <ele>684.12</ele>
        <time>2021-06-03T10:03:40Z</time>
      </trkpt>
      <trkpt lat="45.65089" lon="4.43165">
        <ele>684.12</ele>
        <time>2021-06-03T10:03:48Z</time>
      </trkpt>
      <trkpt lat="45.65089" lon="4.43171">
        <ele>684.12</ele>
        <time>2021-06-03T10:03:52Z</time>
      </trkpt>
      <trkpt lat="45.65088" lon="4.43182">
        <ele>686.04</ele>
        <time>2021-06-03T10:03:59Z</time>
      </trkpt>
      <trkpt lat="45.65087" lon="4.43193">
        <ele>686.52</ele>
        <time>2021-06-03T10:04:07Z</time>
      </trkpt>
      <trkpt lat="45.65086" lon="4.43195">
        <ele>686.52</ele>
        <time>2021-06-03T10:04:09Z</time>
      </trkpt>
      <trkpt lat="45.65085" lon="4.432">
        <ele>686.52</ele>
        <time>2021-06-03T10:04:13Z</time>
      </trkpt>
      <trkpt lat="45.65085" lon="4.43211">
        <ele>687.48</ele>
        <time>2021-06-03T10:04:21Z</time>
      </trkpt>
      <trkpt lat="45.65086" lon="4.43219">
        <ele>688.44</ele>
        <time>2021-06-03T10:04:27Z</time>
      </trkpt>
      <trkpt lat="45.65085" lon="4.43225">
        <ele>688.92</ele>
        <time>2021-06-03T10:04:34Z</time>
      </trkpt>
      <trkpt lat="45.65085" lon="4.4323">
        <ele>689.4</ele>
        <time>2021-06-03T10:04:42Z</time>
      </trkpt>
      <trkpt lat="45.65084" lon="4.43238">
        <ele>690.84</ele>
        <time>2021-06-03T10:04:50Z</time>
      </trkpt>
      <trkpt lat="45.65083" lon="4.43245">
        <ele>691.81</ele>
        <time>2021-06-03T10:04:57Z</time>
      </trkpt>
      <trkpt lat="45.65082" lon="4.43252">
        <ele>692.77</ele>
        <time>2021-06-03T10:05:03Z</time>
      </trkpt>
      <trkpt lat="45.65082" lon="4.43259">
        <ele>694.21</ele>
        <time>2021-06-03T10:05:10Z</time>
      </trkpt>
      <trkpt lat="45.65083" lon="4.43265">
        <ele>695.17</ele>
        <time>2021-06-03T10:05:18Z</time>
      </trkpt>
      <trkpt lat="45.65082" lon="4.4327">
        <ele>695.65</ele>
        <time>2021-06-03T10:05:25Z</time>
      </trkpt>
      <trkpt lat="45.65079" lon="4.43273">
        <ele>696.13</ele>
        <time>2021-06-03T10:05:34Z</time>
      </trkpt>
      <trkpt lat="45.65077" lon="4.43273">
        <ele>696.61</ele>
        <time>2021-06-03T10:05:41Z</time>
      </trkpt>
      <trkpt lat="45.65077" lon="4.4327">
        <ele>698.05</ele>
        <time>2021-06-03T10:05:52Z</time>
      </trkpt>
      <trkpt lat="45.65077" lon="4.43271">
        <ele>696.61</ele>
        <time>2021-06-03T10:06:02Z</time>
      </trkpt>
      <trkpt lat="45.65076" lon="4.43273">
        <ele>696.61</ele>
        <time>2021-06-03T10:06:15Z</time>
      </trkpt>
      <trkpt lat="45.65075" lon="4.43273">
        <ele>696.61</ele>
        <time>2021-06-03T10:06:27Z</time>
      </trkpt>
      <trkpt lat="45.65077" lon="4.43273">
        <ele>696.61</ele>
        <time>2021-06-03T10:06:43Z</time>
      </trkpt>
      <trkpt lat="45.65074" lon="4.43274">
        <ele>696.61</ele>
        <time>2021-06-03T10:06:58Z</time>
      </trkpt>
      <trkpt lat="45.65066" lon="4.4328">
        <ele>699.02</ele>
        <time>2021-06-03T10:07:09Z</time>
      </trkpt>
      <trkpt lat="45.65058" lon="4.43286">
        <ele>699.5</ele>
        <time>2021-06-03T10:07:18Z</time>
      </trkpt>
      <trkpt lat="45.65051" lon="4.43292">
        <ele>700.46</ele>
        <time>2021-06-03T10:07:26Z</time>
      </trkpt>
      <trkpt lat="45.65049" lon="4.43294">
        <ele>700.94</ele>
        <time>2021-06-03T10:07:29Z</time>
      </trkpt>
      <trkpt lat="45.65045" lon="4.43296">
        <ele>700.94</ele>
        <time>2021-06-03T10:07:36Z</time>
      </trkpt>
      <trkpt lat="45.65043" lon="4.43299">
        <ele>701.42</ele>
        <time>2021-06-03T10:07:43Z</time>
      </trkpt>
      <trkpt lat="45.65038" lon="4.43303">
        <ele>702.38</ele>
        <time>2021-06-03T10:07:50Z</time>
      </trkpt>
      <trkpt lat="45.65037" lon="4.43304">
        <ele>702.38</ele>
        <time>2021-06-03T10:07:51Z</time>
      </trkpt>
      <trkpt lat="45.65033" lon="4.43307">
        <ele>702.86</ele>
        <time>2021-06-03T10:07:58Z</time>
      </trkpt>
      <trkpt lat="45.65029" lon="4.43309">
        <ele>703.34</ele>
        <time>2021-06-03T10:08:04Z</time>
      </trkpt>
      <trkpt lat="45.65023" lon="4.43314">
        <ele>704.78</ele>
        <time>2021-06-03T10:08:13Z</time>
      </trkpt>
      <trkpt lat="45.65019" lon="4.4332">
        <ele>705.75</ele>
        <time>2021-06-03T10:08:22Z</time>
      </trkpt>
      <trkpt lat="45.65012" lon="4.43327">
        <ele>706.23</ele>
        <time>2021-06-03T10:08:32Z</time>
      </trkpt>
      <trkpt lat="45.65007" lon="4.43333">
        <ele>706.71</ele>
        <time>2021-06-03T10:08:39Z</time>
      </trkpt>
      <trkpt lat="45.65003" lon="4.43345">
        <ele>708.15</ele>
        <time>2021-06-03T10:08:50Z</time>
      </trkpt>
      <trkpt lat="45.65002" lon="4.43352">
        <ele>708.15</ele>
        <time>2021-06-03T10:09:00Z</time>
      </trkpt>
      <trkpt lat="45.65" lon="4.43363">
        <ele>708.15</ele>
        <time>2021-06-03T10:09:10Z</time>
      </trkpt>
      <trkpt lat="45.64999" lon="4.43366">
        <ele>709.59</ele>
        <time>2021-06-03T10:09:13Z</time>
      </trkpt>
      <trkpt lat="45.64998" lon="4.43367">
        <ele>709.59</ele>
        <time>2021-06-03T10:09:26Z</time>
      </trkpt>
      <trkpt lat="45.65" lon="4.4337">
        <ele>709.59</ele>
        <time>2021-06-03T10:09:39Z</time>
      </trkpt>
      <trkpt lat="45.65004" lon="4.43375">
        <ele>711.51</ele>
        <time>2021-06-03T10:09:50Z</time>
      </trkpt>
      <trkpt lat="45.65009" lon="4.43378">
        <ele>711.51</ele>
        <time>2021-06-03T10:09:56Z</time>
      </trkpt>
      <trkpt lat="45.65021" lon="4.43384">
        <ele>712.47</ele>
        <time>2021-06-03T10:10:08Z</time>
      </trkpt>
      <trkpt lat="45.65025" lon="4.43394">
        <ele>713.92</ele>
        <time>2021-06-03T10:10:19Z</time>
      </trkpt>
      <trkpt lat="45.65036" lon="4.43397">
        <ele>714.88</ele>
        <time>2021-06-03T10:10:31Z</time>
      </trkpt>
      <trkpt lat="45.65046" lon="4.43401">
        <ele>716.8</ele>
        <time>2021-06-03T10:10:42Z</time>
      </trkpt>
      <trkpt lat="45.65049" lon="4.434">
        <ele>716.8</ele>
        <time>2021-06-03T10:10:53Z</time>
      </trkpt>
      <trkpt lat="45.65051" lon="4.43402">
        <ele>716.8</ele>
        <time>2021-06-03T10:11:08Z</time>
      </trkpt>
      <trkpt lat="45.65052" lon="4.43399">
        <ele>716.8</ele>
        <time>2021-06-03T10:11:23Z</time>
      </trkpt>
      <trkpt lat="45.65053" lon="4.43401">
        <ele>718.24</ele>
        <time>2021-06-03T10:11:27Z</time>
      </trkpt>
      <trkpt lat="45.65054" lon="4.43402">
        <ele>716.8</ele>
        <time>2021-06-03T10:11:29Z</time>
      </trkpt>
      <trkpt lat="45.65055" lon="4.43413">
        <ele>719.2</ele>
        <time>2021-06-03T10:11:39Z</time>
      </trkpt>
      <trkpt lat="45.6505" lon="4.43424">
        <ele>720.16</ele>
        <time>2021-06-03T10:11:51Z</time>
      </trkpt>
      <trkpt lat="45.65048" lon="4.43436">
        <ele>721.61</ele>
        <time>2021-06-03T10:12:02Z</time>
      </trkpt>
      <trkpt lat="45.65047" lon="4.43443">
        <ele>722.57</ele>
        <time>2021-06-03T10:12:11Z</time>
      </trkpt>
      <trkpt lat="45.65049" lon="4.43452">
        <ele>724.01</ele>
        <time>2021-06-03T10:12:24Z</time>
      </trkpt>
      <trkpt lat="45.65055" lon="4.43464">
        <ele>722.57</ele>
        <time>2021-06-03T10:12:35Z</time>
      </trkpt>
      <trkpt lat="45.65059" lon="4.43472">
        <ele>725.45</ele>
        <time>2021-06-03T10:12:45Z</time>
      </trkpt>
      <trkpt lat="45.65062" lon="4.4348">
        <ele>725.45</ele>
        <time>2021-06-03T10:12:57Z</time>
      </trkpt>
      <trkpt lat="45.65064" lon="4.43482">
        <ele>725.45</ele>
        <time>2021-06-03T10:13:10Z</time>
      </trkpt>
      <trkpt lat="45.65066" lon="4.43483">
        <ele>725.45</ele>
        <time>2021-06-03T10:13:27Z</time>
      </trkpt>
      <trkpt lat="45.65063" lon="4.43483">
        <ele>725.45</ele>
        <time>2021-06-03T10:13:41Z</time>
      </trkpt>
      <trkpt lat="45.65061" lon="4.43484">
        <ele>725.45</ele>
        <time>2021-06-03T10:14:03Z</time>
      </trkpt>
      <trkpt lat="45.65061" lon="4.43484">
        <ele>725.45</ele>
        <time>2021-06-03T10:14:18Z</time>
      </trkpt>
      <trkpt lat="45.65061" lon="4.43482">
        <ele>725.45</ele>
        <time>2021-06-03T10:14:37Z</time>
      </trkpt>
      <trkpt lat="45.65066" lon="4.43489">
        <ele>724.97</ele>
        <time>2021-06-03T10:14:48Z</time>
      </trkpt>
      <trkpt lat="45.65066" lon="4.43489">
        <ele>724.97</ele>
        <time>2021-06-03T10:14:49Z</time>
      </trkpt>
      <trkpt lat="45.65066" lon="4.43489">
        <ele>724.97</ele>
        <time>2021-06-03T10:15:00Z</time>
      </trkpt>
      <trkpt lat="45.65065" lon="4.43491">
        <ele>726.41</ele>
        <time>2021-06-03T10:15:07Z</time>
      </trkpt>
      <trkpt lat="45.6507" lon="4.43506">
        <ele>726.89</ele>
        <time>2021-06-03T10:15:20Z</time>
      </trkpt>
      <trkpt lat="45.65072" lon="4.43511">
        <ele>726.89</ele>
        <time>2021-06-03T10:15:29Z</time>
      </trkpt>
      <trkpt lat="45.65073" lon="4.43518">
        <ele>728.34</ele>
        <time>2021-06-03T10:15:48Z</time>
      </trkpt>
      <trkpt lat="45.65073" lon="4.43519">
        <ele>728.34</ele>
        <time>2021-06-03T10:15:57Z</time>
      </trkpt>
      <trkpt lat="45.65073" lon="4.43521">
        <ele>728.34</ele>
        <time>2021-06-03T10:16:08Z</time>
      </trkpt>
      <trkpt lat="45.65074" lon="4.43522">
        <ele>726.89</ele>
        <time>2021-06-03T10:16:10Z</time>
      </trkpt>
      <trkpt lat="45.65077" lon="4.43534">
        <ele>727.86</ele>
        <time>2021-06-03T10:16:21Z</time>
      </trkpt>
      <trkpt lat="45.65078" lon="4.43547">
        <ele>727.37</ele>
        <time>2021-06-03T10:16:32Z</time>
      </trkpt>
      <trkpt lat="45.65082" lon="4.43563">
        <ele>728.82</ele>
        <time>2021-06-03T10:16:45Z</time>
      </trkpt>
      <trkpt lat="45.65085" lon="4.43579">
        <ele>728.82</ele>
        <time>2021-06-03T10:16:56Z</time>
      </trkpt>
      <trkpt lat="45.65091" lon="4.43598">
        <ele>729.78</ele>
        <time>2021-06-03T10:17:10Z</time>
      </trkpt>
      <trkpt lat="45.65094" lon="4.43608">
        <ele>729.78</ele>
        <time>2021-06-03T10:17:18Z</time>
      </trkpt>
      <trkpt lat="45.65101" lon="4.43621">
        <ele>730.74</ele>
        <time>2021-06-03T10:17:28Z</time>
      </trkpt>
      <trkpt lat="45.65106" lon="4.43632">
        <ele>731.7</ele>
        <time>2021-06-03T10:17:38Z</time>
      </trkpt>
      <trkpt lat="45.65113" lon="4.43647">
        <ele>732.66</ele>
        <time>2021-06-03T10:17:51Z</time>
      </trkpt>
      <trkpt lat="45.65124" lon="4.43661">
        <ele>733.62</ele>
        <time>2021-06-03T10:18:04Z</time>
      </trkpt>
      <trkpt lat="45.65129" lon="4.43676">
        <ele>733.14</ele>
        <time>2021-06-03T10:18:15Z</time>
      </trkpt>
      <trkpt lat="45.65131" lon="4.43693">
        <ele>731.7</ele>
        <time>2021-06-03T10:18:24Z</time>
      </trkpt>
      <trkpt lat="45.65133" lon="4.43708">
        <ele>730.26</ele>
        <time>2021-06-03T10:18:34Z</time>
      </trkpt>
      <trkpt lat="45.6514" lon="4.43716">
        <ele>730.26</ele>
        <time>2021-06-03T10:18:44Z</time>
      </trkpt>
      <trkpt lat="45.65139" lon="4.43715">
        <ele>730.26</ele>
        <time>2021-06-03T10:18:58Z</time>
      </trkpt>
      <trkpt lat="45.65139" lon="4.43716">
        <ele>730.26</ele>
        <time>2021-06-03T10:19:12Z</time>
      </trkpt>
      <trkpt lat="45.65137" lon="4.43717">
        <ele>730.26</ele>
        <time>2021-06-03T10:19:29Z</time>
      </trkpt>
      <trkpt lat="45.6514" lon="4.43713">
        <ele>729.78</ele>
        <time>2021-06-03T10:19:42Z</time>
      </trkpt>
      <trkpt lat="45.65141" lon="4.43712">
        <ele>729.78</ele>
        <time>2021-06-03T10:19:54Z</time>
      </trkpt>
      <trkpt lat="45.6515" lon="4.43703">
        <ele>731.22</ele>
        <time>2021-06-03T10:20:05Z</time>
      </trkpt>
      <trkpt lat="45.65159" lon="4.43693">
        <ele>731.7</ele>
        <time>2021-06-03T10:20:16Z</time>
      </trkpt>
      <trkpt lat="45.65166" lon="4.43687">
        <ele>732.18</ele>
        <time>2021-06-03T10:20:27Z</time>
      </trkpt>
      <trkpt lat="45.65178" lon="4.43685">
        <ele>731.7</ele>
        <time>2021-06-03T10:20:38Z</time>
      </trkpt>
      <trkpt lat="45.65187" lon="4.43683">
        <ele>732.18</ele>
        <time>2021-06-03T10:20:49Z</time>
      </trkpt>
      <trkpt lat="45.65202" lon="4.43683">
        <ele>730.74</ele>
        <time>2021-06-03T10:20:59Z</time>
      </trkpt>
      <trkpt lat="45.65212" lon="4.43683">
        <ele>729.78</ele>
        <time>2021-06-03T10:21:09Z</time>
      </trkpt>
      <trkpt lat="45.65225" lon="4.43685">
        <ele>728.82</ele>
        <time>2021-06-03T10:21:21Z</time>
      </trkpt>
      <trkpt lat="45.65238" lon="4.43688">
        <ele>727.86</ele>
        <time>2021-06-03T10:21:33Z</time>
      </trkpt>
      <trkpt lat="45.65249" lon="4.43694">
        <ele>726.41</ele>
        <time>2021-06-03T10:21:44Z</time>
      </trkpt>
      <trkpt lat="45.65261" lon="4.43697">
        <ele>725.45</ele>
        <time>2021-06-03T10:21:55Z</time>
      </trkpt>
      <trkpt lat="45.65275" lon="4.43703">
        <ele>723.53</ele>
        <time>2021-06-03T10:22:08Z</time>
      </trkpt>
      <trkpt lat="45.65284" lon="4.4371">
        <ele>722.57</ele>
        <time>2021-06-03T10:22:21Z</time>
      </trkpt>
      <trkpt lat="45.65296" lon="4.43715">
        <ele>721.13</ele>
        <time>2021-06-03T10:22:33Z</time>
      </trkpt>
      <trkpt lat="45.65308" lon="4.43724">
        <ele>720.65</ele>
        <time>2021-06-03T10:22:48Z</time>
      </trkpt>
      <trkpt lat="45.65321" lon="4.43736">
        <ele>719.68</ele>
        <time>2021-06-03T10:23:03Z</time>
      </trkpt>
      <trkpt lat="45.65327" lon="4.43744">
        <ele>719.68</ele>
        <time>2021-06-03T10:23:13Z</time>
      </trkpt>
      <trkpt lat="45.65337" lon="4.43754">
        <ele>719.68</ele>
        <time>2021-06-03T10:23:23Z</time>
      </trkpt>
      <trkpt lat="45.65349" lon="4.43767">
        <ele>719.2</ele>
        <time>2021-06-03T10:23:38Z</time>
      </trkpt>
      <trkpt lat="45.65354" lon="4.4377">
        <ele>720.16</ele>
        <time>2021-06-03T10:23:52Z</time>
      </trkpt>
      <trkpt lat="45.65364" lon="4.43774">
        <ele>718.72</ele>
        <time>2021-06-03T10:24:03Z</time>
      </trkpt>
      <trkpt lat="45.65377" lon="4.43785">
        <ele>718.72</ele>
        <time>2021-06-03T10:24:13Z</time>
      </trkpt>
      <trkpt lat="45.65389" lon="4.4379">
        <ele>718.24</ele>
        <time>2021-06-03T10:24:24Z</time>
      </trkpt>
      <trkpt lat="45.65401" lon="4.43806">
        <ele>718.24</ele>
        <time>2021-06-03T10:24:37Z</time>
      </trkpt>
      <trkpt lat="45.6541" lon="4.43813">
        <ele>717.76</ele>
        <time>2021-06-03T10:24:48Z</time>
      </trkpt>
      <trkpt lat="45.65418" lon="4.43821">
        <ele>717.28</ele>
        <time>2021-06-03T10:25:00Z</time>
      </trkpt>
      <trkpt lat="45.65427" lon="4.43829">
        <ele>717.28</ele>
        <time>2021-06-03T10:25:11Z</time>
      </trkpt>
      <trkpt lat="45.65438" lon="4.43834">
        <ele>716.8</ele>
        <time>2021-06-03T10:25:22Z</time>
      </trkpt>
      <trkpt lat="45.65451" lon="4.43843">
        <ele>716.8</ele>
        <time>2021-06-03T10:25:34Z</time>
      </trkpt>
      <trkpt lat="45.65462" lon="4.43853">
        <ele>716.32</ele>
        <time>2021-06-03T10:25:45Z</time>
      </trkpt>
      <trkpt lat="45.65474" lon="4.43861">
        <ele>715.36</ele>
        <time>2021-06-03T10:25:59Z</time>
      </trkpt>
      <trkpt lat="45.6548" lon="4.43872">
        <ele>714.88</ele>
        <time>2021-06-03T10:26:09Z</time>
      </trkpt>
      <trkpt lat="45.65488" lon="4.43882">
        <ele>714.4</ele>
        <time>2021-06-03T10:26:23Z</time>
      </trkpt>
      <trkpt lat="45.65498" lon="4.43889">
        <ele>713.44</ele>
        <time>2021-06-03T10:26:35Z</time>
      </trkpt>
      <trkpt lat="45.65508" lon="4.43905">
        <ele>712.47</ele>
        <time>2021-06-03T10:26:50Z</time>
      </trkpt>
      <trkpt lat="45.65515" lon="4.43915">
        <ele>711.99</ele>
        <time>2021-06-03T10:27:00Z</time>
      </trkpt>
      <trkpt lat="45.6552" lon="4.43931">
        <ele>711.03</ele>
        <time>2021-06-03T10:27:12Z</time>
      </trkpt>
      <trkpt lat="45.65527" lon="4.43947">
        <ele>710.55</ele>
        <time>2021-06-03T10:27:24Z</time>
      </trkpt>
      <trkpt lat="45.65531" lon="4.43964">
        <ele>709.59</ele>
        <time>2021-06-03T10:27:35Z</time>
      </trkpt>
      <trkpt lat="45.65531" lon="4.43974">
        <ele>709.11</ele>
        <time>2021-06-03T10:27:46Z</time>
      </trkpt>
      <trkpt lat="45.65538" lon="4.43982">
        <ele>708.15</ele>
        <time>2021-06-03T10:27:56Z</time>
      </trkpt>
      <trkpt lat="45.65552" lon="4.43998">
        <ele>707.67</ele>
        <time>2021-06-03T10:28:10Z</time>
      </trkpt>
      <trkpt lat="45.65557" lon="4.44007">
        <ele>707.67</ele>
        <time>2021-06-03T10:28:20Z</time>
      </trkpt>
      <trkpt lat="45.65563" lon="4.44021">
        <ele>707.67</ele>
        <time>2021-06-03T10:28:33Z</time>
      </trkpt>
      <trkpt lat="45.65567" lon="4.44025">
        <ele>708.63</ele>
        <time>2021-06-03T10:28:41Z</time>
      </trkpt>
      <trkpt lat="45.65574" lon="4.44038">
        <ele>708.63</ele>
        <time>2021-06-03T10:28:50Z</time>
      </trkpt>
      <trkpt lat="45.65582" lon="4.44052">
        <ele>709.59</ele>
        <time>2021-06-03T10:29:01Z</time>
      </trkpt>
      <trkpt lat="45.65588" lon="4.44059">
        <ele>710.07</ele>
        <time>2021-06-03T10:29:11Z</time>
      </trkpt>
      <trkpt lat="45.65598" lon="4.44062">
        <ele>710.07</ele>
        <time>2021-06-03T10:29:19Z</time>
      </trkpt>
      <trkpt lat="45.65609" lon="4.44068">
        <ele>710.07</ele>
        <time>2021-06-03T10:29:30Z</time>
      </trkpt>
      <trkpt lat="45.65613" lon="4.4407">
        <ele>710.07</ele>
        <time>2021-06-03T10:29:34Z</time>
      </trkpt>
      <trkpt lat="45.65624" lon="4.44075">
        <ele>710.07</ele>
        <time>2021-06-03T10:29:45Z</time>
      </trkpt>
      <trkpt lat="45.6563" lon="4.4408">
        <ele>710.07</ele>
        <time>2021-06-03T10:29:56Z</time>
      </trkpt>
      <trkpt lat="45.65634" lon="4.44085">
        <ele>710.07</ele>
        <time>2021-06-03T10:30:13Z</time>
      </trkpt>
      <trkpt lat="45.65636" lon="4.44087">
        <ele>710.55</ele>
        <time>2021-06-03T10:30:26Z</time>
      </trkpt>
      <trkpt lat="45.6564" lon="4.44089">
        <ele>711.03</ele>
        <time>2021-06-03T10:30:33Z</time>
      </trkpt>
      <trkpt lat="45.65642" lon="4.44092">
        <ele>711.03</ele>
        <time>2021-06-03T10:30:44Z</time>
      </trkpt>
      <trkpt lat="45.6564" lon="4.44091">
        <ele>711.03</ele>
        <time>2021-06-03T10:30:54Z</time>
      </trkpt>
      <trkpt lat="45.65639" lon="4.44088">
        <ele>711.03</ele>
        <time>2021-06-03T10:31:06Z</time>
      </trkpt>
      <trkpt lat="45.65642" lon="4.44087">
        <ele>711.03</ele>
        <time>2021-06-03T10:31:18Z</time>
      </trkpt>
      <trkpt lat="45.65642" lon="4.44086">
        <ele>711.03</ele>
        <time>2021-06-03T10:31:29Z</time>
      </trkpt>
      <trkpt lat="45.65642" lon="4.44087">
        <ele>711.51</ele>
        <time>2021-06-03T10:31:39Z</time>
      </trkpt>
      <trkpt lat="45.65644" lon="4.44087">
        <ele>711.51</ele>
        <time>2021-06-03T10:31:47Z</time>
      </trkpt>
      <trkpt lat="45.65648" lon="4.44092">
        <ele>710.07</ele>
        <time>2021-06-03T10:31:54Z</time>
      </trkpt>
      <trkpt lat="45.65656" lon="4.44106">
        <ele>709.11</ele>
        <time>2021-06-03T10:32:06Z</time>
      </trkpt>
      <trkpt lat="45.65664" lon="4.44119">
        <ele>707.67</ele>
        <time>2021-06-03T10:32:19Z</time>
      </trkpt>
      <trkpt lat="45.65666" lon="4.44132">
        <ele>706.71</ele>
        <time>2021-06-03T10:32:31Z</time>
      </trkpt>
      <trkpt lat="45.65666" lon="4.44142">
        <ele>705.75</ele>
        <time>2021-06-03T10:32:44Z</time>
      </trkpt>
      <trkpt lat="45.6567" lon="4.44147">
        <ele>704.3</ele>
        <time>2021-06-03T10:32:59Z</time>
      </trkpt>
      <trkpt lat="45.65677" lon="4.44158">
        <ele>702.38</ele>
        <time>2021-06-03T10:33:11Z</time>
      </trkpt>
      <trkpt lat="45.65683" lon="4.44166">
        <ele>700.94</ele>
        <time>2021-06-03T10:33:24Z</time>
      </trkpt>
      <trkpt lat="45.65691" lon="4.44171">
        <ele>699.5</ele>
        <time>2021-06-03T10:33:37Z</time>
      </trkpt>
      <trkpt lat="45.65702" lon="4.44169">
        <ele>697.57</ele>
        <time>2021-06-03T10:33:51Z</time>
      </trkpt>
      <trkpt lat="45.65713" lon="4.44164">
        <ele>696.61</ele>
        <time>2021-06-03T10:34:02Z</time>
      </trkpt>
      <trkpt lat="45.65724" lon="4.44159">
        <ele>695.17</ele>
        <time>2021-06-03T10:34:14Z</time>
      </trkpt>
      <trkpt lat="45.6573" lon="4.44159">
        <ele>696.13</ele>
        <time>2021-06-03T10:34:20Z</time>
      </trkpt>
      <trkpt lat="45.65735" lon="4.4416">
        <ele>694.69</ele>
        <time>2021-06-03T10:34:24Z</time>
      </trkpt>
      <trkpt lat="45.65748" lon="4.44162">
        <ele>693.73</ele>
        <time>2021-06-03T10:34:37Z</time>
      </trkpt>
      <trkpt lat="45.65753" lon="4.44165">
        <ele>691.81</ele>
        <time>2021-06-03T10:34:50Z</time>
      </trkpt>
      <trkpt lat="45.65767" lon="4.4417">
        <ele>691.33</ele>
        <time>2021-06-03T10:35:02Z</time>
      </trkpt>
      <trkpt lat="45.6578" lon="4.4417">
        <ele>689.88</ele>
        <time>2021-06-03T10:35:15Z</time>
      </trkpt>
      <trkpt lat="45.65789" lon="4.44167">
        <ele>688.92</ele>
        <time>2021-06-03T10:35:30Z</time>
      </trkpt>
      <trkpt lat="45.65792" lon="4.44169">
        <ele>687.96</ele>
        <time>2021-06-03T10:35:42Z</time>
      </trkpt>
      <trkpt lat="45.65802" lon="4.44166">
        <ele>687.96</ele>
        <time>2021-06-03T10:35:54Z</time>
      </trkpt>
      <trkpt lat="45.65805" lon="4.44165">
        <ele>686.52</ele>
        <time>2021-06-03T10:35:58Z</time>
      </trkpt>
      <trkpt lat="45.65816" lon="4.44168">
        <ele>685.56</ele>
        <time>2021-06-03T10:36:09Z</time>
      </trkpt>
      <trkpt lat="45.65827" lon="4.44171">
        <ele>684.12</ele>
        <time>2021-06-03T10:36:20Z</time>
      </trkpt>
      <trkpt lat="45.65832" lon="4.44177">
        <ele>684.12</ele>
        <time>2021-06-03T10:36:32Z</time>
      </trkpt>
      <trkpt lat="45.65841" lon="4.44185">
        <ele>682.67</ele>
        <time>2021-06-03T10:36:43Z</time>
      </trkpt>
      <trkpt lat="45.65851" lon="4.44194">
        <ele>682.19</ele>
        <time>2021-06-03T10:36:54Z</time>
      </trkpt>
      <trkpt lat="45.65859" lon="4.44211">
        <ele>681.23</ele>
        <time>2021-06-03T10:37:05Z</time>
      </trkpt>
      <trkpt lat="45.65863" lon="4.44221">
        <ele>680.75</ele>
        <time>2021-06-03T10:37:14Z</time>
      </trkpt>
      <trkpt lat="45.65869" lon="4.44235">
        <ele>680.75</ele>
        <time>2021-06-03T10:37:26Z</time>
      </trkpt>
      <trkpt lat="45.65879" lon="4.4425">
        <ele>679.31</ele>
        <time>2021-06-03T10:37:38Z</time>
      </trkpt>
      <trkpt lat="45.65882" lon="4.44257">
        <ele>678.35</ele>
        <time>2021-06-03T10:37:50Z</time>
      </trkpt>
      <trkpt lat="45.65886" lon="4.44262">
        <ele>678.35</ele>
        <time>2021-06-03T10:38:01Z</time>
      </trkpt>
      <trkpt lat="45.65895" lon="4.44263">
        <ele>677.39</ele>
        <time>2021-06-03T10:38:13Z</time>
      </trkpt>
      <trkpt lat="45.65907" lon="4.44257">
        <ele>676.42</ele>
        <time>2021-06-03T10:38:26Z</time>
      </trkpt>
      <trkpt lat="45.65911" lon="4.44257">
        <ele>675.94</ele>
        <time>2021-06-03T10:38:36Z</time>
      </trkpt>
      <trkpt lat="45.65922" lon="4.44262">
        <ele>675.46</ele>
        <time>2021-06-03T10:38:46Z</time>
      </trkpt>
      <trkpt lat="45.65938" lon="4.4427">
        <ele>674.5</ele>
        <time>2021-06-03T10:38:59Z</time>
      </trkpt>
      <trkpt lat="45.65946" lon="4.44272">
        <ele>674.98</ele>
        <time>2021-06-03T10:39:08Z</time>
      </trkpt>
      <trkpt lat="45.65958" lon="4.44275">
        <ele>674.5</ele>
        <time>2021-06-03T10:39:20Z</time>
      </trkpt>
      <trkpt lat="45.65965" lon="4.44277">
        <ele>673.06</ele>
        <time>2021-06-03T10:39:28Z</time>
      </trkpt>
      <trkpt lat="45.65975" lon="4.4428">
        <ele>672.58</ele>
        <time>2021-06-03T10:39:37Z</time>
      </trkpt>
      <trkpt lat="45.65995" lon="4.44293">
        <ele>670.18</ele>
        <time>2021-06-03T10:39:50Z</time>
      </trkpt>
      <trkpt lat="45.66014" lon="4.44299">
        <ele>669.22</ele>
        <time>2021-06-03T10:40:03Z</time>
      </trkpt>
      <trkpt lat="45.66025" lon="4.44298">
        <ele>668.73</ele>
        <time>2021-06-03T10:40:13Z</time>
      </trkpt>
      <trkpt lat="45.66034" lon="4.443">
        <ele>668.25</ele>
        <time>2021-06-03T10:40:24Z</time>
      </trkpt>
      <trkpt lat="45.66041" lon="4.44298">
        <ele>667.77</ele>
        <time>2021-06-03T10:40:37Z</time>
      </trkpt>
      <trkpt lat="45.66046" lon="4.44302">
        <ele>667.77</ele>
        <time>2021-06-03T10:40:47Z</time>
      </trkpt>
      <trkpt lat="45.66054" lon="4.44307">
        <ele>667.77</ele>
        <time>2021-06-03T10:40:57Z</time>
      </trkpt>
      <trkpt lat="45.66067" lon="4.44318">
        <ele>669.22</ele>
        <time>2021-06-03T10:41:08Z</time>
      </trkpt>
      <trkpt lat="45.66085" lon="4.44331">
        <ele>669.22</ele>
        <time>2021-06-03T10:41:20Z</time>
      </trkpt>
      <trkpt lat="45.66087" lon="4.44333">
        <ele>669.7</ele>
        <time>2021-06-03T10:41:30Z</time>
      </trkpt>
      <trkpt lat="45.66075" lon="4.44326">
        <ele>669.7</ele>
        <time>2021-06-03T10:41:48Z</time>
      </trkpt>
      <trkpt lat="45.66076" lon="4.44328">
        <ele>670.18</ele>
        <time>2021-06-03T10:41:59Z</time>
      </trkpt>
      <trkpt lat="45.66082" lon="4.44338">
        <ele>670.18</ele>
        <time>2021-06-03T10:42:09Z</time>
      </trkpt>
      <trkpt lat="45.66092" lon="4.44349">
        <ele>670.18</ele>
        <time>2021-06-03T10:42:21Z</time>
      </trkpt>
      <trkpt lat="45.66098" lon="4.44359">
        <ele>670.18</ele>
        <time>2021-06-03T10:42:27Z</time>
      </trkpt>
      <trkpt lat="45.66109" lon="4.44373">
        <ele>670.18</ele>
        <time>2021-06-03T10:42:35Z</time>
      </trkpt>
      <trkpt lat="45.66112" lon="4.44377">
        <ele>670.66</ele>
        <time>2021-06-03T10:42:38Z</time>
      </trkpt>
      <trkpt lat="45.66117" lon="4.44382">
        <ele>670.66</ele>
        <time>2021-06-03T10:42:42Z</time>
      </trkpt>
      <trkpt lat="45.66119" lon="4.44387">
        <ele>671.14</ele>
        <time>2021-06-03T10:42:50Z</time>
      </trkpt>
      <trkpt lat="45.66124" lon="4.44396">
        <ele>671.62</ele>
        <time>2021-06-03T10:42:58Z</time>
      </trkpt>
      <trkpt lat="45.66124" lon="4.44401">
        <ele>671.62</ele>
        <time>2021-06-03T10:43:09Z</time>
      </trkpt>
      <trkpt lat="45.66123" lon="4.444">
        <ele>671.62</ele>
        <time>2021-06-03T10:43:13Z</time>
      </trkpt>
      <trkpt lat="45.66124" lon="4.44402">
        <ele>672.58</ele>
        <time>2021-06-03T10:43:15Z</time>
      </trkpt>
      <trkpt lat="45.66125" lon="4.44405">
        <ele>671.14</ele>
        <time>2021-06-03T10:43:17Z</time>
      </trkpt>
      <trkpt lat="45.66126" lon="4.44406">
        <ele>671.14</ele>
        <time>2021-06-03T10:43:19Z</time>
      </trkpt>
      <trkpt lat="45.66127" lon="4.44408">
        <ele>672.58</ele>
        <time>2021-06-03T10:43:21Z</time>
      </trkpt>
      <trkpt lat="45.66134" lon="4.44421">
        <ele>672.58</ele>
        <time>2021-06-03T10:43:33Z</time>
      </trkpt>
      <trkpt lat="45.66137" lon="4.44431">
        <ele>671.14</ele>
        <time>2021-06-03T10:43:41Z</time>
      </trkpt>
      <trkpt lat="45.66144" lon="4.44445">
        <ele>671.14</ele>
        <time>2021-06-03T10:43:52Z</time>
      </trkpt>
      <trkpt lat="45.6615" lon="4.44456">
        <ele>670.18</ele>
        <time>2021-06-03T10:44:02Z</time>
      </trkpt>
      <trkpt lat="45.66163" lon="4.44476">
        <ele>670.18</ele>
        <time>2021-06-03T10:44:14Z</time>
      </trkpt>
      <trkpt lat="45.66172" lon="4.44486">
        <ele>670.18</ele>
        <time>2021-06-03T10:44:24Z</time>
      </trkpt>
      <trkpt lat="45.66179" lon="4.44495">
        <ele>671.14</ele>
        <time>2021-06-03T10:44:29Z</time>
      </trkpt>
      <trkpt lat="45.66184" lon="4.44502">
        <ele>669.7</ele>
        <time>2021-06-03T10:44:33Z</time>
      </trkpt>
      <trkpt lat="45.66203" lon="4.44518">
        <ele>671.14</ele>
        <time>2021-06-03T10:44:44Z</time>
      </trkpt>
      <trkpt lat="45.66223" lon="4.44525">
        <ele>671.14</ele>
        <time>2021-06-03T10:44:53Z</time>
      </trkpt>
      <trkpt lat="45.66242" lon="4.44538">
        <ele>671.62</ele>
        <time>2021-06-03T10:45:07Z</time>
      </trkpt>
      <trkpt lat="45.66251" lon="4.44545">
        <ele>671.62</ele>
        <time>2021-06-03T10:45:17Z</time>
      </trkpt>
      <trkpt lat="45.66252" lon="4.44544">
        <ele>671.62</ele>
        <time>2021-06-03T10:45:26Z</time>
      </trkpt>
      <trkpt lat="45.66253" lon="4.44539">
        <ele>670.18</ele>
        <time>2021-06-03T10:45:37Z</time>
      </trkpt>
      <trkpt lat="45.6626" lon="4.44541">
        <ele>670.66</ele>
        <time>2021-06-03T10:45:51Z</time>
      </trkpt>
      <trkpt lat="45.66273" lon="4.44551">
        <ele>672.58</ele>
        <time>2021-06-03T10:46:01Z</time>
      </trkpt>
      <trkpt lat="45.66272" lon="4.44546">
        <ele>671.62</ele>
        <time>2021-06-03T10:46:11Z</time>
      </trkpt>
      <trkpt lat="45.66252" lon="4.44536">
        <ele>671.62</ele>
        <time>2021-06-03T10:46:19Z</time>
      </trkpt>
      <trkpt lat="45.66251" lon="4.44537">
        <ele>671.62</ele>
        <time>2021-06-03T10:46:33Z</time>
      </trkpt>
      <trkpt lat="45.66249" lon="4.44537">
        <ele>672.1</ele>
        <time>2021-06-03T10:46:43Z</time>
      </trkpt>
      <trkpt lat="45.66249" lon="4.44536">
        <ele>672.1</ele>
        <time>2021-06-03T10:46:51Z</time>
      </trkpt>
      <trkpt lat="45.66245" lon="4.44534">
        <ele>672.1</ele>
        <time>2021-06-03T10:47:08Z</time>
      </trkpt>
      <trkpt lat="45.66247" lon="4.44534">
        <ele>672.1</ele>
        <time>2021-06-03T10:47:21Z</time>
      </trkpt>
      <trkpt lat="45.66245" lon="4.44533">
        <ele>671.62</ele>
        <time>2021-06-03T10:47:36Z</time>
      </trkpt>
      <trkpt lat="45.66248" lon="4.44536">
        <ele>671.62</ele>
        <time>2021-06-03T10:47:54Z</time>
      </trkpt>
      <trkpt lat="45.66249" lon="4.44544">
        <ele>671.62</ele>
        <time>2021-06-03T10:48:10Z</time>
      </trkpt>
      <trkpt lat="45.66241" lon="4.44544">
        <ele>672.1</ele>
        <time>2021-06-03T10:48:26Z</time>
      </trkpt>
      <trkpt lat="45.66252" lon="4.44545">
        <ele>672.1</ele>
        <time>2021-06-03T10:48:39Z</time>
      </trkpt>
      <trkpt lat="45.66261" lon="4.44553">
        <ele>672.1</ele>
        <time>2021-06-03T10:48:47Z</time>
      </trkpt>
      <trkpt lat="45.66251" lon="4.44551">
        <ele>672.1</ele>
        <time>2021-06-03T10:48:58Z</time>
      </trkpt>
      <trkpt lat="45.6625" lon="4.44551">
        <ele>675.46</ele>
        <time>2021-06-03T10:49:12Z</time>
      </trkpt>
      <trkpt lat="45.66264" lon="4.44553">
        <ele>672.58</ele>
        <time>2021-06-03T10:49:26Z</time>
      </trkpt>
      <trkpt lat="45.66278" lon="4.44557">
        <ele>673.06</ele>
        <time>2021-06-03T10:49:42Z</time>
      </trkpt>
      <trkpt lat="45.66287" lon="4.44564">
        <ele>673.54</ele>
        <time>2021-06-03T10:49:58Z</time>
      </trkpt>
      <trkpt lat="45.66286" lon="4.44564">
        <ele>673.54</ele>
        <time>2021-06-03T10:49:59Z</time>
      </trkpt>
      <trkpt lat="45.66261" lon="4.44574">
        <ele>674.02</ele>
        <time>2021-06-03T10:50:13Z</time>
      </trkpt>
      <trkpt lat="45.66253" lon="4.44596">
        <ele>674.02</ele>
        <time>2021-06-03T10:50:29Z</time>
      </trkpt>
      <trkpt lat="45.66255" lon="4.446">
        <ele>674.02</ele>
        <time>2021-06-03T10:50:44Z</time>
      </trkpt>
      <trkpt lat="45.66254" lon="4.44592">
        <ele>674.5</ele>
        <time>2021-06-03T10:50:58Z</time>
      </trkpt>
      <trkpt lat="45.66257" lon="4.44592">
        <ele>674.02</ele>
        <time>2021-06-03T10:51:12Z</time>
      </trkpt>
      <trkpt lat="45.66259" lon="4.44592">
        <ele>674.02</ele>
        <time>2021-06-03T10:51:29Z</time>
      </trkpt>
      <trkpt lat="45.66273" lon="4.44589">
        <ele>674.5</ele>
        <time>2021-06-03T10:51:42Z</time>
      </trkpt>
      <trkpt lat="45.6629" lon="4.4459">
        <ele>674.5</ele>
        <time>2021-06-03T10:51:56Z</time>
      </trkpt>
      <trkpt lat="45.66303" lon="4.44605">
        <ele>674.5</ele>
        <time>2021-06-03T10:52:12Z</time>
      </trkpt>
      <trkpt lat="45.66308" lon="4.44606">
        <ele>674.5</ele>
        <time>2021-06-03T10:52:28Z</time>
      </trkpt>
      <trkpt lat="45.66296" lon="4.4462">
        <ele>674.98</ele>
        <time>2021-06-03T10:52:41Z</time>
      </trkpt>
      <trkpt lat="45.66293" lon="4.44609">
        <ele>675.46</ele>
        <time>2021-06-03T10:52:55Z</time>
      </trkpt>
      <trkpt lat="45.66292" lon="4.44606">
        <ele>676.42</ele>
        <time>2021-06-03T10:53:03Z</time>
      </trkpt>
      <trkpt lat="45.66293" lon="4.44594">
        <ele>676.91</ele>
        <time>2021-06-03T10:53:18Z</time>
      </trkpt>
      <trkpt lat="45.66289" lon="4.44583">
        <ele>676.91</ele>
        <time>2021-06-03T10:53:32Z</time>
      </trkpt>
      <trkpt lat="45.66291" lon="4.44578">
        <ele>676.91</ele>
        <time>2021-06-03T10:53:48Z</time>
      </trkpt>
      <trkpt lat="45.6629" lon="4.44565">
        <ele>676.91</ele>
        <time>2021-06-03T10:53:59Z</time>
      </trkpt>
      <trkpt lat="45.6629" lon="4.44562">
        <ele>677.39</ele>
        <time>2021-06-03T10:54:14Z</time>
      </trkpt>
      <trkpt lat="45.66302" lon="4.44566">
        <ele>677.87</ele>
        <time>2021-06-03T10:54:30Z</time>
      </trkpt>
      <trkpt lat="45.66279" lon="4.44556">
        <ele>677.87</ele>
        <time>2021-06-03T10:54:50Z</time>
      </trkpt>
      <trkpt lat="45.66261" lon="4.44527">
        <ele>679.31</ele>
        <time>2021-06-03T10:54:59Z</time>
      </trkpt>
      <trkpt lat="45.66246" lon="4.44504">
        <ele>679.79</ele>
        <time>2021-06-03T10:55:14Z</time>
      </trkpt>
      <trkpt lat="45.66235" lon="4.44508">
        <ele>679.79</ele>
        <time>2021-06-03T10:55:26Z</time>
      </trkpt>
      <trkpt lat="45.66234" lon="4.44509">
        <ele>680.27</ele>
        <time>2021-06-03T10:55:41Z</time>
      </trkpt>
      <trkpt lat="45.66233" lon="4.44504">
        <ele>680.27</ele>
        <time>2021-06-03T10:55:53Z</time>
      </trkpt>
      <trkpt lat="45.66236" lon="4.44498">
        <ele>680.27</ele>
        <time>2021-06-03T10:56:07Z</time>
      </trkpt>
      <trkpt lat="45.66239" lon="4.44501">
        <ele>680.27</ele>
        <time>2021-06-03T10:56:22Z</time>
      </trkpt>
      <trkpt lat="45.66245" lon="4.44509">
        <ele>680.27</ele>
        <time>2021-06-03T10:56:37Z</time>
      </trkpt>
      <trkpt lat="45.66242" lon="4.44512">
        <ele>680.27</ele>
        <time>2021-06-03T10:56:53Z</time>
      </trkpt>
      <trkpt lat="45.66246" lon="4.44514">
        <ele>679.31</ele>
        <time>2021-06-03T10:57:12Z</time>
      </trkpt>
      <trkpt lat="45.66246" lon="4.44511">
        <ele>679.31</ele>
        <time>2021-06-03T10:57:29Z</time>
      </trkpt>
      <trkpt lat="45.66245" lon="4.44516">
        <ele>679.31</ele>
        <time>2021-06-03T10:57:42Z</time>
      </trkpt>
      <trkpt lat="45.66244" lon="4.44513">
        <ele>679.31</ele>
        <time>2021-06-03T10:57:57Z</time>
      </trkpt>
      <trkpt lat="45.66239" lon="4.44515">
        <ele>679.31</ele>
        <time>2021-06-03T10:58:14Z</time>
      </trkpt>
      <trkpt lat="45.66237" lon="4.4452">
        <ele>679.31</ele>
        <time>2021-06-03T10:58:28Z</time>
      </trkpt>
      <trkpt lat="45.66248" lon="4.44534">
        <ele>678.83</ele>
        <time>2021-06-03T10:58:41Z</time>
      </trkpt>
      <trkpt lat="45.66253" lon="4.44535">
        <ele>679.79</ele>
        <time>2021-06-03T10:58:49Z</time>
      </trkpt>
      <trkpt lat="45.66256" lon="4.44535">
        <ele>679.79</ele>
        <time>2021-06-03T10:59:04Z</time>
      </trkpt>
      <trkpt lat="45.66257" lon="4.44535">
        <ele>678.35</ele>
        <time>2021-06-03T10:59:07Z</time>
      </trkpt>
      <trkpt lat="45.66257" lon="4.44535">
        <ele>679.79</ele>
        <time>2021-06-03T10:59:10Z</time>
      </trkpt>
      <trkpt lat="45.66255" lon="4.44544">
        <ele>680.27</ele>
        <time>2021-06-03T10:59:23Z</time>
      </trkpt>
      <trkpt lat="45.66258" lon="4.44548">
        <ele>679.79</ele>
        <time>2021-06-03T10:59:33Z</time>
      </trkpt>
      <trkpt lat="45.66272" lon="4.44553">
        <ele>679.79</ele>
        <time>2021-06-03T10:59:47Z</time>
      </trkpt>
      <trkpt lat="45.66285" lon="4.44556">
        <ele>679.79</ele>
        <time>2021-06-03T10:59:59Z</time>
      </trkpt>
      <trkpt lat="45.66285" lon="4.44554">
        <ele>679.79</ele>
        <time>2021-06-03T11:00:13Z</time>
      </trkpt>
      <trkpt lat="45.66275" lon="4.44563">
        <ele>679.31</ele>
        <time>2021-06-03T11:00:35Z</time>
      </trkpt>
      <trkpt lat="45.66274" lon="4.44563">
        <ele>678.83</ele>
        <time>2021-06-03T11:00:55Z</time>
      </trkpt>
      <trkpt lat="45.66282" lon="4.44566">
        <ele>678.35</ele>
        <time>2021-06-03T11:01:11Z</time>
      </trkpt>
      <trkpt lat="45.66297" lon="4.44565">
        <ele>677.39</ele>
        <time>2021-06-03T11:01:21Z</time>
      </trkpt>
      <trkpt lat="45.66305" lon="4.44571">
        <ele>676.91</ele>
        <time>2021-06-03T11:01:28Z</time>
      </trkpt>
      <trkpt lat="45.66311" lon="4.44583">
        <ele>678.35</ele>
        <time>2021-06-03T11:01:37Z</time>
      </trkpt>
      <trkpt lat="45.66318" lon="4.44596">
        <ele>677.87</ele>
        <time>2021-06-03T11:01:48Z</time>
      </trkpt>
      <trkpt lat="45.66327" lon="4.44606">
        <ele>677.87</ele>
        <time>2021-06-03T11:01:58Z</time>
      </trkpt>
      <trkpt lat="45.66335" lon="4.44622">
        <ele>677.87</ele>
        <time>2021-06-03T11:02:09Z</time>
      </trkpt>
      <trkpt lat="45.66339" lon="4.44637">
        <ele>677.39</ele>
        <time>2021-06-03T11:02:20Z</time>
      </trkpt>
      <trkpt lat="45.66349" lon="4.44657">
        <ele>677.39</ele>
        <time>2021-06-03T11:02:31Z</time>
      </trkpt>
      <trkpt lat="45.66354" lon="4.44672">
        <ele>677.87</ele>
        <time>2021-06-03T11:02:41Z</time>
      </trkpt>
      <trkpt lat="45.66357" lon="4.44687">
        <ele>677.87</ele>
        <time>2021-06-03T11:02:51Z</time>
      </trkpt>
      <trkpt lat="45.66356" lon="4.44706">
        <ele>677.87</ele>
        <time>2021-06-03T11:03:03Z</time>
      </trkpt>
      <trkpt lat="45.66355" lon="4.44725">
        <ele>677.87</ele>
        <time>2021-06-03T11:03:14Z</time>
      </trkpt>
      <trkpt lat="45.66355" lon="4.4473">
        <ele>677.87</ele>
        <time>2021-06-03T11:03:17Z</time>
      </trkpt>
      <trkpt lat="45.66358" lon="4.44744">
        <ele>676.42</ele>
        <time>2021-06-03T11:03:24Z</time>
      </trkpt>
      <trkpt lat="45.66372" lon="4.44768">
        <ele>675.94</ele>
        <time>2021-06-03T11:03:38Z</time>
      </trkpt>
      <trkpt lat="45.66382" lon="4.44784">
        <ele>675.46</ele>
        <time>2021-06-03T11:03:50Z</time>
      </trkpt>
      <trkpt lat="45.66393" lon="4.44787">
        <ele>675.46</ele>
        <time>2021-06-03T11:04:00Z</time>
      </trkpt>
      <trkpt lat="45.66395" lon="4.44787">
        <ele>674.98</ele>
        <time>2021-06-03T11:04:01Z</time>
      </trkpt>
      <trkpt lat="45.66405" lon="4.44772">
        <ele>674.98</ele>
        <time>2021-06-03T11:04:12Z</time>
      </trkpt>
      <trkpt lat="45.66416" lon="4.44758">
        <ele>674.98</ele>
        <time>2021-06-03T11:04:25Z</time>
      </trkpt>
      <trkpt lat="45.66421" lon="4.44765">
        <ele>675.94</ele>
        <time>2021-06-03T11:04:33Z</time>
      </trkpt>
      <trkpt lat="45.66425" lon="4.44787">
        <ele>675.94</ele>
        <time>2021-06-03T11:04:46Z</time>
      </trkpt>
      <trkpt lat="45.66431" lon="4.44806">
        <ele>675.94</ele>
        <time>2021-06-03T11:04:58Z</time>
      </trkpt>
      <trkpt lat="45.66434" lon="4.44825">
        <ele>675.94</ele>
        <time>2021-06-03T11:05:09Z</time>
      </trkpt>
      <trkpt lat="45.66433" lon="4.44835">
        <ele>675.46</ele>
        <time>2021-06-03T11:05:14Z</time>
      </trkpt>
      <trkpt lat="45.66444" lon="4.44851">
        <ele>674.5</ele>
        <time>2021-06-03T11:05:28Z</time>
      </trkpt>
      <trkpt lat="45.66448" lon="4.44856">
        <ele>674.5</ele>
        <time>2021-06-03T11:05:40Z</time>
      </trkpt>
      <trkpt lat="45.66453" lon="4.44862">
        <ele>674.02</ele>
        <time>2021-06-03T11:05:49Z</time>
      </trkpt>
      <trkpt lat="45.66463" lon="4.44874">
        <ele>675.94</ele>
        <time>2021-06-03T11:06:01Z</time>
      </trkpt>
      <trkpt lat="45.66469" lon="4.44882">
        <ele>677.39</ele>
        <time>2021-06-03T11:06:10Z</time>
      </trkpt>
      <trkpt lat="45.66476" lon="4.44894">
        <ele>676.91</ele>
        <time>2021-06-03T11:06:22Z</time>
      </trkpt>
      <trkpt lat="45.66482" lon="4.449">
        <ele>676.91</ele>
        <time>2021-06-03T11:06:29Z</time>
      </trkpt>
      <trkpt lat="45.66494" lon="4.44915">
        <ele>677.39</ele>
        <time>2021-06-03T11:06:42Z</time>
      </trkpt>
      <trkpt lat="45.66502" lon="4.44927">
        <ele>677.87</ele>
        <time>2021-06-03T11:06:54Z</time>
      </trkpt>
      <trkpt lat="45.6651" lon="4.4494">
        <ele>679.31</ele>
        <time>2021-06-03T11:07:07Z</time>
      </trkpt>
      <trkpt lat="45.66513" lon="4.4495">
        <ele>678.83</ele>
        <time>2021-06-03T11:07:15Z</time>
      </trkpt>
      <trkpt lat="45.66516" lon="4.44967">
        <ele>679.79</ele>
        <time>2021-06-03T11:07:30Z</time>
      </trkpt>
      <trkpt lat="45.66515" lon="4.44982">
        <ele>681.23</ele>
        <time>2021-06-03T11:07:44Z</time>
      </trkpt>
      <trkpt lat="45.66516" lon="4.44999">
        <ele>681.23</ele>
        <time>2021-06-03T11:07:56Z</time>
      </trkpt>
      <trkpt lat="45.66516" lon="4.45013">
        <ele>681.71</ele>
        <time>2021-06-03T11:08:06Z</time>
      </trkpt>
      <trkpt lat="45.66514" lon="4.45027">
        <ele>681.71</ele>
        <time>2021-06-03T11:08:16Z</time>
      </trkpt>
      <trkpt lat="45.66513" lon="4.45046">
        <ele>682.19</ele>
        <time>2021-06-03T11:08:29Z</time>
      </trkpt>
      <trkpt lat="45.66512" lon="4.45065">
        <ele>682.67</ele>
        <time>2021-06-03T11:08:42Z</time>
      </trkpt>
      <trkpt lat="45.66517" lon="4.45081">
        <ele>683.15</ele>
        <time>2021-06-03T11:08:53Z</time>
      </trkpt>
      <trkpt lat="45.66522" lon="4.45091">
        <ele>682.67</ele>
        <time>2021-06-03T11:09:03Z</time>
      </trkpt>
      <trkpt lat="45.66527" lon="4.45102">
        <ele>682.67</ele>
        <time>2021-06-03T11:09:14Z</time>
      </trkpt>
      <trkpt lat="45.66528" lon="4.45116">
        <ele>683.15</ele>
        <time>2021-06-03T11:09:22Z</time>
      </trkpt>
      <trkpt lat="45.66531" lon="4.45137">
        <ele>683.15</ele>
        <time>2021-06-03T11:09:34Z</time>
      </trkpt>
      <trkpt lat="45.66535" lon="4.45154">
        <ele>681.71</ele>
        <time>2021-06-03T11:09:46Z</time>
      </trkpt>
      <trkpt lat="45.66537" lon="4.45171">
        <ele>681.71</ele>
        <time>2021-06-03T11:09:57Z</time>
      </trkpt>
      <trkpt lat="45.6654" lon="4.45185">
        <ele>681.23</ele>
        <time>2021-06-03T11:10:07Z</time>
      </trkpt>
      <trkpt lat="45.66543" lon="4.45199">
        <ele>681.23</ele>
        <time>2021-06-03T11:10:18Z</time>
      </trkpt>
      <trkpt lat="45.66546" lon="4.45214">
        <ele>681.23</ele>
        <time>2021-06-03T11:10:28Z</time>
      </trkpt>
      <trkpt lat="45.66552" lon="4.45229">
        <ele>681.23</ele>
        <time>2021-06-03T11:10:40Z</time>
      </trkpt>
      <trkpt lat="45.66554" lon="4.4524">
        <ele>682.19</ele>
        <time>2021-06-03T11:10:48Z</time>
      </trkpt>
      <trkpt lat="45.66551" lon="4.4525">
        <ele>682.19</ele>
        <time>2021-06-03T11:10:58Z</time>
      </trkpt>
      <trkpt lat="45.66547" lon="4.45262">
        <ele>681.71</ele>
        <time>2021-06-03T11:11:08Z</time>
      </trkpt>
      <trkpt lat="45.66543" lon="4.45267">
        <ele>682.67</ele>
        <time>2021-06-03T11:11:13Z</time>
      </trkpt>
      <trkpt lat="45.66534" lon="4.45278">
        <ele>682.67</ele>
        <time>2021-06-03T11:11:25Z</time>
      </trkpt>
      <trkpt lat="45.66529" lon="4.4529">
        <ele>684.12</ele>
        <time>2021-06-03T11:11:36Z</time>
      </trkpt>
      <trkpt lat="45.66533" lon="4.45296">
        <ele>685.08</ele>
        <time>2021-06-03T11:11:47Z</time>
      </trkpt>
      <trkpt lat="45.66545" lon="4.45304">
        <ele>686.04</ele>
        <time>2021-06-03T11:12:02Z</time>
      </trkpt>
      <trkpt lat="45.66561" lon="4.45312">
        <ele>687.96</ele>
        <time>2021-06-03T11:12:15Z</time>
      </trkpt>
      <trkpt lat="45.66568" lon="4.45313">
        <ele>687.48</ele>
        <time>2021-06-03T11:12:24Z</time>
      </trkpt>
      <trkpt lat="45.66569" lon="4.45314">
        <ele>688.92</ele>
        <time>2021-06-03T11:12:27Z</time>
      </trkpt>
      <trkpt lat="45.66573" lon="4.45321">
        <ele>689.88</ele>
        <time>2021-06-03T11:12:38Z</time>
      </trkpt>
      <trkpt lat="45.66577" lon="4.45332">
        <ele>690.84</ele>
        <time>2021-06-03T11:12:52Z</time>
      </trkpt>
      <trkpt lat="45.66579" lon="4.45338">
        <ele>691.33</ele>
        <time>2021-06-03T11:13:04Z</time>
      </trkpt>
      <trkpt lat="45.66578" lon="4.45349">
        <ele>692.29</ele>
        <time>2021-06-03T11:13:18Z</time>
      </trkpt>
      <trkpt lat="45.66579" lon="4.45364">
        <ele>693.73</ele>
        <time>2021-06-03T11:13:31Z</time>
      </trkpt>
      <trkpt lat="45.66582" lon="4.45375">
        <ele>694.69</ele>
        <time>2021-06-03T11:13:42Z</time>
      </trkpt>
      <trkpt lat="45.66586" lon="4.45388">
        <ele>695.17</ele>
        <time>2021-06-03T11:13:54Z</time>
      </trkpt>
      <trkpt lat="45.66588" lon="4.45391">
        <ele>697.09</ele>
        <time>2021-06-03T11:13:57Z</time>
      </trkpt>
      <trkpt lat="45.66594" lon="4.45404">
        <ele>698.05</ele>
        <time>2021-06-03T11:14:09Z</time>
      </trkpt>
      <trkpt lat="45.66602" lon="4.45415">
        <ele>699.5</ele>
        <time>2021-06-03T11:14:20Z</time>
      </trkpt>
      <trkpt lat="45.66608" lon="4.45424">
        <ele>699.02</ele>
        <time>2021-06-03T11:14:29Z</time>
      </trkpt>
      <trkpt lat="45.66612" lon="4.45434">
        <ele>698.53</ele>
        <time>2021-06-03T11:14:37Z</time>
      </trkpt>
      <trkpt lat="45.66613" lon="4.4544">
        <ele>699.98</ele>
        <time>2021-06-03T11:14:43Z</time>
      </trkpt>
      <trkpt lat="45.66614" lon="4.45462">
        <ele>699.98</ele>
        <time>2021-06-03T11:14:54Z</time>
      </trkpt>
      <trkpt lat="45.66613" lon="4.45479">
        <ele>699.98</ele>
        <time>2021-06-03T11:15:04Z</time>
      </trkpt>
      <trkpt lat="45.66611" lon="4.45493">
        <ele>701.42</ele>
        <time>2021-06-03T11:15:14Z</time>
      </trkpt>
      <trkpt lat="45.66605" lon="4.4551">
        <ele>701.42</ele>
        <time>2021-06-03T11:15:25Z</time>
      </trkpt>
      <trkpt lat="45.66598" lon="4.4553">
        <ele>701.42</ele>
        <time>2021-06-03T11:15:38Z</time>
      </trkpt>
      <trkpt lat="45.66594" lon="4.45539">
        <ele>700.94</ele>
        <time>2021-06-03T11:15:47Z</time>
      </trkpt>
      <trkpt lat="45.66594" lon="4.45535">
        <ele>700.94</ele>
        <time>2021-06-03T11:15:56Z</time>
      </trkpt>
      <trkpt lat="45.66599" lon="4.45524">
        <ele>701.42</ele>
        <time>2021-06-03T11:16:06Z</time>
      </trkpt>
      <trkpt lat="45.66597" lon="4.45519">
        <ele>701.9</ele>
        <time>2021-06-03T11:16:16Z</time>
      </trkpt>
      <trkpt lat="45.66595" lon="4.45518">
        <ele>701.9</ele>
        <time>2021-06-03T11:16:32Z</time>
      </trkpt>
      <trkpt lat="45.66596" lon="4.45517">
        <ele>701.42</ele>
        <time>2021-06-03T11:16:49Z</time>
      </trkpt>
      <trkpt lat="45.66596" lon="4.45524">
        <ele>701.42</ele>
        <time>2021-06-03T11:17:00Z</time>
      </trkpt>
      <trkpt lat="45.66594" lon="4.45528">
        <ele>701.42</ele>
        <time>2021-06-03T11:17:03Z</time>
      </trkpt>
      <trkpt lat="45.66593" lon="4.45535">
        <ele>699.98</ele>
        <time>2021-06-03T11:17:07Z</time>
      </trkpt>
      <trkpt lat="45.66588" lon="4.45545">
        <ele>700.46</ele>
        <time>2021-06-03T11:17:15Z</time>
      </trkpt>
      <trkpt lat="45.6658" lon="4.45561">
        <ele>701.42</ele>
        <time>2021-06-03T11:17:27Z</time>
      </trkpt>
      <trkpt lat="45.66574" lon="4.45575">
        <ele>701.9</ele>
        <time>2021-06-03T11:17:37Z</time>
      </trkpt>
      <trkpt lat="45.66565" lon="4.45589">
        <ele>703.34</ele>
        <time>2021-06-03T11:17:48Z</time>
      </trkpt>
      <trkpt lat="45.66555" lon="4.45608">
        <ele>705.26</ele>
        <time>2021-06-03T11:18:01Z</time>
      </trkpt>
      <trkpt lat="45.66547" lon="4.45627">
        <ele>705.75</ele>
        <time>2021-06-03T11:18:13Z</time>
      </trkpt>
      <trkpt lat="45.6654" lon="4.45649">
        <ele>707.19</ele>
        <time>2021-06-03T11:18:27Z</time>
      </trkpt>
      <trkpt lat="45.66534" lon="4.45668">
        <ele>708.15</ele>
        <time>2021-06-03T11:18:38Z</time>
      </trkpt>
      <trkpt lat="45.66523" lon="4.45687">
        <ele>710.07</ele>
        <time>2021-06-03T11:18:50Z</time>
      </trkpt>
      <trkpt lat="45.66512" lon="4.45697">
        <ele>710.07</ele>
        <time>2021-06-03T11:19:01Z</time>
      </trkpt>
      <trkpt lat="45.66511" lon="4.45697">
        <ele>710.07</ele>
        <time>2021-06-03T11:19:02Z</time>
      </trkpt>
      <trkpt lat="45.66494" lon="4.45698">
        <ele>711.51</ele>
        <time>2021-06-03T11:19:14Z</time>
      </trkpt>
      <trkpt lat="45.66477" lon="4.45694">
        <ele>712.47</ele>
        <time>2021-06-03T11:19:27Z</time>
      </trkpt>
      <trkpt lat="45.6647" lon="4.45693">
        <ele>712.47</ele>
        <time>2021-06-03T11:19:34Z</time>
      </trkpt>
      <trkpt lat="45.66456" lon="4.4569">
        <ele>712.95</ele>
        <time>2021-06-03T11:19:45Z</time>
      </trkpt>
      <trkpt lat="45.66439" lon="4.45687">
        <ele>714.4</ele>
        <time>2021-06-03T11:19:58Z</time>
      </trkpt>
      <trkpt lat="45.66422" lon="4.45687">
        <ele>715.84</ele>
        <time>2021-06-03T11:20:10Z</time>
      </trkpt>
      <trkpt lat="45.66404" lon="4.45688">
        <ele>717.76</ele>
        <time>2021-06-03T11:20:22Z</time>
      </trkpt>
      <trkpt lat="45.66385" lon="4.45693">
        <ele>718.72</ele>
        <time>2021-06-03T11:20:36Z</time>
      </trkpt>
      <trkpt lat="45.6637" lon="4.45696">
        <ele>719.68</ele>
        <time>2021-06-03T11:20:48Z</time>
      </trkpt>
      <trkpt lat="45.66354" lon="4.45694">
        <ele>720.16</ele>
        <time>2021-06-03T11:21:00Z</time>
      </trkpt>
      <trkpt lat="45.66343" lon="4.45697">
        <ele>721.61</ele>
        <time>2021-06-03T11:21:07Z</time>
      </trkpt>
      <trkpt lat="45.66324" lon="4.45698">
        <ele>722.09</ele>
        <time>2021-06-03T11:21:19Z</time>
      </trkpt>
      <trkpt lat="45.66305" lon="4.45697">
        <ele>722.57</ele>
        <time>2021-06-03T11:21:30Z</time>
      </trkpt>
      <trkpt lat="45.66291" lon="4.45696">
        <ele>724.49</ele>
        <time>2021-06-03T11:21:39Z</time>
      </trkpt>
      <trkpt lat="45.66272" lon="4.45698">
        <ele>725.45</ele>
        <time>2021-06-03T11:21:53Z</time>
      </trkpt>
      <trkpt lat="45.66271" lon="4.45698">
        <ele>725.45</ele>
        <time>2021-06-03T11:21:54Z</time>
      </trkpt>
      <trkpt lat="45.66253" lon="4.457">
        <ele>725.45</ele>
        <time>2021-06-03T11:22:06Z</time>
      </trkpt>
      <trkpt lat="45.66234" lon="4.45708">
        <ele>725.45</ele>
        <time>2021-06-03T11:22:19Z</time>
      </trkpt>
      <trkpt lat="45.6623" lon="4.4571">
        <ele>726.89</ele>
        <time>2021-06-03T11:22:23Z</time>
      </trkpt>
      <trkpt lat="45.66225" lon="4.45716">
        <ele>726.89</ele>
        <time>2021-06-03T11:22:27Z</time>
      </trkpt>
      <trkpt lat="45.66212" lon="4.4573">
        <ele>727.37</ele>
        <time>2021-06-03T11:22:39Z</time>
      </trkpt>
    </trkseg>
  </trk>
</gpx>